PWSweather.com
Personal Weather Stations
Station Observations
WOODBURYWX
Lighthouse Rd, Woodbury, Woodbury, CT 06798

Lighthouse Rd, WoodburyWoodbury, CT 06798

Lat: 41.553333, Lon: -73.224167

Elevation: 437

Station Type: Ambient Weather WS-1090

Latest ConditionsUpdated 11:14:00 PM EDT Wednesday, Apr 23, 2014
Currently Today's Max Today's Min Today's Average
Temperature 43.9°F6.6°C 56.8°F13.8°C 43.9°F6.6°C 49.0°F9.4°C
Dew Point 28.8°F-1.8°C 49.7°F9.8°C 28.8°F-1.8°C 38.9°F3.8°C
Winds 4.4 mph NW7.1 kmh NW 11.2 mph SW18.0 kmh SW - 4.9 mph 7.9 kmh
Wind Gusts 9.1 mph14.6 kmh 27.4 mph44.1 kmh - -
Humidity 55% 96% 43% 69%
Pressure 29.78 in1008.5 mb 29.79 in1008.8 mb 29.51 in999.3 mb -
Hour Temp Dew Point Humidity Winds Wind Gusts Pressure Precip Precip Rate Daily Precip Total
11:14 PM 43.9°F6.6°C 28.8°F-1.8°C 55% 4.4 mph NW7.1 kmh NW 9.1 mph14.6 kmh 29.78 in1008.5 mb 0.00 in0.0 mm 0.00 in/hr0.0 mm/hr 0.00 in0.0 mm
11:13 PM 43.9°F6.6°C 28.8°F-1.8°C 55% 4.1 mph NW6.6 kmh NW 9.1 mph14.6 kmh 29.78 in1008.5 mb 0.00 in0.0 mm 0.00 in/hr0.0 mm/hr 0.00 in0.0 mm
11:12 PM 43.9°F6.6°C 28.8°F-1.8°C 55% 3.8 mph NW6.1 kmh NW 9.1 mph14.6 kmh 29.78 in1008.5 mb 0.00 in0.0 mm 0.00 in/hr0.0 mm/hr 0.00 in0.0 mm
11:11 PM 43.9°F6.6°C 28.8°F-1.8°C 55% 3.8 mph NW6.1 kmh NW 9.1 mph14.6 kmh 29.78 in1008.5 mb 0.00 in0.0 mm 0.00 in/hr0.0 mm/hr 0.00 in0.0 mm
11:10 PM 43.9°F6.6°C 28.8°F-1.8°C 55% 3.5 mph NW5.6 kmh NW 9.1 mph14.6 kmh 29.78 in1008.5 mb 0.00 in0.0 mm 0.00 in/hr0.0 mm/hr 0.00 in0.0 mm
11:09 PM 43.9°F6.6°C 29.2°F-1.6°C 56% 3.1 mph NW5.0 kmh NW 5.4 mph8.7 kmh 29.78 in1008.5 mb 0.00 in0.0 mm 0.00 in/hr0.0 mm/hr 0.00 in0.0 mm
11:08 PM 43.9°F6.6°C 29.2°F-1.6°C 56% 3.3 mph NW5.3 kmh NW 8.3 mph13.4 kmh 29.78 in1008.5 mb 0.00 in0.0 mm 0.00 in/hr0.0 mm/hr 0.00 in0.0 mm
11:07 PM 44.1°F6.7°C 28.9°F-1.7°C 55% 4.1 mph NNW6.6 kmh NNW 13.7 mph22.0 kmh 29.78 in1008.5 mb 0.00 in0.0 mm 0.00 in/hr0.0 mm/hr 0.00 in0.0 mm
11:06 PM 44.1°F6.7°C 28.9°F-1.7°C 55% 4.5 mph N7.2 kmh N 13.7 mph22.0 kmh 29.78 in1008.5 mb 0.00 in0.0 mm 0.00 in/hr0.0 mm/hr 0.00 in0.0 mm
11:05 PM 44.1°F6.7°C 28.9°F-1.7°C 55% 4.9 mph N7.9 kmh N 13.7 mph22.0 kmh 29.79 in1008.8 mb 0.00 in0.0 mm 0.00 in/hr0.0 mm/hr 0.00 in0.0 mm
11:04 PM 44.1°F6.7°C 28.9°F-1.7°C 55% 5.3 mph N8.5 kmh N 13.7 mph22.0 kmh 29.78 in1008.5 mb 0.00 in0.0 mm 0.00 in/hr0.0 mm/hr 0.00 in0.0 mm
11:03 PM 44.1°F6.7°C 28.9°F-1.7°C 55% 5.8 mph N9.3 kmh N 13.7 mph22.0 kmh 29.78 in1008.5 mb 0.00 in0.0 mm 0.00 in/hr0.0 mm/hr 0.00 in0.0 mm
11:02 PM 44.1°F6.7°C 28.9°F-1.7°C 55% 6.1 mph N9.8 kmh N 13.7 mph22.0 kmh 29.78 in1008.5 mb 0.00 in0.0 mm 0.00 in/hr0.0 mm/hr 0.00 in0.0 mm
11:01 PM 44.1°F6.7°C 28.9°F-1.7°C 55% 6.3 mph N10.1 kmh N 13.7 mph22.0 kmh 29.78 in1008.5 mb 0.00 in0.0 mm 0.00 in/hr0.0 mm/hr 0.00 in0.0 mm
11:00 PM 44.1°F6.7°C 28.9°F-1.7°C 55% 6.6 mph N10.6 kmh N 13.7 mph22.0 kmh 29.78 in1008.5 mb 0.00 in0.0 mm 0.00 in/hr0.0 mm/hr 0.00 in0.0 mm
10:59 PM 44.1°F6.7°C 28.9°F-1.7°C 55% 6.8 mph N10.9 kmh N 13.7 mph22.0 kmh 29.78 in1008.5 mb 0.00 in0.0 mm 0.00 in/hr0.0 mm/hr 0.00 in0.0 mm
10:58 PM 44.1°F6.7°C 28.9°F-1.7°C 55% 6.5 mph N10.5 kmh N 13.7 mph22.0 kmh 29.78 in1008.5 mb 0.00 in0.0 mm 0.00 in/hr0.0 mm/hr 0.00 in0.0 mm
10:57 PM 44.1°F6.7°C 28.9°F-1.7°C 55% 5.4 mph N8.7 kmh N 7.2 mph11.6 kmh 29.78 in1008.5 mb 0.00 in0.0 mm 0.00 in/hr0.0 mm/hr 0.00 in0.0 mm
10:56 PM 44.1°F6.7°C 28.9°F-1.7°C 55% 5.3 mph NW8.5 kmh NW 7.2 mph11.6 kmh 29.77 in1008.1 mb 0.00 in0.0 mm 0.00 in/hr0.0 mm/hr 0.00 in0.0 mm
10:55 PM 44.1°F6.7°C 28.9°F-1.7°C 55% 5.0 mph NW8.0 kmh NW 7.2 mph11.6 kmh 29.79 in1008.8 mb 0.00 in0.0 mm 0.00 in/hr0.0 mm/hr 0.00 in0.0 mm
10:54 PM 44.1°F6.7°C 28.9°F-1.7°C 55% 4.8 mph NNW7.7 kmh NNW 7.2 mph11.6 kmh 29.78 in1008.5 mb 0.00 in0.0 mm 0.00 in/hr0.0 mm/hr 0.00 in0.0 mm
10:53 PM 44.1°F6.7°C 28.9°F-1.7°C 55% 4.7 mph N7.6 kmh N 9.9 mph15.9 kmh 29.78 in1008.5 mb 0.00 in0.0 mm 0.00 in/hr0.0 mm/hr 0.00 in0.0 mm
10:52 PM 44.1°F6.7°C 28.9°F-1.7°C 55% 5.3 mph NE8.5 kmh NE 11.0 mph17.7 kmh 29.78 in1008.5 mb 0.00 in0.0 mm 0.00 in/hr0.0 mm/hr 0.00 in0.0 mm
10:51 PM 44.1°F6.7°C 28.9°F-1.7°C 55% 5.1 mph NE8.2 kmh NE 11.0 mph17.7 kmh 29.78 in1008.5 mb 0.00 in0.0 mm 0.00 in/hr0.0 mm/hr 0.00 in0.0 mm
10:50 PM 44.1°F6.7°C 28.9°F-1.7°C 55% 5.6 mph NW9.0 kmh NW 11.0 mph17.7 kmh 29.78 in1008.5 mb 0.00 in0.0 mm 0.00 in/hr0.0 mm/hr 0.00 in0.0 mm
10:49 PM 44.1°F6.7°C 28.9°F-1.7°C 55% 5.6 mph WSW9.0 kmh WSW 11.0 mph17.7 kmh 29.78 in1008.5 mb 0.00 in0.0 mm 0.00 in/hr0.0 mm/hr 0.00 in0.0 mm
10:48 PM 44.1°F6.7°C 28.9°F-1.7°C 55% 5.6 mph SSW9.0 kmh SSW 11.0 mph17.7 kmh 29.78 in1008.5 mb 0.00 in0.0 mm 0.00 in/hr0.0 mm/hr 0.00 in0.0 mm
10:47 PM 44.1°F6.7°C 28.9°F-1.7°C 55% 5.9 mph SSW9.5 kmh SSW 11.0 mph17.7 kmh 29.78 in1008.5 mb 0.00 in0.0 mm 0.00 in/hr0.0 mm/hr 0.00 in0.0 mm
10:46 PM 44.1°F6.7°C 28.9°F-1.7°C 55% 5.7 mph S9.2 kmh S 11.0 mph17.7 kmh 29.77 in1008.1 mb 0.00 in0.0 mm 0.00 in/hr0.0 mm/hr 0.00 in0.0 mm
10:45 PM 44.1°F6.7°C 28.9°F-1.7°C 55% 6.0 mph SW9.7 kmh SW 11.0 mph17.7 kmh 29.78 in1008.5 mb 0.00 in0.0 mm 0.00 in/hr0.0 mm/hr 0.00 in0.0 mm
10:44 PM 44.2°F6.8°C 29.1°F-1.6°C 55% 6.1 mph SW9.8 kmh SW 11.0 mph17.7 kmh 29.78 in1008.5 mb 0.00 in0.0 mm 0.00 in/hr0.0 mm/hr 0.00 in0.0 mm
10:43 PM 44.2°F6.8°C 29.1°F-1.6°C 55% 5.8 mph SW9.3 kmh SW 11.0 mph17.7 kmh 29.77 in1008.1 mb 0.00 in0.0 mm 0.00 in/hr0.0 mm/hr 0.00 in0.0 mm
10:42 PM 44.2°F6.8°C 29.6°F-1.3°C 56% 4.9 mph WSW7.9 kmh WSW 11.0 mph17.7 kmh 29.77 in1008.1 mb 0.00 in0.0 mm 0.00 in/hr0.0 mm/hr 0.00 in0.0 mm
10:41 PM 44.2°F6.8°C 29.6°F-1.3°C 56% 4.9 mph W7.9 kmh W 11.0 mph17.7 kmh 29.77 in1008.1 mb 0.00 in0.0 mm 0.00 in/hr0.0 mm/hr 0.00 in0.0 mm
10:40 PM 44.2°F6.8°C 29.6°F-1.3°C 56% 4.2 mph W6.8 kmh W 9.9 mph15.9 kmh 29.77 in1008.1 mb 0.00 in0.0 mm 0.00 in/hr0.0 mm/hr 0.00 in0.0 mm
10:39 PM 44.2°F6.8°C 29.6°F-1.3°C 56% 4.4 mph NW7.1 kmh NW 9.9 mph15.9 kmh 29.77 in1008.1 mb 0.00 in0.0 mm 0.00 in/hr0.0 mm/hr 0.00 in0.0 mm
10:38 PM 44.2°F6.8°C 29.6°F-1.3°C 56% 4.7 mph NNW7.6 kmh NNW 9.9 mph15.9 kmh 29.77 in1008.1 mb 0.00 in0.0 mm 0.00 in/hr0.0 mm/hr 0.00 in0.0 mm
10:37 PM 44.2°F6.8°C 29.6°F-1.3°C 56% 5.2 mph N8.4 kmh N 9.9 mph15.9 kmh 29.77 in1008.1 mb 0.00 in0.0 mm 0.00 in/hr0.0 mm/hr 0.00 in0.0 mm
10:36 PM 44.2°F6.8°C 29.6°F-1.3°C 56% 5.8 mph NNW9.3 kmh NNW 11.0 mph17.7 kmh 29.77 in1008.1 mb 0.00 in0.0 mm 0.00 in/hr0.0 mm/hr 0.00 in0.0 mm
10:35 PM 44.2°F6.8°C 29.6°F-1.3°C 56% 6.0 mph N9.7 kmh N 11.0 mph17.7 kmh 29.77 in1008.1 mb 0.00 in0.0 mm 0.00 in/hr0.0 mm/hr 0.00 in0.0 mm
10:34 PM 44.2°F6.8°C 29.6°F-1.3°C 56% 5.9 mph NNE9.5 kmh NNE 11.0 mph17.7 kmh 29.77 in1008.1 mb 0.00 in0.0 mm 0.00 in/hr0.0 mm/hr 0.00 in0.0 mm
10:33 PM 44.2°F6.8°C 29.1°F-1.6°C 55% 5.9 mph NNE9.5 kmh NNE 11.0 mph17.7 kmh 29.77 in1008.1 mb 0.00 in0.0 mm 0.00 in/hr0.0 mm/hr 0.00 in0.0 mm
10:32 PM 44.2°F6.8°C 29.6°F-1.3°C 56% 6.1 mph N9.8 kmh N 11.0 mph17.7 kmh 29.77 in1008.1 mb 0.00 in0.0 mm 0.00 in/hr0.0 mm/hr 0.00 in0.0 mm
10:31 PM 44.2°F6.8°C 29.6°F-1.3°C 56% 6.2 mph N10.0 kmh N 11.0 mph17.7 kmh 29.77 in1008.1 mb 0.00 in0.0 mm 0.00 in/hr0.0 mm/hr 0.00 in0.0 mm
10:30 PM 44.2°F6.8°C 29.6°F-1.3°C 56% 6.2 mph N10.0 kmh N 11.0 mph17.7 kmh 29.77 in1008.1 mb 0.00 in0.0 mm 0.00 in/hr0.0 mm/hr 0.00 in0.0 mm
10:29 PM 44.2°F6.8°C 29.6°F-1.3°C 56% 5.8 mph N9.3 kmh N 11.0 mph17.7 kmh 29.77 in1008.1 mb 0.00 in0.0 mm 0.00 in/hr0.0 mm/hr 0.00 in0.0 mm
10:28 PM 44.2°F6.8°C 29.1°F-1.6°C 55% 5.5 mph N8.9 kmh N 11.0 mph17.7 kmh 29.78 in1008.5 mb 0.00 in0.0 mm 0.00 in/hr0.0 mm/hr 0.00 in0.0 mm
10:27 PM 44.2°F6.8°C 29.6°F-1.3°C 56% 5.0 mph NNW8.0 kmh NNW 11.0 mph17.7 kmh 29.77 in1008.1 mb 0.00 in0.0 mm 0.00 in/hr0.0 mm/hr 0.00 in0.0 mm
10:26 PM 44.2°F6.8°C 29.6°F-1.3°C 56% 4.4 mph NNW7.1 kmh NNW 9.1 mph14.6 kmh 29.77 in1008.1 mb 0.00 in0.0 mm 0.00 in/hr0.0 mm/hr 0.00 in0.0 mm
10:25 PM 44.2°F6.8°C 29.6°F-1.3°C 56% 3.9 mph N6.3 kmh N 4.6 mph7.4 kmh 29.77 in1008.1 mb 0.00 in0.0 mm 0.00 in/hr0.0 mm/hr 0.00 in0.0 mm
10:24 PM 44.2°F6.8°C 29.6°F-1.3°C 56% 3.9 mph NNW6.3 kmh NNW 5.4 mph8.7 kmh 29.78 in1008.5 mb 0.00 in0.0 mm 0.00 in/hr0.0 mm/hr 0.00 in0.0 mm
10:23 PM 44.2°F6.8°C 29.6°F-1.3°C 56% 4.1 mph NNW6.6 kmh NNW 5.4 mph8.7 kmh 29.78 in1008.5 mb 0.00 in0.0 mm 0.00 in/hr0.0 mm/hr 0.00 in0.0 mm
10:22 PM 44.2°F6.8°C 29.6°F-1.3°C 56% 4.1 mph NNW6.6 kmh NNW 5.4 mph8.7 kmh 29.78 in1008.5 mb 0.00 in0.0 mm 0.00 in/hr0.0 mm/hr 0.00 in0.0 mm
10:21 PM 44.2°F6.8°C 29.6°F-1.3°C 56% 4.1 mph NNW6.6 kmh NNW 6.4 mph10.3 kmh 29.77 in1008.1 mb 0.00 in0.0 mm 0.00 in/hr0.0 mm/hr 0.00 in0.0 mm
10:20 PM 44.2°F6.8°C 29.6°F-1.3°C 56% 4.4 mph N7.1 kmh N 6.4 mph10.3 kmh 29.77 in1008.1 mb 0.00 in0.0 mm 0.00 in/hr0.0 mm/hr 0.00 in0.0 mm
10:19 PM 44.2°F6.8°C 29.6°F-1.3°C 56% 4.5 mph N7.2 kmh N 8.3 mph13.4 kmh 29.77 in1008.1 mb 0.00 in0.0 mm 0.00 in/hr0.0 mm/hr 0.00 in0.0 mm
10:18 PM 44.2°F6.8°C 29.6°F-1.3°C 56% 4.9 mph N7.9 kmh N 8.3 mph13.4 kmh 29.78 in1008.5 mb 0.00 in0.0 mm 0.00 in/hr0.0 mm/hr 0.00 in0.0 mm
10:17 PM 44.2°F6.8°C 29.6°F-1.3°C 56% 5.2 mph N8.4 kmh N 8.3 mph13.4 kmh 29.78 in1008.5 mb 0.00 in0.0 mm 0.00 in/hr0.0 mm/hr 0.00 in0.0 mm
10:16 PM 44.2°F6.8°C 29.6°F-1.3°C 56% 5.4 mph N8.7 kmh N 8.3 mph13.4 kmh 29.77 in1008.1 mb 0.00 in0.0 mm 0.00 in/hr0.0 mm/hr 0.00 in0.0 mm
10:15 PM 44.2°F6.8°C 29.6°F-1.3°C 56% 5.8 mph N9.3 kmh N 8.3 mph13.4 kmh 29.78 in1008.5 mb 0.00 in0.0 mm 0.00 in/hr0.0 mm/hr 0.00 in0.0 mm
10:14 PM 44.2°F6.8°C 29.1°F-1.6°C 55% 5.9 mph N9.5 kmh N 8.3 mph13.4 kmh 29.77 in1008.1 mb 0.00 in0.0 mm 0.00 in/hr0.0 mm/hr 0.00 in0.0 mm
10:13 PM 44.2°F6.8°C 29.6°F-1.3°C 56% 6.1 mph N9.8 kmh N 8.3 mph13.4 kmh 29.77 in1008.1 mb 0.00 in0.0 mm 0.00 in/hr0.0 mm/hr 0.00 in0.0 mm
10:12 PM 44.2°F6.8°C 29.6°F-1.3°C 56% 6.2 mph N10.0 kmh N 8.3 mph13.4 kmh 29.77 in1008.1 mb 0.00 in0.0 mm 0.00 in/hr0.0 mm/hr 0.00 in0.0 mm
10:11 PM 44.2°F6.8°C 29.1°F-1.6°C 55% 6.5 mph ENE10.5 kmh ENE 8.3 mph13.4 kmh 29.77 in1008.1 mb 0.00 in0.0 mm 0.00 in/hr0.0 mm/hr 0.00 in0.0 mm
10:10 PM 44.2°F6.8°C 29.6°F-1.3°C 56% 6.5 mph E10.5 kmh E 8.3 mph13.4 kmh 29.77 in1008.1 mb 0.00 in0.0 mm 0.00 in/hr0.0 mm/hr 0.00 in0.0 mm
10:09 PM 44.2°F6.8°C 29.6°F-1.3°C 56% 6.7 mph ESE10.8 kmh ESE 8.3 mph13.4 kmh 29.77 in1008.1 mb 0.00 in0.0 mm 0.00 in/hr0.0 mm/hr 0.00 in0.0 mm
10:08 PM 44.2°F6.8°C 29.6°F-1.3°C 56% 6.9 mph E11.1 kmh E 11.0 mph17.7 kmh 29.77 in1008.1 mb 0.00 in0.0 mm 0.00 in/hr0.0 mm/hr 0.00 in0.0 mm
10:07 PM 44.2°F6.8°C 29.6°F-1.3°C 56% 6.4 mph E10.3 kmh E 11.0 mph17.7 kmh 29.77 in1008.1 mb 0.00 in0.0 mm 0.00 in/hr0.0 mm/hr 0.00 in0.0 mm
10:06 PM 44.2°F6.8°C 29.6°F-1.3°C 56% 6.4 mph E10.3 kmh E 11.0 mph17.7 kmh 29.78 in1008.5 mb 0.00 in0.0 mm 0.00 in/hr0.0 mm/hr 0.00 in0.0 mm
10:05 PM 44.2°F6.8°C 29.6°F-1.3°C 56% 6.5 mph E10.5 kmh E 11.0 mph17.7 kmh 29.77 in1008.1 mb 0.00 in0.0 mm 0.00 in/hr0.0 mm/hr 0.00 in0.0 mm
10:04 PM 44.2°F6.8°C 29.6°F-1.3°C 56% 7.1 mph E11.4 kmh E 13.7 mph22.0 kmh 29.77 in1008.1 mb 0.00 in0.0 mm 0.00 in/hr0.0 mm/hr 0.00 in0.0 mm
10:03 PM 44.2°F6.8°C 29.6°F-1.3°C 56% 6.8 mph E10.9 kmh E 13.7 mph22.0 kmh 29.77 in1008.1 mb 0.00 in0.0 mm 0.00 in/hr0.0 mm/hr 0.00 in0.0 mm
10:02 PM 44.2°F6.8°C 29.6°F-1.3°C 56% 6.8 mph ENE10.9 kmh ENE 13.7 mph22.0 kmh 29.77 in1008.1 mb 0.00 in0.0 mm 0.00 in/hr0.0 mm/hr 0.00 in0.0 mm
10:01 PM 44.2°F6.8°C 29.6°F-1.3°C 56% 7.0 mph NE11.3 kmh NE 13.7 mph22.0 kmh 29.77 in1008.1 mb 0.00 in0.0 mm 0.00 in/hr0.0 mm/hr 0.00 in0.0 mm
10:00 PM 44.2°F6.8°C 29.6°F-1.3°C 56% 7.1 mph NE11.4 kmh NE 13.7 mph22.0 kmh 29.77 in1008.1 mb 0.00 in0.0 mm 0.00 in/hr0.0 mm/hr 0.00 in0.0 mm
09:59 PM 44.2°F6.8°C 29.6°F-1.3°C 56% 6.7 mph NE10.8 kmh NE 13.7 mph22.0 kmh 29.77 in1008.1 mb 0.00 in0.0 mm 0.00 in/hr0.0 mm/hr 0.00 in0.0 mm
09:58 PM 44.2°F6.8°C 29.6°F-1.3°C 56% 6.1 mph ENE9.8 kmh ENE 13.7 mph22.0 kmh 29.77 in1008.1 mb 0.00 in0.0 mm 0.00 in/hr0.0 mm/hr 0.00 in0.0 mm
09:57 PM 44.2°F6.8°C 29.6°F-1.3°C 56% 6.4 mph ENE10.3 kmh ENE 13.7 mph22.0 kmh 29.77 in1008.1 mb 0.00 in0.0 mm 0.00 in/hr0.0 mm/hr 0.00 in0.0 mm
09:56 PM 44.2°F6.8°C 29.6°F-1.3°C 56% 6.3 mph ENE10.1 kmh ENE 13.7 mph22.0 kmh 29.77 in1008.1 mb 0.00 in0.0 mm 0.00 in/hr0.0 mm/hr 0.00 in0.0 mm
09:55 PM 44.2°F6.8°C 29.6°F-1.3°C 56% 6.0 mph ENE9.7 kmh ENE 13.7 mph22.0 kmh 29.77 in1008.1 mb 0.00 in0.0 mm 0.00 in/hr0.0 mm/hr 0.00 in0.0 mm
09:54 PM 44.2°F6.8°C 29.6°F-1.3°C 56% 5.4 mph E8.7 kmh E 12.9 mph20.8 kmh 29.77 in1008.1 mb 0.00 in0.0 mm 0.00 in/hr0.0 mm/hr 0.00 in0.0 mm
09:53 PM 44.2°F6.8°C 30.0°F-1.1°C 57% 5.6 mph E9.0 kmh E 12.9 mph20.8 kmh 29.77 in1008.1 mb 0.00 in0.0 mm 0.00 in/hr0.0 mm/hr 0.00 in0.0 mm
09:52 PM 44.2°F6.8°C 29.6°F-1.3°C 56% 5.7 mph E9.2 kmh E 12.9 mph20.8 kmh 29.76 in1007.8 mb 0.00 in0.0 mm 0.00 in/hr0.0 mm/hr 0.00 in0.0 mm
09:51 PM 44.2°F6.8°C 29.6°F-1.3°C 56% 5.7 mph SE9.2 kmh SE 9.1 mph14.6 kmh 29.77 in1008.1 mb 0.00 in0.0 mm 0.00 in/hr0.0 mm/hr 0.00 in0.0 mm
09:50 PM 44.2°F6.8°C 30.0°F-1.1°C 57% 5.8 mph E9.3 kmh E 9.1 mph14.6 kmh 29.77 in1008.1 mb 0.00 in0.0 mm 0.00 in/hr0.0 mm/hr 0.00 in0.0 mm
09:49 PM 44.2°F6.8°C 30.0°F-1.1°C 57% 6.2 mph E10.0 kmh E 9.1 mph14.6 kmh 29.77 in1008.1 mb 0.00 in0.0 mm 0.00 in/hr0.0 mm/hr 0.00 in0.0 mm
09:48 PM 44.2°F6.8°C 30.0°F-1.1°C 57% 6.4 mph NE10.3 kmh NE 9.1 mph14.6 kmh 29.77 in1008.1 mb 0.00 in0.0 mm 0.00 in/hr0.0 mm/hr 0.00 in0.0 mm
09:47 PM 44.1°F6.7°C 29.8°F-1.2°C 57% 6.4 mph ENE10.3 kmh ENE 9.1 mph14.6 kmh 29.77 in1008.1 mb 0.00 in0.0 mm 0.00 in/hr0.0 mm/hr 0.00 in0.0 mm
09:46 PM 44.1°F6.7°C 29.8°F-1.2°C 57% 6.6 mph ENE10.6 kmh ENE 9.1 mph14.6 kmh 29.77 in1008.1 mb 0.00 in0.0 mm 0.00 in/hr0.0 mm/hr 0.00 in0.0 mm
09:45 PM 44.1°F6.7°C 29.8°F-1.2°C 57% 6.7 mph NE10.8 kmh NE 9.1 mph14.6 kmh 29.76 in1007.8 mb 0.00 in0.0 mm 0.00 in/hr0.0 mm/hr 0.00 in0.0 mm
09:44 PM 44.1°F6.7°C 29.8°F-1.2°C 57% 6.3 mph NE10.1 kmh NE 9.1 mph14.6 kmh 29.77 in1008.1 mb 0.00 in0.0 mm 0.00 in/hr0.0 mm/hr 0.00 in0.0 mm
09:43 PM 44.2°F6.8°C 30.0°F-1.1°C 57% 5.8 mph NE9.3 kmh NE 9.1 mph14.6 kmh 29.77 in1008.1 mb 0.00 in0.0 mm 0.00 in/hr0.0 mm/hr 0.00 in0.0 mm
09:42 PM 44.1°F6.7°C 29.8°F-1.2°C 57% 5.8 mph NE9.3 kmh NE 9.1 mph14.6 kmh 29.77 in1008.1 mb 0.00 in0.0 mm 0.00 in/hr0.0 mm/hr 0.00 in0.0 mm
09:41 PM 44.1°F6.7°C 29.8°F-1.2°C 57% 5.6 mph NE9.0 kmh NE 9.1 mph14.6 kmh 29.76 in1007.8 mb 0.00 in0.0 mm 0.00 in/hr0.0 mm/hr 0.00 in0.0 mm
09:40 PM 44.1°F6.7°C 29.8°F-1.2°C 57% 5.2 mph NE8.4 kmh NE 9.1 mph14.6 kmh 29.76 in1007.8 mb 0.00 in0.0 mm 0.00 in/hr0.0 mm/hr 0.00 in0.0 mm
09:39 PM 44.1°F6.7°C 30.2°F-1.0°C 58% 5.3 mph NE8.5 kmh NE 8.3 mph13.4 kmh 29.77 in1008.1 mb 0.00 in0.0 mm 0.00 in/hr0.0 mm/hr 0.00 in0.0 mm
09:38 PM 44.1°F6.7°C 29.8°F-1.2°C 57% 5.7 mph NE9.2 kmh NE 9.1 mph14.6 kmh 29.76 in1007.8 mb 0.00 in0.0 mm 0.00 in/hr0.0 mm/hr 0.00 in0.0 mm
09:37 PM 44.1°F6.7°C 29.8°F-1.2°C 57% 5.8 mph NE9.3 kmh NE 9.1 mph14.6 kmh 29.76 in1007.8 mb 0.00 in0.0 mm 0.00 in/hr0.0 mm/hr 0.00 in0.0 mm
09:36 PM 44.1°F6.7°C 29.8°F-1.2°C 57% 5.6 mph NNE9.0 kmh NNE 9.1 mph14.6 kmh 29.76 in1007.8 mb 0.00 in0.0 mm 0.00 in/hr0.0 mm/hr 0.00 in0.0 mm
09:35 PM 44.1°F6.7°C 29.8°F-1.2°C 57% 5.8 mph NNE9.3 kmh NNE 9.1 mph14.6 kmh 29.76 in1007.8 mb 0.00 in0.0 mm 0.00 in/hr0.0 mm/hr 0.00 in0.0 mm
09:34 PM 44.1°F6.7°C 30.2°F-1.0°C 58% 6.3 mph NE10.1 kmh NE 9.1 mph14.6 kmh 29.76 in1007.8 mb 0.00 in0.0 mm 0.00 in/hr0.0 mm/hr 0.00 in0.0 mm
09:33 PM 44.1°F6.7°C 29.8°F-1.2°C 57% 7.0 mph NNE11.3 kmh NNE 9.1 mph14.6 kmh 29.77 in1008.1 mb 0.00 in0.0 mm 0.00 in/hr0.0 mm/hr 0.00 in0.0 mm
09:32 PM 44.1°F6.7°C 29.8°F-1.2°C 57% 7.1 mph N11.4 kmh N 9.1 mph14.6 kmh 29.76 in1007.8 mb 0.00 in0.0 mm 0.00 in/hr0.0 mm/hr 0.00 in0.0 mm
09:31 PM 44.1°F6.7°C 29.8°F-1.2°C 57% 7.3 mph NNE11.7 kmh NNE 9.1 mph14.6 kmh 29.77 in1008.1 mb 0.00 in0.0 mm 0.00 in/hr0.0 mm/hr 0.00 in0.0 mm
09:30 PM 44.1°F6.7°C 29.8°F-1.2°C 57% 7.3 mph NNE11.7 kmh NNE 9.1 mph14.6 kmh 29.77 in1008.1 mb 0.00 in0.0 mm 0.00 in/hr0.0 mm/hr 0.00 in0.0 mm
09:29 PM 44.1°F6.7°C 30.2°F-1.0°C 58% 7.0 mph NNE11.3 kmh NNE 9.1 mph14.6 kmh 29.76 in1007.8 mb 0.00 in0.0 mm 0.00 in/hr0.0 mm/hr 0.00 in0.0 mm
09:28 PM 44.1°F6.7°C 29.8°F-1.2°C 57% 6.8 mph NE10.9 kmh NE 9.1 mph14.6 kmh 29.76 in1007.8 mb 0.00 in0.0 mm 0.00 in/hr0.0 mm/hr 0.00 in0.0 mm
09:27 PM 44.1°F6.7°C 30.2°F-1.0°C 58% 6.5 mph NNE10.5 kmh NNE 9.1 mph14.6 kmh 29.76 in1007.8 mb 0.00 in0.0 mm 0.00 in/hr0.0 mm/hr 0.00 in0.0 mm
09:26 PM 44.1°F6.7°C 30.2°F-1.0°C 58% 6.8 mph NNE10.9 kmh NNE 9.1 mph14.6 kmh 29.76 in1007.8 mb 0.00 in0.0 mm 0.00 in/hr0.0 mm/hr 0.00 in0.0 mm
09:25 PM 44.1°F6.7°C 30.2°F-1.0°C 58% 6.7 mph NNE10.8 kmh NNE 9.1 mph14.6 kmh 29.76 in1007.8 mb 0.00 in0.0 mm 0.00 in/hr0.0 mm/hr 0.00 in0.0 mm
09:24 PM 44.1°F6.7°C 30.2°F-1.0°C 58% 6.4 mph N10.3 kmh N 9.1 mph14.6 kmh 29.76 in1007.8 mb 0.00 in0.0 mm 0.00 in/hr0.0 mm/hr 0.00 in0.0 mm
09:23 PM 44.1°F6.7°C 30.2°F-1.0°C 58% 6.5 mph N10.5 kmh N 9.9 mph15.9 kmh 29.76 in1007.8 mb 0.00 in0.0 mm 0.00 in/hr0.0 mm/hr 0.00 in0.0 mm
09:22 PM 44.1°F6.7°C 30.2°F-1.0°C 58% 6.4 mph N10.3 kmh N 9.9 mph15.9 kmh 29.76 in1007.8 mb 0.00 in0.0 mm 0.00 in/hr0.0 mm/hr 0.00 in0.0 mm
09:21 PM 44.1°F6.7°C 29.8°F-1.2°C 57% 6.1 mph NNW9.8 kmh NNW 9.9 mph15.9 kmh 29.76 in1007.8 mb 0.00 in0.0 mm 0.00 in/hr0.0 mm/hr 0.00 in0.0 mm
09:20 PM 44.1°F6.7°C 29.8°F-1.2°C 57% 5.8 mph N9.3 kmh N 9.9 mph15.9 kmh 29.76 in1007.8 mb 0.00 in0.0 mm 0.00 in/hr0.0 mm/hr 0.00 in0.0 mm
09:19 PM 44.1°F6.7°C 30.2°F-1.0°C 58% 5.9 mph N9.5 kmh N 9.9 mph15.9 kmh 29.75 in1007.5 mb 0.00 in0.0 mm 0.00 in/hr0.0 mm/hr 0.00 in0.0 mm
09:18 PM 44.1°F6.7°C 30.2°F-1.0°C 58% 6.1 mph N9.8 kmh N 9.9 mph15.9 kmh 29.75 in1007.5 mb 0.00 in0.0 mm 0.00 in/hr0.0 mm/hr 0.00 in0.0 mm
09:17 PM 44.1°F6.7°C 29.8°F-1.2°C 57% 6.4 mph NNE10.3 kmh NNE 9.9 mph15.9 kmh 29.75 in1007.5 mb 0.00 in0.0 mm 0.00 in/hr0.0 mm/hr 0.00 in0.0 mm
09:16 PM 43.9°F6.6°C 29.6°F-1.3°C 57% 6.1 mph NNE9.8 kmh NNE 9.9 mph15.9 kmh 29.75 in1007.5 mb 0.00 in0.0 mm 0.00 in/hr0.0 mm/hr 0.00 in0.0 mm
09:15 PM 43.9°F6.6°C 29.6°F-1.3°C 57% 6.3 mph E10.1 kmh E 9.9 mph15.9 kmh 29.75 in1007.5 mb 0.00 in0.0 mm 0.00 in/hr0.0 mm/hr 0.00 in0.0 mm
09:14 PM 43.9°F6.6°C 29.6°F-1.3°C 57% 6.3 mph E10.1 kmh E 9.9 mph15.9 kmh 29.75 in1007.5 mb 0.00 in0.0 mm 0.00 in/hr0.0 mm/hr 0.00 in0.0 mm
09:13 PM 44.1°F6.7°C 29.8°F-1.2°C 57% 6.4 mph E10.3 kmh E 11.0 mph17.7 kmh 29.75 in1007.5 mb 0.00 in0.0 mm 0.00 in/hr0.0 mm/hr 0.00 in0.0 mm
09:12 PM 44.1°F6.7°C 29.8°F-1.2°C 57% 6.6 mph ENE10.6 kmh ENE 11.0 mph17.7 kmh 29.75 in1007.5 mb 0.00 in0.0 mm 0.00 in/hr0.0 mm/hr 0.00 in0.0 mm
09:11 PM 44.1°F6.7°C 29.8°F-1.2°C 57% 7.1 mph ENE11.4 kmh ENE 11.0 mph17.7 kmh 29.75 in1007.5 mb 0.00 in0.0 mm 0.00 in/hr0.0 mm/hr 0.00 in0.0 mm
09:10 PM 44.1°F6.7°C 29.8°F-1.2°C 57% 7.4 mph NE11.9 kmh NE 11.0 mph17.7 kmh 29.75 in1007.5 mb 0.00 in0.0 mm 0.00 in/hr0.0 mm/hr 0.00 in0.0 mm
09:09 PM 44.1°F6.7°C 29.8°F-1.2°C 57% 7.6 mph NE12.2 kmh NE 11.0 mph17.7 kmh 29.75 in1007.5 mb 0.00 in0.0 mm 0.00 in/hr0.0 mm/hr 0.00 in0.0 mm
09:08 PM 44.1°F6.7°C 29.8°F-1.2°C 57% 7.3 mph NE11.7 kmh NE 11.0 mph17.7 kmh 29.75 in1007.5 mb 0.00 in0.0 mm 0.00 in/hr0.0 mm/hr 0.00 in0.0 mm
09:07 PM 44.1°F6.7°C 29.8°F-1.2°C 57% 7.1 mph NE11.4 kmh NE 11.0 mph17.7 kmh 29.75 in1007.5 mb 0.00 in0.0 mm 0.00 in/hr0.0 mm/hr 0.00 in0.0 mm
09:06 PM 44.1°F6.7°C 29.8°F-1.2°C 57% 7.0 mph NE11.3 kmh NE 11.0 mph17.7 kmh 29.75 in1007.5 mb 0.00 in0.0 mm 0.00 in/hr0.0 mm/hr 0.00 in0.0 mm
09:05 PM 44.1°F6.7°C 29.8°F-1.2°C 57% 6.9 mph NNE11.1 kmh NNE 11.0 mph17.7 kmh 29.74 in1007.1 mb 0.00 in0.0 mm 0.00 in/hr0.0 mm/hr 0.00 in0.0 mm
09:04 PM 44.1°F6.7°C 29.8°F-1.2°C 57% 6.7 mph NNE10.8 kmh NNE 11.0 mph17.7 kmh 29.75 in1007.5 mb 0.00 in0.0 mm 0.00 in/hr0.0 mm/hr 0.00 in0.0 mm
09:03 PM 44.1°F6.7°C 29.8°F-1.2°C 57% 6.7 mph N10.8 kmh N 11.0 mph17.7 kmh 29.74 in1007.1 mb 0.00 in0.0 mm 0.00 in/hr0.0 mm/hr 0.00 in0.0 mm
09:02 PM 44.1°F6.7°C 29.8°F-1.2°C 57% 6.2 mph N10.0 kmh N 9.9 mph15.9 kmh 29.74 in1007.1 mb 0.00 in0.0 mm 0.00 in/hr0.0 mm/hr 0.00 in0.0 mm
09:01 PM 44.2°F6.8°C 30.0°F-1.1°C 57% 5.6 mph NW9.0 kmh NW 9.9 mph15.9 kmh 29.74 in1007.1 mb 0.00 in0.0 mm 0.00 in/hr0.0 mm/hr 0.00 in0.0 mm
09:00 PM 44.2°F6.8°C 30.0°F-1.1°C 57% 5.2 mph W8.4 kmh W 9.9 mph15.9 kmh 29.75 in1007.5 mb 0.00 in0.0 mm 0.00 in/hr0.0 mm/hr 0.00 in0.0 mm
08:59 PM 44.2°F6.8°C 30.0°F-1.1°C 57% 5.4 mph W8.7 kmh W 12.9 mph20.8 kmh 29.75 in1007.5 mb 0.00 in0.0 mm 0.00 in/hr0.0 mm/hr 0.00 in0.0 mm
08:58 PM 44.2°F6.8°C 30.0°F-1.1°C 57% 5.7 mph NW9.2 kmh NW 12.9 mph20.8 kmh 29.75 in1007.5 mb 0.00 in0.0 mm 0.00 in/hr0.0 mm/hr 0.00 in0.0 mm
08:57 PM 44.2°F6.8°C 29.6°F-1.3°C 56% 5.9 mph NW9.5 kmh NW 12.9 mph20.8 kmh 29.74 in1007.1 mb 0.00 in0.0 mm 0.00 in/hr0.0 mm/hr 0.00 in0.0 mm
08:56 PM 44.2°F6.8°C 30.0°F-1.1°C 57% 6.2 mph W10.0 kmh W 12.9 mph20.8 kmh 29.74 in1007.1 mb 0.00 in0.0 mm 0.00 in/hr0.0 mm/hr 0.00 in0.0 mm
08:55 PM 44.2°F6.8°C 30.0°F-1.1°C 57% 6.6 mph W10.6 kmh W 12.9 mph20.8 kmh 29.74 in1007.1 mb 0.00 in0.0 mm 0.00 in/hr0.0 mm/hr 0.00 in0.0 mm
08:54 PM 44.2°F6.8°C 29.6°F-1.3°C 56% 6.9 mph W11.1 kmh W 12.9 mph20.8 kmh 29.74 in1007.1 mb 0.00 in0.0 mm 0.00 in/hr0.0 mm/hr 0.00 in0.0 mm
08:53 PM 44.2°F6.8°C 29.6°F-1.3°C 56% 6.4 mph W10.3 kmh W 12.9 mph20.8 kmh 29.74 in1007.1 mb 0.00 in0.0 mm 0.00 in/hr0.0 mm/hr 0.00 in0.0 mm
08:52 PM 44.2°F6.8°C 29.6°F-1.3°C 56% 6.3 mph W10.1 kmh W 12.9 mph20.8 kmh 29.74 in1007.1 mb 0.00 in0.0 mm 0.00 in/hr0.0 mm/hr 0.00 in0.0 mm
08:51 PM 44.2°F6.8°C 29.6°F-1.3°C 56% 6.4 mph WNW10.3 kmh WNW 12.9 mph20.8 kmh 29.74 in1007.1 mb 0.00 in0.0 mm 0.00 in/hr0.0 mm/hr 0.00 in0.0 mm
08:50 PM 44.2°F6.8°C 29.6°F-1.3°C 56% 6.5 mph NW10.5 kmh NW 12.9 mph20.8 kmh 29.74 in1007.1 mb 0.00 in0.0 mm 0.00 in/hr0.0 mm/hr 0.00 in0.0 mm
08:49 PM 44.2°F6.8°C 30.0°F-1.1°C 57% 6.2 mph NW10.0 kmh NW 12.9 mph20.8 kmh 29.74 in1007.1 mb 0.00 in0.0 mm 0.00 in/hr0.0 mm/hr 0.00 in0.0 mm
08:48 PM 44.2°F6.8°C 30.0°F-1.1°C 57% 5.6 mph WNW9.0 kmh WNW 9.1 mph14.6 kmh 29.74 in1007.1 mb 0.00 in0.0 mm 0.00 in/hr0.0 mm/hr 0.00 in0.0 mm
08:47 PM 44.2°F6.8°C 30.0°F-1.1°C 57% 5.6 mph NW9.0 kmh NW 9.1 mph14.6 kmh 29.74 in1007.1 mb 0.00 in0.0 mm 0.00 in/hr0.0 mm/hr 0.00 in0.0 mm
08:46 PM 44.2°F6.8°C 30.0°F-1.1°C 57% 5.5 mph N8.9 kmh N 9.1 mph14.6 kmh 29.74 in1007.1 mb 0.00 in0.0 mm 0.00 in/hr0.0 mm/hr 0.00 in0.0 mm
08:45 PM 44.2°F6.8°C 30.0°F-1.1°C 57% 5.2 mph NE8.4 kmh NE 9.1 mph14.6 kmh 29.74 in1007.1 mb 0.00 in0.0 mm 0.00 in/hr0.0 mm/hr 0.00 in0.0 mm
08:44 PM 44.4°F6.9°C 30.2°F-1.0°C 57% 5.0 mph NE8.0 kmh NE 8.3 mph13.4 kmh 29.74 in1007.1 mb 0.00 in0.0 mm 0.00 in/hr0.0 mm/hr 0.00 in0.0 mm
08:43 PM 44.4°F6.9°C 30.2°F-1.0°C 57% 5.0 mph NE8.0 kmh NE 8.3 mph13.4 kmh 29.73 in1006.8 mb 0.00 in0.0 mm 0.00 in/hr0.0 mm/hr 0.00 in0.0 mm
08:42 PM 44.4°F6.9°C 30.2°F-1.0°C 57% 5.2 mph NNE8.4 kmh NNE 8.3 mph13.4 kmh 29.74 in1007.1 mb 0.00 in0.0 mm 0.00 in/hr0.0 mm/hr 0.00 in0.0 mm
08:41 PM 44.4°F6.9°C 29.7°F-1.3°C 56% 5.3 mph NNE8.5 kmh NNE 8.3 mph13.4 kmh 29.74 in1007.1 mb 0.00 in0.0 mm 0.00 in/hr0.0 mm/hr 0.00 in0.0 mm
08:40 PM 44.4°F6.9°C 29.7°F-1.3°C 56% 5.2 mph NNE8.4 kmh NNE 8.3 mph13.4 kmh 29.73 in1006.8 mb 0.00 in0.0 mm 0.00 in/hr0.0 mm/hr 0.00 in0.0 mm
08:39 PM 44.4°F6.9°C 29.7°F-1.3°C 56% 5.5 mph NNE8.9 kmh NNE 8.3 mph13.4 kmh 29.74 in1007.1 mb 0.00 in0.0 mm 0.00 in/hr0.0 mm/hr 0.00 in0.0 mm
08:38 PM 44.4°F6.9°C 29.7°F-1.3°C 56% 5.6 mph NE9.0 kmh NE 8.3 mph13.4 kmh 29.73 in1006.8 mb 0.00 in0.0 mm 0.00 in/hr0.0 mm/hr 0.00 in0.0 mm
08:37 PM 44.6°F7.0°C 29.9°F-1.2°C 56% 5.5 mph NE8.9 kmh NE 8.3 mph13.4 kmh 29.73 in1006.8 mb 0.00 in0.0 mm 0.00 in/hr0.0 mm/hr 0.00 in0.0 mm
08:36 PM 44.6°F7.0°C 29.9°F-1.2°C 56% 5.5 mph NE8.9 kmh NE 8.3 mph13.4 kmh 29.73 in1006.8 mb 0.00 in0.0 mm 0.00 in/hr0.0 mm/hr 0.00 in0.0 mm
08:35 PM 44.6°F7.0°C 29.9°F-1.2°C 56% 5.6 mph N9.0 kmh N 9.1 mph14.6 kmh 29.73 in1006.8 mb 0.00 in0.0 mm 0.00 in/hr0.0 mm/hr 0.00 in0.0 mm
08:34 PM 44.6°F7.0°C 29.9°F-1.2°C 56% 5.6 mph NNE9.0 kmh NNE 9.1 mph14.6 kmh 29.74 in1007.1 mb 0.00 in0.0 mm 0.00 in/hr0.0 mm/hr 0.00 in0.0 mm
08:33 PM 44.8°F7.1°C 30.1°F-1.1°C 56% 5.9 mph NE9.5 kmh NE 9.1 mph14.6 kmh 29.73 in1006.8 mb 0.00 in0.0 mm 0.00 in/hr0.0 mm/hr 0.00 in0.0 mm
08:32 PM 44.8°F7.1°C 30.1°F-1.1°C 56% 6.4 mph NNE10.3 kmh NNE 11.0 mph17.7 kmh 29.73 in1006.8 mb 0.00 in0.0 mm 0.00 in/hr0.0 mm/hr 0.00 in0.0 mm
08:31 PM 44.8°F7.1°C 30.1°F-1.1°C 56% 6.5 mph NNE10.5 kmh NNE 11.0 mph17.7 kmh 29.73 in1006.8 mb 0.00 in0.0 mm 0.00 in/hr0.0 mm/hr 0.00 in0.0 mm
08:30 PM 44.8°F7.1°C 30.1°F-1.1°C 56% 7.2 mph NE11.6 kmh NE 11.0 mph17.7 kmh 29.73 in1006.8 mb 0.00 in0.0 mm 0.00 in/hr0.0 mm/hr 0.00 in0.0 mm
08:29 PM 44.8°F7.1°C 30.1°F-1.1°C 56% 7.5 mph NNE12.1 kmh NNE 11.0 mph17.7 kmh 29.73 in1006.8 mb 0.00 in0.0 mm 0.00 in/hr0.0 mm/hr 0.00 in0.0 mm
08:28 PM 44.8°F7.1°C 30.1°F-1.1°C 56% 7.6 mph NNE12.2 kmh NNE 11.0 mph17.7 kmh 29.73 in1006.8 mb 0.00 in0.0 mm 0.00 in/hr0.0 mm/hr 0.00 in0.0 mm
08:27 PM 44.8°F7.1°C 30.1°F-1.1°C 56% 7.4 mph NNE11.9 kmh NNE 11.0 mph17.7 kmh 29.73 in1006.8 mb 0.00 in0.0 mm 0.00 in/hr0.0 mm/hr 0.00 in0.0 mm
08:26 PM 45.0°F7.2°C 30.2°F-1.0°C 56% 7.4 mph N11.9 kmh N 11.0 mph17.7 kmh 29.73 in1006.8 mb 0.00 in0.0 mm 0.00 in/hr0.0 mm/hr 0.00 in0.0 mm
08:25 PM 45.0°F7.2°C 30.2°F-1.0°C 56% 7.1 mph N11.4 kmh N 11.0 mph17.7 kmh 29.73 in1006.8 mb 0.00 in0.0 mm 0.00 in/hr0.0 mm/hr 0.00 in0.0 mm
08:24 PM 45.0°F7.2°C 29.8°F-1.2°C 55% 7.3 mph NNE11.7 kmh NNE 11.0 mph17.7 kmh 29.72 in1006.4 mb 0.00 in0.0 mm 0.00 in/hr0.0 mm/hr 0.00 in0.0 mm
08:23 PM 45.0°F7.2°C 30.2°F-1.0°C 56% 7.6 mph N12.2 kmh N 11.0 mph17.7 kmh 29.73 in1006.8 mb 0.00 in0.0 mm 0.00 in/hr0.0 mm/hr 0.00 in0.0 mm
08:22 PM 45.0°F7.2°C 30.2°F-1.0°C 56% 7.5 mph N12.1 kmh N 11.0 mph17.7 kmh 29.73 in1006.8 mb 0.00 in0.0 mm 0.00 in/hr0.0 mm/hr 0.00 in0.0 mm
08:21 PM 45.0°F7.2°C 30.2°F-1.0°C 56% 7.6 mph N12.2 kmh N 11.0 mph17.7 kmh 29.73 in1006.8 mb 0.00 in0.0 mm 0.00 in/hr0.0 mm/hr 0.00 in0.0 mm
08:20 PM 45.0°F7.2°C 30.2°F-1.0°C 56% 7.0 mph NNE11.3 kmh NNE 9.9 mph15.9 kmh 29.73 in1006.8 mb 0.00 in0.0 mm 0.00 in/hr0.0 mm/hr 0.00 in0.0 mm
08:19 PM 45.1°F7.3°C 30.4°F-0.9°C 56% 7.8 mph NNE12.6 kmh NNE 20.9 mph33.6 kmh 29.72 in1006.4 mb 0.00 in0.0 mm 0.00 in/hr0.0 mm/hr 0.00 in0.0 mm
08:18 PM 45.1°F7.3°C 30.4°F-0.9°C 56% 8.2 mph NNE13.2 kmh NNE 20.9 mph33.6 kmh 29.72 in1006.4 mb 0.00 in0.0 mm 0.00 in/hr0.0 mm/hr 0.00 in0.0 mm
08:17 PM 45.1°F7.3°C 29.9°F-1.2°C 55% 8.3 mph N13.4 kmh N 20.9 mph33.6 kmh 29.72 in1006.4 mb 0.00 in0.0 mm 0.00 in/hr0.0 mm/hr 0.00 in0.0 mm
08:16 PM 45.1°F7.3°C 29.9°F-1.2°C 55% 7.9 mph NNE12.7 kmh NNE 20.9 mph33.6 kmh 29.72 in1006.4 mb 0.00 in0.0 mm 0.00 in/hr0.0 mm/hr 0.00 in0.0 mm
08:15 PM 45.1°F7.3°C 29.9°F-1.2°C 55% 7.9 mph NNE12.7 kmh NNE 20.9 mph33.6 kmh 29.72 in1006.4 mb 0.00 in0.0 mm 0.00 in/hr0.0 mm/hr 0.00 in0.0 mm
08:14 PM 45.1°F7.3°C 29.9°F-1.2°C 55% 7.8 mph N12.6 kmh N 20.9 mph33.6 kmh 29.72 in1006.4 mb 0.00 in0.0 mm 0.00 in/hr0.0 mm/hr 0.00 in0.0 mm
08:13 PM 45.1°F7.3°C 30.4°F-0.9°C 56% 7.1 mph N11.4 kmh N 20.9 mph33.6 kmh 29.72 in1006.4 mb 0.00 in0.0 mm 0.00 in/hr0.0 mm/hr 0.00 in0.0 mm
08:12 PM 45.1°F7.3°C 30.4°F-0.9°C 56% 6.7 mph N10.8 kmh N 20.9 mph33.6 kmh 29.72 in1006.4 mb 0.00 in0.0 mm 0.00 in/hr0.0 mm/hr 0.00 in0.0 mm
08:11 PM 45.3°F7.4°C 30.6°F-0.8°C 56% 6.4 mph N10.3 kmh N 20.9 mph33.6 kmh 29.72 in1006.4 mb 0.00 in0.0 mm 0.00 in/hr0.0 mm/hr 0.00 in0.0 mm
08:10 PM 45.3°F7.4°C 30.1°F-1.1°C 55% 6.1 mph N9.8 kmh N 20.9 mph33.6 kmh 29.72 in1006.4 mb 0.00 in0.0 mm 0.00 in/hr0.0 mm/hr 0.00 in0.0 mm
08:09 PM 45.3°F7.4°C 30.1°F-1.1°C 55% 4.7 mph N7.6 kmh N 11.8 mph19.0 kmh 29.71 in1006.1 mb 0.00 in0.0 mm 0.00 in/hr0.0 mm/hr 0.00 in0.0 mm
08:08 PM 45.3°F7.4°C 30.1°F-1.1°C 55% 4.3 mph N6.9 kmh N 11.0 mph17.7 kmh 29.72 in1006.4 mb 0.00 in0.0 mm 0.00 in/hr0.0 mm/hr 0.00 in0.0 mm
08:07 PM 45.3°F7.4°C 30.1°F-1.1°C 55% 4.1 mph N6.6 kmh N 11.0 mph17.7 kmh 29.72 in1006.4 mb 0.00 in0.0 mm 0.00 in/hr0.0 mm/hr 0.00 in0.0 mm
08:06 PM 45.3°F7.4°C 30.1°F-1.1°C 55% 4.4 mph N7.1 kmh N 11.0 mph17.7 kmh 29.72 in1006.4 mb 0.00 in0.0 mm 0.00 in/hr0.0 mm/hr 0.00 in0.0 mm
08:05 PM 45.5°F7.5°C 30.3°F-0.9°C 55% 4.8 mph N7.7 kmh N 11.0 mph17.7 kmh 29.72 in1006.4 mb 0.00 in0.0 mm 0.00 in/hr0.0 mm/hr 0.00 in0.0 mm
08:04 PM 45.5°F7.5°C 30.3°F-0.9°C 55% 4.7 mph N7.6 kmh N 8.3 mph13.4 kmh 29.72 in1006.4 mb 0.00 in0.0 mm 0.00 in/hr0.0 mm/hr 0.00 in0.0 mm
08:03 PM 45.5°F7.5°C 30.3°F-0.9°C 55% 5.0 mph N8.0 kmh N 8.3 mph13.4 kmh 29.72 in1006.4 mb 0.00 in0.0 mm 0.00 in/hr0.0 mm/hr 0.00 in0.0 mm
08:02 PM 45.5°F7.5°C 29.8°F-1.2°C 54% 5.2 mph N8.4 kmh N 8.3 mph13.4 kmh 29.73 in1006.8 mb 0.00 in0.0 mm 0.00 in/hr0.0 mm/hr 0.00 in0.0 mm
08:01 PM 45.7°F7.6°C 30.5°F-0.8°C 55% 5.2 mph NNW8.4 kmh NNW 8.3 mph13.4 kmh 29.72 in1006.4 mb 0.00 in0.0 mm 0.00 in/hr0.0 mm/hr 0.00 in0.0 mm
08:00 PM 45.7°F7.6°C 30.5°F-0.8°C 55% 5.8 mph N9.3 kmh N 11.0 mph17.7 kmh 29.72 in1006.4 mb 0.00 in0.0 mm 0.00 in/hr0.0 mm/hr 0.00 in0.0 mm
07:59 PM 45.7°F7.6°C 30.5°F-0.8°C 55% 6.3 mph N10.1 kmh N 11.0 mph17.7 kmh 29.72 in1006.4 mb 0.00 in0.0 mm 0.00 in/hr0.0 mm/hr 0.00 in0.0 mm
07:58 PM 45.7°F7.6°C 30.0°F-1.1°C 54% 6.7 mph N10.8 kmh N 11.0 mph17.7 kmh 29.72 in1006.4 mb 0.00 in0.0 mm 0.00 in/hr0.0 mm/hr 0.00 in0.0 mm
07:57 PM 45.9°F7.7°C 30.2°F-1.0°C 54% 7.2 mph N11.6 kmh N 11.0 mph17.7 kmh 29.72 in1006.4 mb 0.00 in0.0 mm 0.00 in/hr0.0 mm/hr 0.00 in0.0 mm
07:56 PM 45.9°F7.7°C 30.2°F-1.0°C 54% 7.7 mph N12.4 kmh N 11.8 mph19.0 kmh 29.72 in1006.4 mb 0.00 in0.0 mm 0.00 in/hr0.0 mm/hr 0.00 in0.0 mm
07:55 PM 45.9°F7.7°C 30.2°F-1.0°C 54% 8.0 mph N12.9 kmh N 11.8 mph19.0 kmh 29.72 in1006.4 mb 0.00 in0.0 mm 0.00 in/hr0.0 mm/hr 0.00 in0.0 mm
07:54 PM 45.9°F7.7°C 30.2°F-1.0°C 54% 8.2 mph N13.2 kmh N 11.8 mph19.0 kmh 29.71 in1006.1 mb 0.00 in0.0 mm 0.00 in/hr0.0 mm/hr 0.00 in0.0 mm
07:53 PM 45.9°F7.7°C 29.7°F-1.3°C 53% 8.0 mph N12.9 kmh N 11.8 mph19.0 kmh 29.72 in1006.4 mb 0.00 in0.0 mm 0.00 in/hr0.0 mm/hr 0.00 in0.0 mm
07:52 PM 45.9°F7.7°C 30.2°F-1.0°C 54% 7.8 mph N12.6 kmh N 11.8 mph19.0 kmh 29.72 in1006.4 mb 0.00 in0.0 mm 0.00 in/hr0.0 mm/hr 0.00 in0.0 mm
07:51 PM 45.9°F7.7°C 30.2°F-1.0°C 54% 7.6 mph N12.2 kmh N 11.8 mph19.0 kmh 29.71 in1006.1 mb 0.00 in0.0 mm 0.00 in/hr0.0 mm/hr 0.00 in0.0 mm
07:50 PM 45.9°F7.7°C 29.7°F-1.3°C 53% 7.2 mph N11.6 kmh N 11.8 mph19.0 kmh 29.71 in1006.1 mb 0.00 in0.0 mm 0.00 in/hr0.0 mm/hr 0.00 in0.0 mm
07:49 PM 46.0°F7.8°C 29.9°F-1.2°C 53% 6.7 mph N10.8 kmh N 11.8 mph19.0 kmh 29.71 in1006.1 mb 0.00 in0.0 mm 0.00 in/hr0.0 mm/hr 0.00 in0.0 mm
07:48 PM 46.0°F7.8°C 30.3°F-0.9°C 54% 6.5 mph N10.5 kmh N 11.8 mph19.0 kmh 29.72 in1006.4 mb 0.00 in0.0 mm 0.00 in/hr0.0 mm/hr 0.00 in0.0 mm
07:47 PM 46.0°F7.8°C 29.9°F-1.2°C 53% 6.0 mph N9.7 kmh N 11.8 mph19.0 kmh 29.71 in1006.1 mb 0.00 in0.0 mm 0.00 in/hr0.0 mm/hr 0.00 in0.0 mm
07:46 PM 46.0°F7.8°C 29.9°F-1.2°C 53% 5.7 mph NNE9.2 kmh NNE 11.8 mph19.0 kmh 29.71 in1006.1 mb 0.00 in0.0 mm 0.00 in/hr0.0 mm/hr 0.00 in0.0 mm
07:45 PM 46.0°F7.8°C 29.9°F-1.2°C 53% 5.2 mph NNE8.4 kmh NNE 11.8 mph19.0 kmh 29.71 in1006.1 mb 0.00 in0.0 mm 0.00 in/hr0.0 mm/hr 0.00 in0.0 mm
07:44 PM 46.2°F7.9°C 30.0°F-1.1°C 53% 5.0 mph NE8.0 kmh NE 8.3 mph13.4 kmh 29.72 in1006.4 mb 0.00 in0.0 mm 0.00 in/hr0.0 mm/hr 0.00 in0.0 mm
07:43 PM 46.2°F7.9°C 30.0°F-1.1°C 53% 5.3 mph NE8.5 kmh NE 8.3 mph13.4 kmh 29.72 in1006.4 mb 0.00 in0.0 mm 0.00 in/hr0.0 mm/hr 0.00 in0.0 mm
07:42 PM 46.2°F7.9°C 30.0°F-1.1°C 53% 5.3 mph NNE8.5 kmh NNE 8.3 mph13.4 kmh 29.72 in1006.4 mb 0.00 in0.0 mm 0.00 in/hr0.0 mm/hr 0.00 in0.0 mm
07:41 PM 46.4°F8.0°C 30.2°F-1.0°C 53% 5.9 mph N9.5 kmh N 11.8 mph19.0 kmh 29.71 in1006.1 mb 0.00 in0.0 mm 0.00 in/hr0.0 mm/hr 0.00 in0.0 mm
07:40 PM 46.4°F8.0°C 30.2°F-1.0°C 53% 6.7 mph N10.8 kmh N 11.8 mph19.0 kmh 29.71 in1006.1 mb 0.00 in0.0 mm 0.00 in/hr0.0 mm/hr 0.00 in0.0 mm
07:39 PM 46.4°F8.0°C 29.7°F-1.3°C 52% 7.2 mph N11.6 kmh N 11.8 mph19.0 kmh 29.71 in1006.1 mb 0.00 in0.0 mm 0.00 in/hr0.0 mm/hr 0.00 in0.0 mm
07:38 PM 46.4°F8.0°C 30.2°F-1.0°C 53% 7.2 mph N11.6 kmh N 11.8 mph19.0 kmh 29.72 in1006.4 mb 0.00 in0.0 mm 0.00 in/hr0.0 mm/hr 0.00 in0.0 mm
07:37 PM 46.6°F8.1°C 29.9°F-1.2°C 52% 7.2 mph N11.6 kmh N 11.8 mph19.0 kmh 29.71 in1006.1 mb 0.00 in0.0 mm 0.00 in/hr0.0 mm/hr 0.00 in0.0 mm
07:36 PM 46.6°F8.1°C 29.9°F-1.2°C 52% 7.0 mph N11.3 kmh N 11.8 mph19.0 kmh 29.71 in1006.1 mb 0.00 in0.0 mm 0.00 in/hr0.0 mm/hr 0.00 in0.0 mm
07:35 PM 46.6°F8.1°C 29.9°F-1.2°C 52% 7.1 mph NNW11.4 kmh NNW 11.8 mph19.0 kmh 29.71 in1006.1 mb 0.00 in0.0 mm 0.00 in/hr0.0 mm/hr 0.00 in0.0 mm
07:34 PM 46.8°F8.2°C 30.1°F-1.1°C 52% 6.9 mph NNW11.1 kmh NNW 11.8 mph19.0 kmh 29.71 in1006.1 mb 0.00 in0.0 mm 0.00 in/hr0.0 mm/hr 0.00 in0.0 mm
07:33 PM 46.8°F8.2°C 30.1°F-1.1°C 52% 7.1 mph NNW11.4 kmh NNW 11.8 mph19.0 kmh 29.71 in1006.1 mb 0.00 in0.0 mm 0.00 in/hr0.0 mm/hr 0.00 in0.0 mm
07:32 PM 46.8°F8.2°C 30.1°F-1.1°C 52% 7.4 mph NW11.9 kmh NW 11.8 mph19.0 kmh 29.71 in1006.1 mb 0.00 in0.0 mm 0.00 in/hr0.0 mm/hr 0.00 in0.0 mm
07:31 PM 46.8°F8.2°C 30.1°F-1.1°C 52% 7.3 mph NNW11.7 kmh NNW 11.8 mph19.0 kmh 29.71 in1006.1 mb 0.00 in0.0 mm 0.00 in/hr0.0 mm/hr 0.00 in0.0 mm
07:30 PM 46.8°F8.2°C 30.1°F-1.1°C 52% 6.5 mph NNE10.5 kmh NNE 11.8 mph19.0 kmh 29.71 in1006.1 mb 0.00 in0.0 mm 0.00 in/hr0.0 mm/hr 0.00 in0.0 mm
07:29 PM 46.9°F8.3°C 30.2°F-1.0°C 52% 6.4 mph N10.3 kmh N 11.0 mph17.7 kmh 29.71 in1006.1 mb 0.00 in0.0 mm 0.00 in/hr0.0 mm/hr 0.00 in0.0 mm
07:28 PM 46.9°F8.3°C 30.2°F-1.0°C 52% 6.3 mph N10.1 kmh N 11.0 mph17.7 kmh 29.71 in1006.1 mb 0.00 in0.0 mm 0.00 in/hr0.0 mm/hr 0.00 in0.0 mm
07:27 PM 46.9°F8.3°C 30.2°F-1.0°C 52% 6.3 mph N10.1 kmh N 11.0 mph17.7 kmh 29.71 in1006.1 mb 0.00 in0.0 mm 0.00 in/hr0.0 mm/hr 0.00 in0.0 mm
07:26 PM 46.9°F8.3°C 30.2°F-1.0°C 52% 6.8 mph NW10.9 kmh NW 11.8 mph19.0 kmh 29.71 in1006.1 mb 0.00 in0.0 mm 0.00 in/hr0.0 mm/hr 0.00 in0.0 mm
07:25 PM 46.9°F8.3°C 30.2°F-1.0°C 52% 7.4 mph WSW11.9 kmh WSW 11.8 mph19.0 kmh 29.71 in1006.1 mb 0.00 in0.0 mm 0.00 in/hr0.0 mm/hr 0.00 in0.0 mm
07:24 PM 47.1°F8.4°C 29.9°F-1.2°C 51% 7.5 mph SW12.1 kmh SW 11.8 mph19.0 kmh 29.71 in1006.1 mb 0.00 in0.0 mm 0.00 in/hr0.0 mm/hr 0.00 in0.0 mm
07:23 PM 47.1°F8.4°C 29.9°F-1.2°C 51% 7.9 mph NW12.7 kmh NW 14.5 mph23.3 kmh 29.70 in1005.8 mb 0.00 in0.0 mm 0.00 in/hr0.0 mm/hr 0.00 in0.0 mm
07:22 PM 47.1°F8.4°C 30.4°F-0.9°C 52% 8.2 mph NNW13.2 kmh NNW 14.5 mph23.3 kmh 29.71 in1006.1 mb 0.00 in0.0 mm 0.00 in/hr0.0 mm/hr 0.00 in0.0 mm
07:21 PM 47.1°F8.4°C 30.4°F-0.9°C 52% 7.9 mph NW12.7 kmh NW 14.5 mph23.3 kmh 29.71 in1006.1 mb 0.00 in0.0 mm 0.00 in/hr0.0 mm/hr 0.00 in0.0 mm
07:20 PM 47.1°F8.4°C 30.4°F-0.9°C 52% 8.2 mph NW13.2 kmh NW 14.5 mph23.3 kmh 29.70 in1005.8 mb 0.00 in0.0 mm 0.00 in/hr0.0 mm/hr 0.00 in0.0 mm
07:19 PM 47.1°F8.4°C 29.9°F-1.2°C 51% 8.2 mph NW13.2 kmh NW 14.5 mph23.3 kmh 29.70 in1005.8 mb 0.00 in0.0 mm 0.00 in/hr0.0 mm/hr 0.00 in0.0 mm
07:18 PM 47.1°F8.4°C 30.4°F-0.9°C 52% 8.2 mph NW13.2 kmh NW 14.5 mph23.3 kmh 29.71 in1006.1 mb 0.00 in0.0 mm 0.00 in/hr0.0 mm/hr 0.00 in0.0 mm
07:17 PM 47.1°F8.4°C 30.9°F-0.6°C 53% 8.0 mph NW12.9 kmh NW 14.5 mph23.3 kmh 29.70 in1005.8 mb 0.00 in0.0 mm 0.00 in/hr0.0 mm/hr 0.00 in0.0 mm
07:16 PM 47.1°F8.4°C 30.4°F-0.9°C 52% 7.5 mph NNW12.1 kmh NNW 14.5 mph23.3 kmh 29.70 in1005.8 mb 0.00 in0.0 mm 0.00 in/hr0.0 mm/hr 0.00 in0.0 mm
07:15 PM 47.1°F8.4°C 30.4°F-0.9°C 52% 7.0 mph NNE11.3 kmh NNE 14.5 mph23.3 kmh 29.70 in1005.8 mb 0.00 in0.0 mm 0.00 in/hr0.0 mm/hr 0.00 in0.0 mm
07:14 PM 47.1°F8.4°C 30.4°F-0.9°C 52% 6.8 mph NNE10.9 kmh NNE 14.5 mph23.3 kmh 29.70 in1005.8 mb 0.00 in0.0 mm 0.00 in/hr0.0 mm/hr 0.00 in0.0 mm
07:13 PM 47.3°F8.5°C 30.6°F-0.8°C 52% 6.6 mph N10.6 kmh N 11.8 mph19.0 kmh 29.70 in1005.8 mb 0.00 in0.0 mm 0.00 in/hr0.0 mm/hr 0.00 in0.0 mm
07:12 PM 47.3°F8.5°C 30.6°F-0.8°C 52% 6.4 mph N10.3 kmh N 11.8 mph19.0 kmh 29.71 in1006.1 mb 0.00 in0.0 mm 0.00 in/hr0.0 mm/hr 0.00 in0.0 mm
07:11 PM 47.3°F8.5°C 30.1°F-1.1°C 51% 6.5 mph N10.5 kmh N 11.8 mph19.0 kmh 29.70 in1005.8 mb 0.00 in0.0 mm 0.00 in/hr0.0 mm/hr 0.00 in0.0 mm
07:10 PM 47.3°F8.5°C 30.6°F-0.8°C 52% 6.6 mph NNE10.6 kmh NNE 11.8 mph19.0 kmh 29.70 in1005.8 mb 0.00 in0.0 mm 0.00 in/hr0.0 mm/hr 0.00 in0.0 mm
07:09 PM 47.3°F8.5°C 30.6°F-0.8°C 52% 6.7 mph NNE10.8 kmh NNE 11.8 mph19.0 kmh 29.70 in1005.8 mb 0.00 in0.0 mm 0.00 in/hr0.0 mm/hr 0.00 in0.0 mm
07:08 PM 47.3°F8.5°C 30.6°F-0.8°C 52% 7.1 mph N11.4 kmh N 11.8 mph19.0 kmh 29.70 in1005.8 mb 0.00 in0.0 mm 0.00 in/hr0.0 mm/hr 0.00 in0.0 mm
07:07 PM 47.3°F8.5°C 30.6°F-0.8°C 52% 7.4 mph N11.9 kmh N 11.8 mph19.0 kmh 29.70 in1005.8 mb 0.00 in0.0 mm 0.00 in/hr0.0 mm/hr 0.00 in0.0 mm
07:06 PM 47.5°F8.6°C 30.7°F-0.7°C 52% 7.3 mph N11.7 kmh N 11.8 mph19.0 kmh 29.70 in1005.8 mb 0.00 in0.0 mm 0.00 in/hr0.0 mm/hr 0.00 in0.0 mm
07:05 PM 47.3°F8.5°C 30.6°F-0.8°C 52% 7.3 mph N11.7 kmh N 11.8 mph19.0 kmh 29.70 in1005.8 mb 0.00 in0.0 mm 0.00 in/hr0.0 mm/hr 0.00 in0.0 mm
07:04 PM 47.5°F8.6°C 30.7°F-0.7°C 52% 7.4 mph N11.9 kmh N 11.8 mph19.0 kmh 29.70 in1005.8 mb 0.00 in0.0 mm 0.00 in/hr0.0 mm/hr 0.00 in0.0 mm
07:03 PM 47.5°F8.6°C 30.7°F-0.7°C 52% 7.3 mph NNE11.7 kmh NNE 15.6 mph25.1 kmh 29.70 in1005.8 mb 0.00 in0.0 mm 0.00 in/hr0.0 mm/hr 0.00 in0.0 mm
07:02 PM 47.5°F8.6°C 30.7°F-0.7°C 52% 7.8 mph NNE12.6 kmh NNE 15.6 mph25.1 kmh 29.71 in1006.1 mb 0.00 in0.0 mm 0.00 in/hr0.0 mm/hr 0.00 in0.0 mm
07:01 PM 47.5°F8.6°C 30.7°F-0.7°C 52% 8.2 mph N13.2 kmh N 15.6 mph25.1 kmh 29.70 in1005.8 mb 0.00 in0.0 mm 0.00 in/hr0.0 mm/hr 0.00 in0.0 mm
07:00 PM 47.5°F8.6°C 30.7°F-0.7°C 52% 8.1 mph N13.0 kmh N 15.6 mph25.1 kmh 29.70 in1005.8 mb 0.00 in0.0 mm 0.00 in/hr0.0 mm/hr 0.00 in0.0 mm
06:59 PM 47.5°F8.6°C 30.7°F-0.7°C 52% 8.4 mph N13.5 kmh N 15.6 mph25.1 kmh 29.70 in1005.8 mb 0.00 in0.0 mm 0.00 in/hr0.0 mm/hr 0.00 in0.0 mm
06:58 PM 47.5°F8.6°C 30.7°F-0.7°C 52% 8.5 mph NNW13.7 kmh NNW 15.6 mph25.1 kmh 29.70 in1005.8 mb 0.00 in0.0 mm 0.00 in/hr0.0 mm/hr 0.00 in0.0 mm
06:57 PM 47.7°F8.7°C 30.9°F-0.6°C 52% 8.3 mph NNW13.4 kmh NNW 15.6 mph25.1 kmh 29.70 in1005.8 mb 0.00 in0.0 mm 0.00 in/hr0.0 mm/hr 0.00 in0.0 mm
06:56 PM 47.7°F8.7°C 30.9°F-0.6°C 52% 8.4 mph NNW13.5 kmh NNW 15.6 mph25.1 kmh 29.70 in1005.8 mb 0.00 in0.0 mm 0.00 in/hr0.0 mm/hr 0.00 in0.0 mm
06:55 PM 47.7°F8.7°C 30.9°F-0.6°C 52% 8.0 mph NNW12.9 kmh NNW 15.6 mph25.1 kmh 29.70 in1005.8 mb 0.00 in0.0 mm 0.00 in/hr0.0 mm/hr 0.00 in0.0 mm
06:54 PM 47.7°F8.7°C 30.9°F-0.6°C 52% 7.7 mph NNW12.4 kmh NNW 15.6 mph25.1 kmh 29.70 in1005.8 mb 0.00 in0.0 mm 0.00 in/hr0.0 mm/hr 0.00 in0.0 mm
06:53 PM 47.8°F8.8°C 31.1°F-0.5°C 52% 7.6 mph NNW12.2 kmh NNW 15.6 mph25.1 kmh 29.69 in1005.4 mb 0.00 in0.0 mm 0.00 in/hr0.0 mm/hr 0.00 in0.0 mm
06:52 PM 47.8°F8.8°C 31.1°F-0.5°C 52% 7.2 mph NW11.6 kmh NW 11.8 mph19.0 kmh 29.70 in1005.8 mb 0.00 in0.0 mm 0.00 in/hr0.0 mm/hr 0.00 in0.0 mm
06:51 PM 48.0°F8.9°C 31.2°F-0.4°C 52% 7.3 mph WNW11.7 kmh WNW 11.8 mph19.0 kmh 29.70 in1005.8 mb 0.00 in0.0 mm 0.00 in/hr0.0 mm/hr 0.00 in0.0 mm
06:50 PM 48.0°F8.9°C 31.2°F-0.4°C 52% 7.2 mph NW11.6 kmh NW 11.8 mph19.0 kmh 29.69 in1005.4 mb 0.00 in0.0 mm 0.00 in/hr0.0 mm/hr 0.00 in0.0 mm
06:49 PM 48.0°F8.9°C 31.2°F-0.4°C 52% 7.3 mph WNW11.7 kmh WNW 11.8 mph19.0 kmh 29.69 in1005.4 mb 0.00 in0.0 mm 0.00 in/hr0.0 mm/hr 0.00 in0.0 mm
06:48 PM 48.2°F9.0°C 31.4°F-0.3°C 52% 7.1 mph NW11.4 kmh NW 11.8 mph19.0 kmh 29.70 in1005.8 mb 0.00 in0.0 mm 0.00 in/hr0.0 mm/hr 0.00 in0.0 mm
06:47 PM 48.2°F9.0°C 31.4°F-0.3°C 52% 6.9 mph WNW11.1 kmh WNW 11.8 mph19.0 kmh 29.69 in1005.4 mb 0.00 in0.0 mm 0.00 in/hr0.0 mm/hr 0.00 in0.0 mm
06:46 PM 48.2°F9.0°C 31.4°F-0.3°C 52% 7.0 mph W11.3 kmh W 11.8 mph19.0 kmh 29.69 in1005.4 mb 0.00 in0.0 mm 0.00 in/hr0.0 mm/hr 0.00 in0.0 mm
06:45 PM 48.2°F9.0°C 31.4°F-0.3°C 52% 7.0 mph SW11.3 kmh SW 11.8 mph19.0 kmh 29.69 in1005.4 mb 0.00 in0.0 mm 0.00 in/hr0.0 mm/hr 0.00 in0.0 mm
06:44 PM 48.2°F9.0°C 30.9°F-0.6°C 51% 7.2 mph SW11.6 kmh SW 11.8 mph19.0 kmh 29.69 in1005.4 mb 0.00 in0.0 mm 0.00 in/hr0.0 mm/hr 0.00 in0.0 mm
06:43 PM 48.2°F9.0°C 31.4°F-0.3°C 52% 7.3 mph WSW11.7 kmh WSW 11.8 mph19.0 kmh 29.69 in1005.4 mb 0.00 in0.0 mm 0.00 in/hr0.0 mm/hr 0.00 in0.0 mm
06:42 PM 48.4°F9.1°C 31.6°F-0.2°C 52% 7.2 mph W11.6 kmh W 11.8 mph19.0 kmh 29.69 in1005.4 mb 0.00 in0.0 mm 0.00 in/hr0.0 mm/hr 0.00 in0.0 mm
06:41 PM 48.4°F9.1°C 31.6°F-0.2°C 52% 7.0 mph NW11.3 kmh NW 11.8 mph19.0 kmh 29.68 in1005.1 mb 0.00 in0.0 mm 0.00 in/hr0.0 mm/hr 0.00 in0.0 mm
06:40 PM 48.4°F9.1°C 31.6°F-0.2°C 52% 7.3 mph NW11.7 kmh NW 11.8 mph19.0 kmh 29.69 in1005.4 mb 0.00 in0.0 mm 0.00 in/hr0.0 mm/hr 0.00 in0.0 mm
06:39 PM 48.4°F9.1°C 31.6°F-0.2°C 52% 7.4 mph NNW11.9 kmh NNW 11.8 mph19.0 kmh 29.68 in1005.1 mb 0.00 in0.0 mm 0.00 in/hr0.0 mm/hr 0.00 in0.0 mm
06:38 PM 48.4°F9.1°C 31.6°F-0.2°C 52% 7.3 mph NW11.7 kmh NW 11.8 mph19.0 kmh 29.69 in1005.4 mb 0.00 in0.0 mm 0.00 in/hr0.0 mm/hr 0.00 in0.0 mm
06:37 PM 48.4°F9.1°C 31.6°F-0.2°C 52% 7.7 mph N12.4 kmh N 11.8 mph19.0 kmh 29.68 in1005.1 mb 0.00 in0.0 mm 0.00 in/hr0.0 mm/hr 0.00 in0.0 mm
06:36 PM 48.4°F9.1°C 31.6°F-0.2°C 52% 8.1 mph NNE13.0 kmh NNE 11.8 mph19.0 kmh 29.68 in1005.1 mb 0.00 in0.0 mm 0.00 in/hr0.0 mm/hr 0.00 in0.0 mm
06:35 PM 48.6°F9.2°C 31.7°F-0.2°C 52% 8.3 mph N13.4 kmh N 11.8 mph19.0 kmh 29.68 in1005.1 mb 0.00 in0.0 mm 0.00 in/hr0.0 mm/hr 0.00 in0.0 mm
06:34 PM 48.6°F9.2°C 31.7°F-0.2°C 52% 8.5 mph NNE13.7 kmh NNE 11.8 mph19.0 kmh 29.68 in1005.1 mb 0.00 in0.0 mm 0.00 in/hr0.0 mm/hr 0.00 in0.0 mm
06:33 PM 48.6°F9.2°C 31.3°F-0.4°C 51% 8.5 mph ENE13.7 kmh ENE 11.8 mph19.0 kmh 29.68 in1005.1 mb 0.00 in0.0 mm 0.00 in/hr0.0 mm/hr 0.00 in0.0 mm
06:32 PM 48.6°F9.2°C 31.7°F-0.2°C 52% 8.5 mph NE13.7 kmh NE 11.8 mph19.0 kmh 29.68 in1005.1 mb 0.00 in0.0 mm 0.00 in/hr0.0 mm/hr 0.00 in0.0 mm
06:31 PM 48.7°F9.3°C 31.4°F-0.3°C 51% 8.6 mph NE13.8 kmh NE 11.8 mph19.0 kmh 29.68 in1005.1 mb 0.00 in0.0 mm 0.00 in/hr0.0 mm/hr 0.00 in0.0 mm
06:30 PM 48.7°F9.3°C 31.9°F-0.1°C 52% 8.3 mph ENE13.4 kmh ENE 11.8 mph19.0 kmh 29.68 in1005.1 mb 0.00 in0.0 mm 0.00 in/hr0.0 mm/hr 0.00 in0.0 mm
06:29 PM 48.7°F9.3°C 31.4°F-0.3°C 51% 8.0 mph E12.9 kmh E 11.8 mph19.0 kmh 29.67 in1004.7 mb 0.00 in0.0 mm 0.00 in/hr0.0 mm/hr 0.00 in0.0 mm
06:28 PM 48.7°F9.3°C 31.4°F-0.3°C 51% 8.2 mph ENE13.2 kmh ENE 11.8 mph19.0 kmh 29.68 in1005.1 mb 0.00 in0.0 mm 0.00 in/hr0.0 mm/hr 0.00 in0.0 mm
06:27 PM 48.9°F9.4°C 31.6°F-0.2°C 51% 8.3 mph NE13.4 kmh NE 11.8 mph19.0 kmh 29.67 in1004.7 mb 0.00 in0.0 mm 0.00 in/hr0.0 mm/hr 0.00 in0.0 mm
06:26 PM 48.9°F9.4°C 31.6°F-0.2°C 51% 8.2 mph NE13.2 kmh NE 11.8 mph19.0 kmh 29.67 in1004.7 mb 0.00 in0.0 mm 0.00 in/hr0.0 mm/hr 0.00 in0.0 mm
06:25 PM 48.9°F9.4°C 31.6°F-0.2°C 51% 8.5 mph NE13.7 kmh NE 11.8 mph19.0 kmh 29.67 in1004.7 mb 0.00 in0.0 mm 0.00 in/hr0.0 mm/hr 0.00 in0.0 mm
06:24 PM 48.9°F9.4°C 31.6°F-0.2°C 51% 8.4 mph NNE13.5 kmh NNE 11.8 mph19.0 kmh 29.67 in1004.7 mb 0.00 in0.0 mm 0.00 in/hr0.0 mm/hr 0.00 in0.0 mm
06:23 PM 49.1°F9.5°C 32.2°F0.1°C 52% 8.1 mph NNE13.0 kmh NNE 11.8 mph19.0 kmh 29.67 in1004.7 mb 0.00 in0.0 mm 0.00 in/hr0.0 mm/hr 0.00 in0.0 mm
06:22 PM 49.1°F9.5°C 32.2°F0.1°C 52% 7.5 mph N12.1 kmh N 11.8 mph19.0 kmh 29.67 in1004.7 mb 0.00 in0.0 mm 0.00 in/hr0.0 mm/hr 0.00 in0.0 mm
06:21 PM 49.1°F9.5°C 32.2°F0.1°C 52% 7.2 mph N11.6 kmh N 11.8 mph19.0 kmh 29.67 in1004.7 mb 0.00 in0.0 mm 0.00 in/hr0.0 mm/hr 0.00 in0.0 mm
06:20 PM 49.3°F9.6°C 31.9°F-0.1°C 51% 7.2 mph N11.6 kmh N 11.8 mph19.0 kmh 29.67 in1004.7 mb 0.00 in0.0 mm 0.00 in/hr0.0 mm/hr 0.00 in0.0 mm
06:19 PM 49.3°F9.6°C 31.9°F-0.1°C 51% 7.3 mph NE11.7 kmh NE 11.8 mph19.0 kmh 29.67 in1004.7 mb 0.00 in0.0 mm 0.00 in/hr0.0 mm/hr 0.00 in0.0 mm
06:18 PM 49.5°F9.7°C 32.1°F0.1°C 51% 6.6 mph NE10.6 kmh NE 9.1 mph14.6 kmh 29.67 in1004.7 mb 0.00 in0.0 mm 0.00 in/hr0.0 mm/hr 0.00 in0.0 mm
06:17 PM 49.5°F9.7°C 32.1°F0.1°C 51% 6.4 mph ENE10.3 kmh ENE 9.1 mph14.6 kmh 29.66 in1004.4 mb 0.00 in0.0 mm 0.00 in/hr0.0 mm/hr 0.00 in0.0 mm
06:16 PM 49.5°F9.7°C 32.1°F0.1°C 51% 6.0 mph E9.7 kmh E 9.1 mph14.6 kmh 29.67 in1004.7 mb 0.00 in0.0 mm 0.00 in/hr0.0 mm/hr 0.00 in0.0 mm
06:15 PM 49.5°F9.7°C 31.6°F-0.2°C 50% 5.8 mph E9.3 kmh E 11.8 mph19.0 kmh 29.67 in1004.7 mb 0.00 in0.0 mm 0.00 in/hr0.0 mm/hr 0.00 in0.0 mm
06:14 PM 49.6°F9.8°C 31.8°F-0.1°C 50% 6.3 mph E10.1 kmh E 13.7 mph22.0 kmh 29.67 in1004.7 mb 0.00 in0.0 mm 0.00 in/hr0.0 mm/hr 0.00 in0.0 mm
06:13 PM 49.6°F9.8°C 31.8°F-0.1°C 50% 7.0 mph N11.3 kmh N 13.7 mph22.0 kmh 29.66 in1004.4 mb 0.00 in0.0 mm 0.00 in/hr0.0 mm/hr 0.00 in0.0 mm
06:12 PM 49.6°F9.8°C 31.8°F-0.1°C 50% 7.7 mph N12.4 kmh N 13.7 mph22.0 kmh 29.67 in1004.7 mb 0.00 in0.0 mm 0.00 in/hr0.0 mm/hr 0.00 in0.0 mm
06:11 PM 49.6°F9.8°C 31.8°F-0.1°C 50% 9.1 mph NE14.6 kmh NE 18.3 mph29.5 kmh 29.66 in1004.4 mb 0.00 in0.0 mm 0.00 in/hr0.0 mm/hr 0.00 in0.0 mm
06:10 PM 49.8°F9.9°C 31.4°F-0.3°C 49% 9.3 mph NE15.0 kmh NE 18.3 mph29.5 kmh 29.66 in1004.4 mb 0.00 in0.0 mm 0.00 in/hr0.0 mm/hr 0.00 in0.0 mm
06:09 PM 49.8°F9.9°C 31.4°F-0.3°C 49% 9.2 mph NNE14.8 kmh NNE 18.3 mph29.5 kmh 29.66 in1004.4 mb 0.00 in0.0 mm 0.00 in/hr0.0 mm/hr 0.00 in0.0 mm
06:08 PM 49.8°F9.9°C 31.9°F-0.1°C 50% 9.6 mph NNE15.4 kmh NNE 18.3 mph29.5 kmh 29.66 in1004.4 mb 0.00 in0.0 mm 0.00 in/hr0.0 mm/hr 0.00 in0.0 mm
06:07 PM 50.0°F10.0°C 31.6°F-0.2°C 49% 10.2 mph E16.4 kmh E 18.3 mph29.5 kmh 29.66 in1004.4 mb 0.00 in0.0 mm 0.00 in/hr0.0 mm/hr 0.00 in0.0 mm
06:06 PM 50.0°F10.0°C 31.6°F-0.2°C 49% 10.8 mph ENE17.4 kmh ENE 18.3 mph29.5 kmh 29.67 in1004.7 mb 0.00 in0.0 mm 0.00 in/hr0.0 mm/hr 0.00 in0.0 mm
06:05 PM 50.0°F10.0°C 31.6°F-0.2°C 49% 11.1 mph E17.9 kmh E 18.3 mph29.5 kmh 29.67 in1004.7 mb 0.00 in0.0 mm 0.00 in/hr0.0 mm/hr 0.00 in0.0 mm
06:04 PM 50.2°F10.1°C 31.8°F-0.1°C 49% 10.8 mph ESE17.4 kmh ESE 18.3 mph29.5 kmh 29.67 in1004.7 mb 0.00 in0.0 mm 0.00 in/hr0.0 mm/hr 0.00 in0.0 mm
06:03 PM 50.4°F10.2°C 31.4°F-0.3°C 48% 10.1 mph ESE16.3 kmh ESE 18.3 mph29.5 kmh 29.67 in1004.7 mb 0.00 in0.0 mm 0.00 in/hr0.0 mm/hr 0.00 in0.0 mm
06:02 PM 50.4°F10.2°C 31.4°F-0.3°C 48% 10.0 mph SSE16.1 kmh SSE 18.3 mph29.5 kmh 29.66 in1004.4 mb 0.00 in0.0 mm 0.00 in/hr0.0 mm/hr 0.00 in0.0 mm
06:01 PM 50.5°F10.3°C 31.6°F-0.2°C 48% 8.9 mph S14.3 kmh S 16.4 mph26.4 kmh 29.66 in1004.4 mb 0.00 in0.0 mm 0.00 in/hr0.0 mm/hr 0.00 in0.0 mm
06:00 PM 50.5°F10.3°C 31.6°F-0.2°C 48% 9.1 mph S14.6 kmh S 16.4 mph26.4 kmh 29.66 in1004.4 mb 0.00 in0.0 mm 0.00 in/hr0.0 mm/hr 0.00 in0.0 mm
05:59 PM 50.5°F10.3°C 31.1°F-0.5°C 47% 9.4 mph SSE15.1 kmh SSE 16.4 mph26.4 kmh 29.67 in1004.7 mb 0.00 in0.0 mm 0.00 in/hr0.0 mm/hr 0.00 in0.0 mm
05:58 PM 50.7°F10.4°C 31.2°F-0.4°C 47% 9.8 mph ESE15.8 kmh ESE 16.4 mph26.4 kmh 29.67 in1004.7 mb 0.00 in0.0 mm 0.00 in/hr0.0 mm/hr 0.00 in0.0 mm
05:57 PM 50.7°F10.4°C 31.2°F-0.4°C 47% 9.6 mph NNE15.4 kmh NNE 16.4 mph26.4 kmh 29.66 in1004.4 mb 0.00 in0.0 mm 0.00 in/hr0.0 mm/hr 0.00 in0.0 mm
05:56 PM 50.9°F10.5°C 31.4°F-0.3°C 47% 9.7 mph NNE15.6 kmh NNE 16.4 mph26.4 kmh 29.65 in1004.1 mb 0.00 in0.0 mm 0.00 in/hr0.0 mm/hr 0.00 in0.0 mm
05:55 PM 50.9°F10.5°C 31.4°F-0.3°C 47% 10.1 mph NE16.3 kmh NE 16.4 mph26.4 kmh 29.66 in1004.4 mb 0.00 in0.0 mm 0.00 in/hr0.0 mm/hr 0.00 in0.0 mm
05:54 PM 51.1°F10.6°C 31.6°F-0.2°C 47% 10.2 mph NE16.4 kmh NE 16.4 mph26.4 kmh 29.66 in1004.4 mb 0.00 in0.0 mm 0.00 in/hr0.0 mm/hr 0.00 in0.0 mm
05:53 PM 51.1°F10.6°C 31.6°F-0.2°C 47% 10.5 mph NE16.9 kmh NE 16.4 mph26.4 kmh 29.66 in1004.4 mb 0.00 in0.0 mm 0.00 in/hr0.0 mm/hr 0.00 in0.0 mm
05:52 PM 51.1°F10.6°C 31.6°F-0.2°C 47% 10.2 mph NE16.4 kmh NE 16.4 mph26.4 kmh 29.65 in1004.1 mb 0.00 in0.0 mm 0.00 in/hr0.0 mm/hr 0.00 in0.0 mm
05:51 PM 51.1°F10.6°C 32.1°F0.1°C 48% 9.7 mph NE15.6 kmh NE 14.5 mph23.3 kmh 29.66 in1004.4 mb 0.00 in0.0 mm 0.00 in/hr0.0 mm/hr 0.00 in0.0 mm
05:50 PM 51.1°F10.6°C 31.6°F-0.2°C 47% 9.6 mph NE15.4 kmh NE 14.5 mph23.3 kmh 29.65 in1004.1 mb 0.00 in0.0 mm 0.00 in/hr0.0 mm/hr 0.00 in0.0 mm
05:49 PM 51.3°F10.7°C 31.7°F-0.2°C 47% 9.4 mph NE15.1 kmh NE 14.5 mph23.3 kmh 29.65 in1004.1 mb 0.00 in0.0 mm 0.00 in/hr0.0 mm/hr 0.00 in0.0 mm
05:48 PM 51.3°F10.7°C 31.7°F-0.2°C 47% 8.9 mph NE14.3 kmh NE 11.8 mph19.0 kmh 29.66 in1004.4 mb 0.00 in0.0 mm 0.00 in/hr0.0 mm/hr 0.00 in0.0 mm
05:47 PM 51.4°F10.8°C 31.9°F-0.1°C 47% 8.5 mph NE13.7 kmh NE 11.8 mph19.0 kmh 29.65 in1004.1 mb 0.00 in0.0 mm 0.00 in/hr0.0 mm/hr 0.00 in0.0 mm
05:46 PM 51.4°F10.8°C 31.9°F-0.1°C 47% 8.3 mph NE13.4 kmh NE 22.0 mph35.4 kmh 29.65 in1004.1 mb 0.00 in0.0 mm 0.00 in/hr0.0 mm/hr 0.00 in0.0 mm
05:45 PM 51.4°F10.8°C 31.9°F-0.1°C 47% 8.4 mph NNE13.5 kmh NNE 22.0 mph35.4 kmh 29.65 in1004.1 mb 0.00 in0.0 mm 0.00 in/hr0.0 mm/hr 0.00 in0.0 mm
05:44 PM 51.6°F10.9°C 32.6°F0.3°C 48% 8.1 mph N13.0 kmh N 22.0 mph35.4 kmh 29.66 in1004.4 mb 0.00 in0.0 mm 0.00 in/hr0.0 mm/hr 0.00 in0.0 mm
05:43 PM 51.6°F10.9°C 32.1°F0.1°C 47% 8.0 mph N12.9 kmh N 22.0 mph35.4 kmh 29.65 in1004.1 mb 0.00 in0.0 mm 0.00 in/hr0.0 mm/hr 0.00 in0.0 mm
05:42 PM 51.6°F10.9°C 32.1°F0.1°C 47% 8.2 mph N13.2 kmh N 22.0 mph35.4 kmh 29.65 in1004.1 mb 0.00 in0.0 mm 0.00 in/hr0.0 mm/hr 0.00 in0.0 mm
05:41 PM 51.6°F10.9°C 32.6°F0.3°C 48% 8.7 mph N14.0 kmh N 22.0 mph35.4 kmh 29.65 in1004.1 mb 0.00 in0.0 mm 0.00 in/hr0.0 mm/hr 0.00 in0.0 mm
05:40 PM 51.6°F10.9°C 32.6°F0.3°C 48% 8.8 mph N14.2 kmh N 22.0 mph35.4 kmh 29.65 in1004.1 mb 0.00 in0.0 mm 0.00 in/hr0.0 mm/hr 0.00 in0.0 mm
05:39 PM 51.6°F10.9°C 32.6°F0.3°C 48% 8.9 mph N14.3 kmh N 22.0 mph35.4 kmh 29.65 in1004.1 mb 0.00 in0.0 mm 0.00 in/hr0.0 mm/hr 0.00 in0.0 mm
05:38 PM 51.6°F10.9°C 32.6°F0.3°C 48% 8.9 mph N14.3 kmh N 22.0 mph35.4 kmh 29.65 in1004.1 mb 0.00 in0.0 mm 0.00 in/hr0.0 mm/hr 0.00 in0.0 mm
05:37 PM 51.8°F11.0°C 32.2°F0.1°C 47% 10.3 mph WSW16.6 kmh WSW 27.4 mph44.1 kmh 29.65 in1004.1 mb 0.00 in0.0 mm 0.00 in/hr0.0 mm/hr 0.00 in0.0 mm
05:36 PM 51.8°F11.0°C 32.2°F0.1°C 47% 10.9 mph W17.5 kmh W 27.4 mph44.1 kmh 29.65 in1004.1 mb 0.00 in0.0 mm 0.00 in/hr0.0 mm/hr 0.00 in0.0 mm
05:35 PM 52.0°F11.1°C 32.4°F0.2°C 47% 10.6 mph W17.1 kmh W 27.4 mph44.1 kmh 29.65 in1004.1 mb 0.00 in0.0 mm 0.00 in/hr0.0 mm/hr 0.00 in0.0 mm
05:34 PM 52.0°F11.1°C 32.4°F0.2°C 47% 10.8 mph WSW17.4 kmh WSW 27.4 mph44.1 kmh 29.65 in1004.1 mb 0.00 in0.0 mm 0.00 in/hr0.0 mm/hr 0.00 in0.0 mm
05:33 PM 52.0°F11.1°C 32.4°F0.2°C 47% 10.6 mph SW17.1 kmh SW 27.4 mph44.1 kmh 29.65 in1004.1 mb 0.00 in0.0 mm 0.00 in/hr0.0 mm/hr 0.00 in0.0 mm
05:32 PM 52.2°F11.2°C 32.0°F0.0°C 46% 10.1 mph SW16.3 kmh SW 27.4 mph44.1 kmh 29.64 in1003.7 mb 0.00 in0.0 mm 0.00 in/hr0.0 mm/hr 0.00 in0.0 mm
05:31 PM 52.2°F11.2°C 32.0°F0.0°C 46% 9.7 mph SW15.6 kmh SW 27.4 mph44.1 kmh 29.65 in1004.1 mb 0.00 in0.0 mm 0.00 in/hr0.0 mm/hr 0.00 in0.0 mm
05:30 PM 52.2°F11.2°C 32.0°F0.0°C 46% 9.5 mph WNW15.3 kmh WNW 27.4 mph44.1 kmh 29.64 in1003.7 mb 0.00 in0.0 mm 0.00 in/hr0.0 mm/hr 0.00 in0.0 mm
05:29 PM 52.3°F11.3°C 32.2°F0.1°C 46% 9.2 mph NW14.8 kmh NW 27.4 mph44.1 kmh 29.64 in1003.7 mb 0.00 in0.0 mm 0.00 in/hr0.0 mm/hr 0.00 in0.0 mm
05:28 PM 52.3°F11.3°C 32.2°F0.1°C 46% 9.1 mph WNW14.6 kmh WNW 27.4 mph44.1 kmh 29.65 in1004.1 mb 0.00 in0.0 mm 0.00 in/hr0.0 mm/hr 0.00 in0.0 mm
05:27 PM 52.5°F11.4°C 32.3°F0.2°C 46% 7.8 mph N12.6 kmh N 27.4 mph44.1 kmh 29.64 in1003.7 mb 0.00 in0.0 mm 0.00 in/hr0.0 mm/hr 0.00 in0.0 mm
05:26 PM 52.5°F11.4°C 32.3°F0.2°C 46% 6.9 mph NE11.1 kmh NE 13.7 mph22.0 kmh 29.65 in1004.1 mb 0.00 in0.0 mm 0.00 in/hr0.0 mm/hr 0.00 in0.0 mm
05:25 PM 52.5°F11.4°C 33.4°F0.8°C 48% 6.3 mph SE10.1 kmh SE 9.1 mph14.6 kmh 29.65 in1004.1 mb 0.00 in0.0 mm 0.00 in/hr0.0 mm/hr 0.00 in0.0 mm
05:24 PM 52.3°F11.3°C 33.2°F0.7°C 48% 6.4 mph SE10.3 kmh SE 11.0 mph17.7 kmh 29.64 in1003.7 mb 0.00 in0.0 mm 0.00 in/hr0.0 mm/hr 0.00 in0.0 mm
05:23 PM 52.3°F11.3°C 33.2°F0.7°C 48% 6.5 mph ESE10.5 kmh ESE 11.0 mph17.7 kmh 29.64 in1003.7 mb 0.00 in0.0 mm 0.00 in/hr0.0 mm/hr 0.00 in0.0 mm
05:22 PM 52.3°F11.3°C 33.2°F0.7°C 48% 6.9 mph ESE11.1 kmh ESE 11.0 mph17.7 kmh 29.64 in1003.7 mb 0.00 in0.0 mm 0.00 in/hr0.0 mm/hr 0.00 in0.0 mm
05:21 PM 52.2°F11.2°C 33.6°F0.9°C 49% 7.5 mph SSE12.1 kmh SSE 12.9 mph20.8 kmh 29.64 in1003.7 mb 0.00 in0.0 mm 0.00 in/hr0.0 mm/hr 0.00 in0.0 mm
05:20 PM 52.2°F11.2°C 33.1°F0.6°C 48% 7.9 mph S12.7 kmh S 12.9 mph20.8 kmh 29.64 in1003.7 mb 0.00 in0.0 mm 0.00 in/hr0.0 mm/hr 0.00 in0.0 mm
05:19 PM 52.2°F11.2°C 32.6°F0.3°C 47% 8.1 mph SSE13.0 kmh SSE 12.9 mph20.8 kmh 29.64 in1003.7 mb 0.00 in0.0 mm 0.00 in/hr0.0 mm/hr 0.00 in0.0 mm
05:18 PM 52.2°F11.2°C 32.6°F0.3°C 47% 8.5 mph SSE13.7 kmh SSE 13.7 mph22.0 kmh 29.64 in1003.7 mb 0.00 in0.0 mm 0.00 in/hr0.0 mm/hr 0.00 in0.0 mm
05:17 PM 52.3°F11.3°C 32.7°F0.4°C 47% 8.9 mph SSE14.3 kmh SSE 13.7 mph22.0 kmh 29.65 in1004.1 mb 0.00 in0.0 mm 0.00 in/hr0.0 mm/hr 0.00 in0.0 mm
05:16 PM 52.3°F11.3°C 33.2°F0.7°C 48% 9.4 mph SE15.1 kmh SE 13.7 mph22.0 kmh 29.64 in1003.7 mb 0.00 in0.0 mm 0.00 in/hr0.0 mm/hr 0.00 in0.0 mm
05:15 PM 52.3°F11.3°C 33.2°F0.7°C 48% 9.6 mph SE15.4 kmh SE 13.7 mph22.0 kmh 29.65 in1004.1 mb 0.00 in0.0 mm 0.00 in/hr0.0 mm/hr 0.00 in0.0 mm
05:14 PM 52.3°F11.3°C 32.7°F0.4°C 47% 10.2 mph E16.4 kmh E 17.4 mph28.0 kmh 29.64 in1003.7 mb 0.00 in0.0 mm 0.00 in/hr0.0 mm/hr 0.00 in0.0 mm
05:13 PM 52.5°F11.4°C 32.3°F0.2°C 46% 10.6 mph E17.1 kmh E 17.4 mph28.0 kmh 29.64 in1003.7 mb 0.00 in0.0 mm 0.00 in/hr0.0 mm/hr 0.00 in0.0 mm
05:12 PM 52.7°F11.5°C 32.5°F0.3°C 46% 10.3 mph E16.6 kmh E 17.4 mph28.0 kmh 29.64 in1003.7 mb 0.00 in0.0 mm 0.00 in/hr0.0 mm/hr 0.00 in0.0 mm
05:11 PM 52.7°F11.5°C 32.5°F0.3°C 46% 10.1 mph E16.3 kmh E 17.4 mph28.0 kmh 29.64 in1003.7 mb 0.00 in0.0 mm 0.00 in/hr0.0 mm/hr 0.00 in0.0 mm
05:10 PM 52.9°F11.6°C 32.7°F0.4°C 46% 9.8 mph E15.8 kmh E 17.4 mph28.0 kmh 29.64 in1003.7 mb 0.00 in0.0 mm 0.00 in/hr0.0 mm/hr 0.00 in0.0 mm
05:09 PM 52.9°F11.6°C 32.7°F0.4°C 46% 9.9 mph E15.9 kmh E 17.4 mph28.0 kmh 29.64 in1003.7 mb 0.00 in0.0 mm 0.00 in/hr0.0 mm/hr 0.00 in0.0 mm
05:08 PM 53.1°F11.7°C 33.4°F0.8°C 47% 9.9 mph E15.9 kmh E 17.4 mph28.0 kmh 29.64 in1003.7 mb 0.00 in0.0 mm 0.00 in/hr0.0 mm/hr 0.00 in0.0 mm
05:07 PM 53.1°F11.7°C 32.8°F0.4°C 46% 11.0 mph ENE17.7 kmh ENE 22.0 mph35.4 kmh 29.64 in1003.7 mb 0.00 in0.0 mm 0.00 in/hr0.0 mm/hr 0.00 in0.0 mm
05:06 PM 53.1°F11.7°C 32.8°F0.4°C 46% 11.0 mph ENE17.7 kmh ENE 22.0 mph35.4 kmh 29.64 in1003.7 mb 0.00 in0.0 mm 0.00 in/hr0.0 mm/hr 0.00 in0.0 mm
05:05 PM 53.1°F11.7°C 32.8°F0.4°C 46% 11.0 mph ENE17.7 kmh ENE 22.0 mph35.4 kmh 29.64 in1003.7 mb 0.00 in0.0 mm 0.00 in/hr0.0 mm/hr 0.00 in0.0 mm
05:04 PM 53.1°F11.7°C 32.8°F0.4°C 46% 10.2 mph ENE16.4 kmh ENE 22.0 mph35.4 kmh 29.64 in1003.7 mb 0.00 in0.0 mm 0.00 in/hr0.0 mm/hr 0.00 in0.0 mm
05:03 PM 53.1°F11.7°C 32.8°F0.4°C 46% 9.8 mph NE15.8 kmh NE 22.0 mph35.4 kmh 29.63 in1003.4 mb 0.00 in0.0 mm 0.00 in/hr0.0 mm/hr 0.00 in0.0 mm
05:02 PM 53.1°F11.7°C 32.8°F0.4°C 46% 10.1 mph NE16.3 kmh NE 22.0 mph35.4 kmh 29.64 in1003.7 mb 0.00 in0.0 mm 0.00 in/hr0.0 mm/hr 0.00 in0.0 mm
05:01 PM 53.2°F11.8°C 33.0°F0.6°C 46% 10.1 mph ENE16.3 kmh ENE 22.0 mph35.4 kmh 29.63 in1003.4 mb 0.00 in0.0 mm 0.00 in/hr0.0 mm/hr 0.00 in0.0 mm
05:00 PM 53.2°F11.8°C 33.0°F0.6°C 46% 10.6 mph NE17.1 kmh NE 22.0 mph35.4 kmh 29.63 in1003.4 mb 0.00 in0.0 mm 0.00 in/hr0.0 mm/hr 0.00 in0.0 mm
04:59 PM 53.2°F11.8°C 33.0°F0.6°C 46% 11.0 mph N17.7 kmh N 22.0 mph35.4 kmh 29.63 in1003.4 mb 0.00 in0.0 mm 0.00 in/hr0.0 mm/hr 0.00 in0.0 mm
04:58 PM 53.4°F11.9°C 32.6°F0.3°C 45% 10.8 mph N17.4 kmh N 22.0 mph35.4 kmh 29.63 in1003.4 mb 0.00 in0.0 mm 0.00 in/hr0.0 mm/hr 0.00 in0.0 mm
04:57 PM 53.6°F12.0°C 32.8°F0.4°C 45% 9.8 mph NW15.8 kmh NW 15.6 mph25.1 kmh 29.63 in1003.4 mb 0.00 in0.0 mm 0.00 in/hr0.0 mm/hr 0.00 in0.0 mm
04:56 PM 53.6°F12.0°C 33.3°F0.7°C 46% 10.0 mph W16.1 kmh W 15.6 mph25.1 kmh 29.63 in1003.4 mb 0.00 in0.0 mm 0.00 in/hr0.0 mm/hr 0.00 in0.0 mm
04:55 PM 53.8°F12.1°C 33.0°F0.6°C 45% 10.6 mph SW17.1 kmh SW 15.6 mph25.1 kmh 29.63 in1003.4 mb 0.00 in0.0 mm 0.00 in/hr0.0 mm/hr 0.00 in0.0 mm
04:54 PM 53.8°F12.1°C 33.0°F0.6°C 45% 11.0 mph SW17.7 kmh SW 15.6 mph25.1 kmh 29.63 in1003.4 mb 0.00 in0.0 mm 0.00 in/hr0.0 mm/hr 0.00 in0.0 mm
04:53 PM 53.8°F12.1°C 33.0°F0.6°C 45% 11.2 mph SW18.0 kmh SW 15.6 mph25.1 kmh 29.63 in1003.4 mb 0.00 in0.0 mm 0.00 in/hr0.0 mm/hr 0.00 in0.0 mm
04:52 PM 53.8°F12.1°C 32.4°F0.2°C 44% 10.7 mph SSW17.2 kmh SSW 15.6 mph25.1 kmh 29.63 in1003.4 mb 0.00 in0.0 mm 0.00 in/hr0.0 mm/hr 0.00 in0.0 mm
04:51 PM 54.0°F12.2°C 33.1°F0.6°C 45% 10.6 mph SW17.1 kmh SW 15.6 mph25.1 kmh 29.63 in1003.4 mb 0.00 in0.0 mm 0.00 in/hr0.0 mm/hr 0.00 in0.0 mm
04:50 PM 54.0°F12.2°C 33.1°F0.6°C 45% 10.3 mph S16.6 kmh S 15.6 mph25.1 kmh 29.63 in1003.4 mb 0.00 in0.0 mm 0.00 in/hr0.0 mm/hr 0.00 in0.0 mm
04:49 PM 54.1°F12.3°C 33.3°F0.7°C 45% 9.8 mph SE15.8 kmh SE 13.7 mph22.0 kmh 29.62 in1003.0 mb 0.00 in0.0 mm 0.00 in/hr0.0 mm/hr 0.00 in0.0 mm
04:48 PM 54.1°F12.3°C 32.7°F0.4°C 44% 9.4 mph SSE15.1 kmh SSE 13.7 mph22.0 kmh 29.63 in1003.4 mb 0.00 in0.0 mm 0.00 in/hr0.0 mm/hr 0.00 in0.0 mm
04:47 PM 54.3°F12.4°C 32.9°F0.5°C 44% 8.8 mph SSE14.2 kmh SSE 13.7 mph22.0 kmh 29.62 in1003.0 mb 0.00 in0.0 mm 0.00 in/hr0.0 mm/hr 0.00 in0.0 mm
04:46 PM 54.7°F12.6°C 33.2°F0.7°C 44% 8.3 mph SE13.4 kmh SE 13.7 mph22.0 kmh 29.63 in1003.4 mb 0.00 in0.0 mm 0.00 in/hr0.0 mm/hr 0.00 in0.0 mm
04:45 PM 54.7°F12.6°C 33.2°F0.7°C 44% 7.9 mph NE12.7 kmh NE 13.7 mph22.0 kmh 29.62 in1003.0 mb 0.00 in0.0 mm 0.00 in/hr0.0 mm/hr 0.00 in0.0 mm
04:44 PM 54.7°F12.6°C 33.2°F0.7°C 44% 7.8 mph NE12.6 kmh NE 11.8 mph19.0 kmh 29.63 in1003.4 mb 0.00 in0.0 mm 0.00 in/hr0.0 mm/hr 0.00 in0.0 mm
04:43 PM 54.7°F12.6°C 33.2°F0.7°C 44% 7.6 mph E12.2 kmh E 11.8 mph19.0 kmh 29.62 in1003.0 mb 0.00 in0.0 mm 0.00 in/hr0.0 mm/hr 0.00 in0.0 mm
04:42 PM 54.9°F12.7°C 33.4°F0.8°C 44% 7.5 mph N12.1 kmh N 11.8 mph19.0 kmh 29.62 in1003.0 mb 0.00 in0.0 mm 0.00 in/hr0.0 mm/hr 0.00 in0.0 mm
04:41 PM 54.9°F12.7°C 33.4°F0.8°C 44% 7.1 mph NE11.4 kmh NE 11.8 mph19.0 kmh 29.63 in1003.4 mb 0.00 in0.0 mm 0.00 in/hr0.0 mm/hr 0.00 in0.0 mm
04:40 PM 54.9°F12.7°C 33.4°F0.8°C 44% 6.6 mph NE10.6 kmh NE 11.8 mph19.0 kmh 29.62 in1003.0 mb 0.00 in0.0 mm 0.00 in/hr0.0 mm/hr 0.00 in0.0 mm
04:39 PM 54.9°F12.7°C 33.4°F0.8°C 44% 6.3 mph NE10.1 kmh NE 11.8 mph19.0 kmh 29.62 in1003.0 mb 0.00 in0.0 mm 0.00 in/hr0.0 mm/hr 0.00 in0.0 mm
04:38 PM 54.9°F12.7°C 33.4°F0.8°C 44% 6.2 mph NE10.0 kmh NE 11.8 mph19.0 kmh 29.62 in1003.0 mb 0.00 in0.0 mm 0.00 in/hr0.0 mm/hr 0.00 in0.0 mm
04:37 PM 55.0°F12.8°C 33.5°F0.8°C 44% 6.6 mph NE10.6 kmh NE 11.8 mph19.0 kmh 29.62 in1003.0 mb 0.00 in0.0 mm 0.00 in/hr0.0 mm/hr 0.00 in0.0 mm
04:36 PM 55.0°F12.8°C 33.5°F0.8°C 44% 6.9 mph NNE11.1 kmh NNE 11.8 mph19.0 kmh 29.62 in1003.0 mb 0.00 in0.0 mm 0.00 in/hr0.0 mm/hr 0.00 in0.0 mm
04:35 PM 54.9°F12.7°C 33.4°F0.8°C 44% 6.9 mph NW11.1 kmh NW 11.8 mph19.0 kmh 29.62 in1003.0 mb 0.00 in0.0 mm 0.00 in/hr0.0 mm/hr 0.00 in0.0 mm
04:34 PM 55.0°F12.8°C 33.5°F0.8°C 44% 6.9 mph NE11.1 kmh NE 16.4 mph26.4 kmh 29.61 in1002.7 mb 0.00 in0.0 mm 0.00 in/hr0.0 mm/hr 0.00 in0.0 mm
04:33 PM 54.9°F12.7°C 33.9°F1.1°C 45% 7.5 mph NE12.1 kmh NE 16.4 mph26.4 kmh 29.62 in1003.0 mb 0.00 in0.0 mm 0.00 in/hr0.0 mm/hr 0.00 in0.0 mm
04:32 PM 54.9°F12.7°C 33.9°F1.1°C 45% 7.7 mph NE12.4 kmh NE 16.4 mph26.4 kmh 29.61 in1002.7 mb 0.00 in0.0 mm 0.00 in/hr0.0 mm/hr 0.00 in0.0 mm
04:31 PM 55.0°F12.8°C 33.0°F0.6°C 43% 8.0 mph NE12.9 kmh NE 16.4 mph26.4 kmh 29.62 in1003.0 mb 0.00 in0.0 mm 0.00 in/hr0.0 mm/hr 0.00 in0.0 mm
04:30 PM 55.0°F12.8°C 33.0°F0.6°C 43% 8.2 mph NE13.2 kmh NE 16.4 mph26.4 kmh 29.62 in1003.0 mb 0.00 in0.0 mm 0.00 in/hr0.0 mm/hr 0.00 in0.0 mm
04:29 PM 55.0°F12.8°C 33.5°F0.8°C 44% 8.5 mph N13.7 kmh N 16.4 mph26.4 kmh 29.62 in1003.0 mb 0.00 in0.0 mm 0.00 in/hr0.0 mm/hr 0.00 in0.0 mm
04:28 PM 55.0°F12.8°C 33.5°F0.8°C 44% 9.1 mph NNW14.6 kmh NNW 16.4 mph26.4 kmh 29.61 in1002.7 mb 0.00 in0.0 mm 0.00 in/hr0.0 mm/hr 0.00 in0.0 mm
04:27 PM 55.0°F12.8°C 33.5°F0.8°C 44% 9.2 mph N14.8 kmh N 16.4 mph26.4 kmh 29.62 in1003.0 mb 0.00 in0.0 mm 0.00 in/hr0.0 mm/hr 0.00 in0.0 mm
04:26 PM 55.0°F12.8°C 33.5°F0.8°C 44% 9.1 mph N14.6 kmh N 16.4 mph26.4 kmh 29.61 in1002.7 mb 0.00 in0.0 mm 0.00 in/hr0.0 mm/hr 0.00 in0.0 mm
04:25 PM 55.0°F12.8°C 33.5°F0.8°C 44% 9.1 mph NNE14.6 kmh NNE 16.4 mph26.4 kmh 29.61 in1002.7 mb 0.00 in0.0 mm 0.00 in/hr0.0 mm/hr 0.00 in0.0 mm
04:24 PM 55.0°F12.8°C 33.0°F0.6°C 43% 8.7 mph N14.0 kmh N 16.4 mph26.4 kmh 29.61 in1002.7 mb 0.00 in0.0 mm 0.00 in/hr0.0 mm/hr 0.00 in0.0 mm
04:23 PM 55.0°F12.8°C 33.5°F0.8°C 44% 9.0 mph N14.5 kmh N 17.4 mph28.0 kmh 29.62 in1003.0 mb 0.00 in0.0 mm 0.00 in/hr0.0 mm/hr 0.00 in0.0 mm
04:22 PM 55.0°F12.8°C 33.5°F0.8°C 44% 9.6 mph NNE15.4 kmh NNE 17.4 mph28.0 kmh 29.61 in1002.7 mb 0.00 in0.0 mm 0.00 in/hr0.0 mm/hr 0.00 in0.0 mm
04:21 PM 55.0°F12.8°C 33.5°F0.8°C 44% 10.5 mph N16.9 kmh N 20.1 mph32.3 kmh 29.61 in1002.7 mb 0.00 in0.0 mm 0.00 in/hr0.0 mm/hr 0.00 in0.0 mm
04:20 PM 55.2°F12.9°C 33.7°F0.9°C 44% 10.9 mph N17.5 kmh N 20.1 mph32.3 kmh 29.61 in1002.7 mb 0.00 in0.0 mm 0.00 in/hr0.0 mm/hr 0.00 in0.0 mm
04:19 PM 55.2°F12.9°C 34.3°F1.3°C 45% 11.0 mph N17.7 kmh N 20.1 mph32.3 kmh 29.62 in1003.0 mb 0.00 in0.0 mm 0.00 in/hr0.0 mm/hr 0.00 in0.0 mm
04:18 PM 55.2°F12.9°C 33.7°F0.9°C 44% 10.9 mph NE17.5 kmh NE 20.1 mph32.3 kmh 29.61 in1002.7 mb 0.00 in0.0 mm 0.00 in/hr0.0 mm/hr 0.00 in0.0 mm
04:17 PM 55.2°F12.9°C 33.7°F0.9°C 44% 10.6 mph E17.1 kmh E 20.1 mph32.3 kmh 29.61 in1002.7 mb 0.00 in0.0 mm 0.00 in/hr0.0 mm/hr 0.00 in0.0 mm
04:16 PM 55.6°F13.1°C 33.5°F0.8°C 43% 10.3 mph E16.6 kmh E 20.1 mph32.3 kmh 29.61 in1002.7 mb 0.00 in0.0 mm 0.00 in/hr0.0 mm/hr 0.00 in0.0 mm
04:15 PM 55.6°F13.1°C 33.5°F0.8°C 43% 10.5 mph ENE16.9 kmh ENE 20.1 mph32.3 kmh 29.61 in1002.7 mb 0.00 in0.0 mm 0.00 in/hr0.0 mm/hr 0.00 in0.0 mm
04:14 PM 55.6°F13.1°C 33.5°F0.8°C 43% 10.5 mph E16.9 kmh E 20.1 mph32.3 kmh 29.61 in1002.7 mb 0.00 in0.0 mm 0.00 in/hr0.0 mm/hr 0.00 in0.0 mm
04:13 PM 56.1°F13.4°C 33.9°F1.1°C 43% 10.0 mph SE16.1 kmh SE 20.1 mph32.3 kmh 29.61 in1002.7 mb 0.00 in0.0 mm 0.00 in/hr0.0 mm/hr 0.00 in0.0 mm
04:12 PM 56.3°F13.5°C 35.2°F1.8°C 45% 9.4 mph SE15.1 kmh SE 20.1 mph32.3 kmh 29.60 in1002.4 mb 0.00 in0.0 mm 0.00 in/hr0.0 mm/hr 0.00 in0.0 mm
04:11 PM 56.3°F13.5°C 34.7°F1.5°C 44% 8.6 mph SE13.8 kmh SE 20.1 mph32.3 kmh 29.61 in1002.7 mb 0.00 in0.0 mm 0.00 in/hr0.0 mm/hr 0.00 in0.0 mm
04:10 PM 56.3°F13.5°C 35.2°F1.8°C 45% 7.9 mph E12.7 kmh E 11.8 mph19.0 kmh 29.61 in1002.7 mb 0.00 in0.0 mm 0.00 in/hr0.0 mm/hr 0.00 in0.0 mm
04:09 PM 56.3°F13.5°C 34.7°F1.5°C 44% 7.6 mph E12.2 kmh E 11.8 mph19.0 kmh 29.61 in1002.7 mb 0.00 in0.0 mm 0.00 in/hr0.0 mm/hr 0.00 in0.0 mm
04:08 PM 56.3°F13.5°C 35.2°F1.8°C 45% 7.3 mph E11.7 kmh E 11.0 mph17.7 kmh 29.62 in1003.0 mb 0.00 in0.0 mm 0.00 in/hr0.0 mm/hr 0.00 in0.0 mm
04:07 PM 56.3°F13.5°C 35.2°F1.8°C 45% 7.3 mph E11.7 kmh E 11.0 mph17.7 kmh 29.61 in1002.7 mb 0.00 in0.0 mm 0.00 in/hr0.0 mm/hr 0.00 in0.0 mm
04:06 PM 56.3°F13.5°C 35.2°F1.8°C 45% 7.1 mph ENE11.4 kmh ENE 11.0 mph17.7 kmh 29.61 in1002.7 mb 0.00 in0.0 mm 0.00 in/hr0.0 mm/hr 0.00 in0.0 mm
04:05 PM 56.5°F13.6°C 35.4°F1.9°C 45% 6.9 mph ENE11.1 kmh ENE 11.0 mph17.7 kmh 29.61 in1002.7 mb 0.00 in0.0 mm 0.00 in/hr0.0 mm/hr 0.00 in0.0 mm
04:04 PM 56.5°F13.6°C 35.4°F1.9°C 45% 7.5 mph NE12.1 kmh NE 16.4 mph26.4 kmh 29.60 in1002.4 mb 0.00 in0.0 mm 0.00 in/hr0.0 mm/hr 0.00 in0.0 mm
04:03 PM 56.7°F13.7°C 35.0°F1.7°C 44% 7.8 mph NNE12.6 kmh NNE 16.4 mph26.4 kmh 29.61 in1002.7 mb 0.00 in0.0 mm 0.00 in/hr0.0 mm/hr 0.00 in0.0 mm
04:02 PM 56.7°F13.7°C 35.6°F2.0°C 45% 8.1 mph N13.0 kmh N 16.4 mph26.4 kmh 29.61 in1002.7 mb 0.00 in0.0 mm 0.00 in/hr0.0 mm/hr 0.00 in0.0 mm
04:01 PM 56.8°F13.8°C 36.3°F2.4°C 46% 8.3 mph N13.4 kmh N 16.4 mph26.4 kmh 29.61 in1002.7 mb 0.00 in0.0 mm 0.00 in/hr0.0 mm/hr 0.00 in0.0 mm
04:00 PM 56.8°F13.8°C 36.3°F2.4°C 46% 8.6 mph N13.8 kmh N 16.4 mph26.4 kmh 29.61 in1002.7 mb 0.00 in0.0 mm 0.00 in/hr0.0 mm/hr 0.00 in0.0 mm
03:59 PM 56.7°F13.7°C 35.6°F2.0°C 45% 9.3 mph N15.0 kmh N 16.4 mph26.4 kmh 29.61 in1002.7 mb 0.00 in0.0 mm 0.00 in/hr0.0 mm/hr 0.00 in0.0 mm
03:58 PM 56.7°F13.7°C 36.1°F2.3°C 46% 9.8 mph N15.8 kmh N 16.4 mph26.4 kmh 29.60 in1002.4 mb 0.00 in0.0 mm 0.00 in/hr0.0 mm/hr 0.00 in0.0 mm
03:57 PM 56.7°F13.7°C 36.7°F2.6°C 47% 10.1 mph N16.3 kmh N 16.4 mph26.4 kmh 29.61 in1002.7 mb 0.00 in0.0 mm 0.00 in/hr0.0 mm/hr 0.00 in0.0 mm
03:56 PM 56.5°F13.6°C 36.5°F2.5°C 47% 10.8 mph NNW17.4 kmh NNW 16.4 mph26.4 kmh 29.61 in1002.7 mb 0.00 in0.0 mm 0.00 in/hr0.0 mm/hr 0.00 in0.0 mm
03:55 PM 56.5°F13.6°C 36.5°F2.5°C 47% 11.1 mph NW17.9 kmh NW 16.4 mph26.4 kmh 29.61 in1002.7 mb 0.00 in0.0 mm 0.00 in/hr0.0 mm/hr 0.00 in0.0 mm
03:54 PM 56.3°F13.5°C 36.3°F2.4°C 47% 10.4 mph W16.7 kmh W 16.4 mph26.4 kmh 29.59 in1002.0 mb 0.00 in0.0 mm 0.00 in/hr0.0 mm/hr 0.00 in0.0 mm
03:53 PM 56.3°F13.5°C 36.3°F2.4°C 47% 9.6 mph NNW15.4 kmh NNW 16.4 mph26.4 kmh 29.60 in1002.4 mb 0.00 in0.0 mm 0.00 in/hr0.0 mm/hr 0.00 in0.0 mm
03:52 PM 56.3°F13.5°C 36.3°F2.4°C 47% 9.3 mph NW15.0 kmh NW 16.4 mph26.4 kmh 29.60 in1002.4 mb 0.00 in0.0 mm 0.00 in/hr0.0 mm/hr 0.00 in0.0 mm
03:51 PM 56.3°F13.5°C 36.3°F2.4°C 47% 9.3 mph NNW15.0 kmh NNW 16.4 mph26.4 kmh 29.61 in1002.7 mb 0.00 in0.0 mm 0.00 in/hr0.0 mm/hr 0.00 in0.0 mm
03:50 PM 56.1°F13.4°C 36.7°F2.6°C 48% 8.9 mph NW14.3 kmh NW 16.4 mph26.4 kmh 29.60 in1002.4 mb 0.00 in0.0 mm 0.00 in/hr0.0 mm/hr 0.00 in0.0 mm
03:49 PM 55.9°F13.3°C 37.6°F3.1°C 50% 8.4 mph NW13.5 kmh NW 16.4 mph26.4 kmh 29.60 in1002.4 mb 0.00 in0.0 mm 0.00 in/hr0.0 mm/hr 0.00 in0.0 mm
03:48 PM 55.9°F13.3°C 36.5°F2.5°C 48% 8.6 mph NW13.8 kmh NW 16.4 mph26.4 kmh 29.60 in1002.4 mb 0.00 in0.0 mm 0.00 in/hr0.0 mm/hr 0.00 in0.0 mm
03:47 PM 55.9°F13.3°C 37.1°F2.8°C 49% 8.3 mph NW13.4 kmh NW 16.4 mph26.4 kmh 29.61 in1002.7 mb 0.00 in0.0 mm 0.00 in/hr0.0 mm/hr 0.00 in0.0 mm
03:46 PM 55.6°F13.1°C 38.2°F3.4°C 52% 8.1 mph N13.0 kmh N 12.9 mph20.8 kmh 29.61 in1002.7 mb 0.00 in0.0 mm 0.00 in/hr0.0 mm/hr 0.00 in0.0 mm
03:45 PM 55.6°F13.1°C 38.2°F3.4°C 52% 7.9 mph N12.7 kmh N 12.9 mph20.8 kmh 29.60 in1002.4 mb 0.00 in0.0 mm 0.00 in/hr0.0 mm/hr 0.00 in0.0 mm
03:44 PM 55.2°F12.9°C 37.9°F3.3°C 52% 7.8 mph N12.6 kmh N 12.9 mph20.8 kmh 29.61 in1002.7 mb 0.00 in0.0 mm 0.00 in/hr0.0 mm/hr 0.00 in0.0 mm
03:43 PM 55.0°F12.8°C 37.7°F3.2°C 52% 8.1 mph NNE13.0 kmh NNE 12.9 mph20.8 kmh 29.60 in1002.4 mb 0.00 in0.0 mm 0.00 in/hr0.0 mm/hr 0.00 in0.0 mm
03:42 PM 54.7°F12.6°C 36.9°F2.7°C 51% 8.3 mph NE13.4 kmh NE 14.5 mph23.3 kmh 29.60 in1002.4 mb 0.00 in0.0 mm 0.00 in/hr0.0 mm/hr 0.00 in0.0 mm
03:41 PM 54.7°F12.6°C 36.9°F2.7°C 51% 9.0 mph NE14.5 kmh NE 14.5 mph23.3 kmh 29.60 in1002.4 mb 0.00 in0.0 mm 0.00 in/hr0.0 mm/hr 0.00 in0.0 mm
03:40 PM 54.7°F12.6°C 36.9°F2.7°C 51% 9.8 mph NE15.8 kmh NE 14.5 mph23.3 kmh 29.60 in1002.4 mb 0.00 in0.0 mm 0.00 in/hr0.0 mm/hr 0.00 in0.0 mm
03:39 PM 54.7°F12.6°C 36.9°F2.7°C 51% 9.8 mph NE15.8 kmh NE 14.5 mph23.3 kmh 29.61 in1002.7 mb 0.00 in0.0 mm 0.00 in/hr0.0 mm/hr 0.00 in0.0 mm
03:38 PM 54.7°F12.6°C 36.9°F2.7°C 51% 9.0 mph NE14.5 kmh NE 14.5 mph23.3 kmh 29.59 in1002.0 mb 0.00 in0.0 mm 0.00 in/hr0.0 mm/hr 0.00 in0.0 mm
03:37 PM 54.7°F12.6°C 37.4°F3.0°C 52% 8.6 mph NE13.8 kmh NE 14.5 mph23.3 kmh 29.59 in1002.0 mb 0.00 in0.0 mm 0.00 in/hr0.0 mm/hr 0.00 in0.0 mm
03:36 PM 54.7°F12.6°C 37.4°F3.0°C 52% 8.3 mph NE13.4 kmh NE 14.5 mph23.3 kmh 29.60 in1002.4 mb 0.00 in0.0 mm 0.00 in/hr0.0 mm/hr 0.00 in0.0 mm
03:35 PM 54.7°F12.6°C 36.9°F2.7°C 51% 8.4 mph NE13.5 kmh NE 14.5 mph23.3 kmh 29.60 in1002.4 mb 0.00 in0.0 mm 0.00 in/hr0.0 mm/hr 0.00 in0.0 mm
03:34 PM 54.9°F12.7°C 37.1°F2.8°C 51% 8.8 mph NNE14.2 kmh NNE 14.5 mph23.3 kmh 29.60 in1002.4 mb 0.00 in0.0 mm 0.00 in/hr0.0 mm/hr 0.00 in0.0 mm
03:33 PM 55.0°F12.8°C 37.3°F2.9°C 51% 8.6 mph NNE13.8 kmh NNE 14.5 mph23.3 kmh 29.60 in1002.4 mb 0.00 in0.0 mm 0.00 in/hr0.0 mm/hr 0.00 in0.0 mm
03:32 PM 55.0°F12.8°C 37.3°F2.9°C 51% 8.3 mph NNE13.4 kmh NNE 14.5 mph23.3 kmh 29.59 in1002.0 mb 0.00 in0.0 mm 0.00 in/hr0.0 mm/hr 0.00 in0.0 mm
03:31 PM 55.2°F12.9°C 37.9°F3.3°C 52% 7.2 mph NNE11.6 kmh NNE 13.7 mph22.0 kmh 29.59 in1002.0 mb 0.00 in0.0 mm 0.00 in/hr0.0 mm/hr 0.00 in0.0 mm
03:30 PM 55.2°F12.9°C 38.4°F3.6°C 53% 6.6 mph NE10.6 kmh NE 11.0 mph17.7 kmh 29.61 in1002.7 mb 0.00 in0.0 mm 0.00 in/hr0.0 mm/hr 0.00 in0.0 mm
03:29 PM 55.0°F12.8°C 39.2°F4.0°C 55% 6.8 mph NE10.9 kmh NE 11.0 mph17.7 kmh 29.60 in1002.4 mb 0.00 in0.0 mm 0.00 in/hr0.0 mm/hr 0.00 in0.0 mm
03:28 PM 55.0°F12.8°C 38.2°F3.4°C 53% 7.3 mph NE11.7 kmh NE 11.0 mph17.7 kmh 29.60 in1002.4 mb 0.00 in0.0 mm 0.00 in/hr0.0 mm/hr 0.00 in0.0 mm
03:27 PM 55.0°F12.8°C 38.2°F3.4°C 53% 7.5 mph NE12.1 kmh NE 11.0 mph17.7 kmh 29.60 in1002.4 mb 0.00 in0.0 mm 0.00 in/hr0.0 mm/hr 0.00 in0.0 mm
03:26 PM 54.9°F12.7°C 38.5°F3.6°C 54% 7.6 mph NE12.2 kmh NE 11.0 mph17.7 kmh 29.60 in1002.4 mb 0.00 in0.0 mm 0.00 in/hr0.0 mm/hr 0.00 in0.0 mm
03:25 PM 54.9°F12.7°C 38.1°F3.4°C 53% 7.8 mph NE12.6 kmh NE 11.0 mph17.7 kmh 29.59 in1002.0 mb 0.00 in0.0 mm 0.00 in/hr0.0 mm/hr 0.00 in0.0 mm
03:24 PM 54.9°F12.7°C 39.0°F3.9°C 55% 7.5 mph NE12.1 kmh NE 9.9 mph15.9 kmh 29.59 in1002.0 mb 0.00 in0.0 mm 0.00 in/hr0.0 mm/hr 0.00 in0.0 mm
03:23 PM 54.9°F12.7°C 39.0°F3.9°C 55% 7.3 mph NE11.7 kmh NE 9.9 mph15.9 kmh 29.60 in1002.4 mb 0.00 in0.0 mm 0.00 in/hr0.0 mm/hr 0.00 in0.0 mm
03:22 PM 54.7°F12.6°C 39.3°F4.1°C 56% 7.3 mph NE11.7 kmh NE 9.9 mph15.9 kmh 29.60 in1002.4 mb 0.00 in0.0 mm 0.00 in/hr0.0 mm/hr 0.00 in0.0 mm
03:21 PM 54.7°F12.6°C 39.3°F4.1°C 56% 7.5 mph NE12.1 kmh NE 9.9 mph15.9 kmh 29.60 in1002.4 mb 0.00 in0.0 mm 0.00 in/hr0.0 mm/hr 0.00 in0.0 mm
03:20 PM 54.5°F12.5°C 39.6°F4.2°C 57% 7.5 mph NE12.1 kmh NE 9.9 mph15.9 kmh 29.60 in1002.4 mb 0.00 in0.0 mm 0.00 in/hr0.0 mm/hr 0.00 in0.0 mm
03:19 PM 54.3°F12.4°C 39.0°F3.9°C 56% 7.6 mph NE12.2 kmh NE 11.8 mph19.0 kmh 29.60 in1002.4 mb 0.00 in0.0 mm 0.00 in/hr0.0 mm/hr 0.00 in0.0 mm
03:18 PM 54.1°F12.3°C 39.7°F4.3°C 58% 7.2 mph NE11.6 kmh NE 11.8 mph19.0 kmh 29.60 in1002.4 mb 0.00 in0.0 mm 0.00 in/hr0.0 mm/hr 0.00 in0.0 mm
03:17 PM 54.0°F12.2°C 40.0°F4.4°C 59% 7.1 mph NNE11.4 kmh NNE 11.8 mph19.0 kmh 29.60 in1002.4 mb 0.00 in0.0 mm 0.00 in/hr0.0 mm/hr 0.00 in0.0 mm
03:16 PM 53.2°F11.8°C 40.6°F4.8°C 62% 7.1 mph N11.4 kmh N 11.8 mph19.0 kmh 29.60 in1002.4 mb 0.00 in0.0 mm 0.00 in/hr0.0 mm/hr 0.00 in0.0 mm
03:15 PM 53.1°F11.7°C 40.0°F4.4°C 61% 6.7 mph NNE10.8 kmh NNE 11.8 mph19.0 kmh 29.60 in1002.4 mb 0.00 in0.0 mm 0.00 in/hr0.0 mm/hr 0.00 in0.0 mm
03:14 PM 52.7°F11.5°C 40.1°F4.5°C 62% 6.7 mph NE10.8 kmh NE 11.8 mph19.0 kmh 29.60 in1002.4 mb 0.00 in0.0 mm 0.00 in/hr0.0 mm/hr 0.00 in0.0 mm
03:13 PM 52.5°F11.4°C 39.9°F4.4°C 62% 6.8 mph NNE10.9 kmh NNE 11.8 mph19.0 kmh 29.60 in1002.4 mb 0.00 in0.0 mm 0.00 in/hr0.0 mm/hr 0.00 in0.0 mm
03:12 PM 52.2°F11.2°C 39.1°F3.9°C 61% 6.7 mph N10.8 kmh N 11.8 mph19.0 kmh 29.60 in1002.4 mb 0.00 in0.0 mm 0.00 in/hr0.0 mm/hr 0.00 in0.0 mm
03:11 PM 51.8°F11.0°C 39.2°F4.0°C 62% 6.8 mph N10.9 kmh N 11.8 mph19.0 kmh 29.60 in1002.4 mb 0.00 in0.0 mm 0.00 in/hr0.0 mm/hr 0.00 in0.0 mm
03:10 PM 51.6°F10.9°C 39.4°F4.1°C 63% 6.5 mph N10.5 kmh N 11.8 mph19.0 kmh 29.60 in1002.4 mb 0.00 in0.0 mm 0.00 in/hr0.0 mm/hr 0.00 in0.0 mm
03:09 PM 51.4°F10.8°C 39.3°F4.1°C 63% 5.9 mph SE9.5 kmh SE 9.1 mph14.6 kmh 29.61 in1002.7 mb 0.00 in0.0 mm 0.00 in/hr0.0 mm/hr 0.00 in0.0 mm
03:08 PM 51.3°F10.7°C 39.5°F4.2°C 64% 5.9 mph E9.5 kmh E 9.1 mph14.6 kmh 29.60 in1002.4 mb 0.00 in0.0 mm 0.00 in/hr0.0 mm/hr 0.00 in0.0 mm
03:07 PM 50.9°F10.5°C 39.6°F4.2°C 65% 6.2 mph NE10.0 kmh NE 9.1 mph14.6 kmh 29.61 in1002.7 mb 0.00 in0.0 mm 0.00 in/hr0.0 mm/hr 0.00 in0.0 mm
03:06 PM 50.7°F10.4°C 39.4°F4.1°C 65% 6.1 mph SSW9.8 kmh SSW 9.1 mph14.6 kmh 29.60 in1002.4 mb 0.00 in0.0 mm 0.00 in/hr0.0 mm/hr 0.00 in0.0 mm
03:05 PM 50.7°F10.4°C 39.0°F3.9°C 64% 6.4 mph ENE10.3 kmh ENE 9.9 mph15.9 kmh 29.60 in1002.4 mb 0.00 in0.0 mm 0.00 in/hr0.0 mm/hr 0.00 in0.0 mm
03:04 PM 50.5°F10.3°C 38.8°F3.8°C 64% 6.5 mph NE10.5 kmh NE 9.9 mph15.9 kmh 29.60 in1002.4 mb 0.00 in0.0 mm 0.00 in/hr0.0 mm/hr 0.00 in0.0 mm
03:03 PM 50.5°F10.3°C 38.8°F3.8°C 64% 5.9 mph E9.5 kmh E 9.9 mph15.9 kmh 29.61 in1002.7 mb 0.00 in0.0 mm 0.00 in/hr0.0 mm/hr 0.00 in0.0 mm
03:02 PM 50.5°F10.3°C 38.8°F3.8°C 64% 5.8 mph E9.3 kmh E 9.9 mph15.9 kmh 29.61 in1002.7 mb 0.00 in0.0 mm 0.00 in/hr0.0 mm/hr 0.00 in0.0 mm
03:01 PM 50.4°F10.2°C 38.7°F3.7°C 64% 5.5 mph ENE8.9 kmh ENE 9.9 mph15.9 kmh 29.61 in1002.7 mb 0.00 in0.0 mm 0.00 in/hr0.0 mm/hr 0.00 in0.0 mm
03:00 PM 50.4°F10.2°C 38.7°F3.7°C 64% 5.7 mph NE9.2 kmh NE 9.9 mph15.9 kmh 29.61 in1002.7 mb 0.00 in0.0 mm 0.00 in/hr0.0 mm/hr 0.00 in0.0 mm
02:59 PM 50.4°F10.2°C 38.7°F3.7°C 64% 5.8 mph NNE9.3 kmh NNE 9.9 mph15.9 kmh 29.60 in1002.4 mb 0.00 in0.0 mm 0.00 in/hr0.0 mm/hr 0.00 in0.0 mm
02:58 PM 50.4°F10.2°C 38.7°F3.7°C 64% 5.9 mph NNE9.5 kmh NNE 9.9 mph15.9 kmh 29.60 in1002.4 mb 0.00 in0.0 mm 0.00 in/hr0.0 mm/hr 0.00 in0.0 mm
02:57 PM 50.4°F10.2°C 38.7°F3.7°C 64% 6.1 mph N9.8 kmh N 11.0 mph17.7 kmh 29.61 in1002.7 mb 0.00 in0.0 mm 0.00 in/hr0.0 mm/hr 0.00 in0.0 mm
02:56 PM 50.4°F10.2°C 38.7°F3.7°C 64% 6.1 mph NNE9.8 kmh NNE 11.0 mph17.7 kmh 29.60 in1002.4 mb 0.00 in0.0 mm 0.00 in/hr0.0 mm/hr 0.00 in0.0 mm
02:55 PM 50.5°F10.3°C 38.8°F3.8°C 64% 6.1 mph N9.8 kmh N 11.0 mph17.7 kmh 29.60 in1002.4 mb 0.00 in0.0 mm 0.00 in/hr0.0 mm/hr 0.00 in0.0 mm
02:54 PM 50.5°F10.3°C 38.8°F3.8°C 64% 6.2 mph N10.0 kmh N 11.0 mph17.7 kmh 29.61 in1002.7 mb 0.00 in0.0 mm 0.00 in/hr0.0 mm/hr 0.00 in0.0 mm
02:53 PM 50.5°F10.3°C 38.8°F3.8°C 64% 6.9 mph N11.1 kmh N 11.0 mph17.7 kmh 29.61 in1002.7 mb 0.00 in0.0 mm 0.00 in/hr0.0 mm/hr 0.00 in0.0 mm
02:52 PM 50.5°F10.3°C 38.8°F3.8°C 64% 7.4 mph N11.9 kmh N 11.0 mph17.7 kmh 29.60 in1002.4 mb 0.00 in0.0 mm 0.00 in/hr0.0 mm/hr 0.00 in0.0 mm
02:51 PM 50.5°F10.3°C 38.4°F3.6°C 63% 7.5 mph N12.1 kmh N 11.0 mph17.7 kmh 29.60 in1002.4 mb 0.00 in0.0 mm 0.00 in/hr0.0 mm/hr 0.00 in0.0 mm
02:50 PM 50.5°F10.3°C 38.4°F3.6°C 63% 7.9 mph N12.7 kmh N 11.0 mph17.7 kmh 29.60 in1002.4 mb 0.00 in0.0 mm 0.00 in/hr0.0 mm/hr 0.00 in0.0 mm
02:49 PM 50.5°F10.3°C 38.4°F3.6°C 63% 8.1 mph N13.0 kmh N 11.0 mph17.7 kmh 29.61 in1002.7 mb 0.00 in0.0 mm 0.00 in/hr0.0 mm/hr 0.00 in0.0 mm
02:48 PM 50.7°F10.4°C 38.2°F3.4°C 62% 8.5 mph N13.7 kmh N 11.0 mph17.7 kmh 29.61 in1002.7 mb 0.00 in0.0 mm 0.00 in/hr0.0 mm/hr 0.00 in0.0 mm
02:47 PM 50.7°F10.4°C 38.6°F3.7°C 63% 8.4 mph N13.5 kmh N 11.0 mph17.7 kmh 29.61 in1002.7 mb 0.00 in0.0 mm 0.00 in/hr0.0 mm/hr 0.00 in0.0 mm
02:46 PM 50.7°F10.4°C 38.6°F3.7°C 63% 8.3 mph N13.4 kmh N 11.0 mph17.7 kmh 29.61 in1002.7 mb 0.00 in0.0 mm 0.00 in/hr0.0 mm/hr 0.00 in0.0 mm
02:45 PM 50.7°F10.4°C 38.6°F3.7°C 63% 7.9 mph N12.7 kmh N 11.0 mph17.7 kmh 29.61 in1002.7 mb 0.00 in0.0 mm 0.00 in/hr0.0 mm/hr 0.00 in0.0 mm
02:44 PM 50.7°F10.4°C 38.2°F3.4°C 62% 7.8 mph N12.6 kmh N 11.0 mph17.7 kmh 29.61 in1002.7 mb 0.00 in0.0 mm 0.00 in/hr0.0 mm/hr 0.00 in0.0 mm
02:43 PM 50.7°F10.4°C 38.6°F3.7°C 63% 7.2 mph NNE11.6 kmh NNE 11.0 mph17.7 kmh 29.61 in1002.7 mb 0.00 in0.0 mm 0.00 in/hr0.0 mm/hr 0.00 in0.0 mm
02:42 PM 50.7°F10.4°C 38.6°F3.7°C 63% 6.9 mph NNE11.1 kmh NNE 11.0 mph17.7 kmh 29.62 in1003.0 mb 0.00 in0.0 mm 0.00 in/hr0.0 mm/hr 0.00 in0.0 mm
02:41 PM 50.7°F10.4°C 39.0°F3.9°C 64% 6.8 mph NE10.9 kmh NE 11.0 mph17.7 kmh 29.62 in1003.0 mb 0.00 in0.0 mm 0.00 in/hr0.0 mm/hr 0.00 in0.0 mm
02:40 PM 50.7°F10.4°C 38.6°F3.7°C 63% 6.1 mph NE9.8 kmh NE 9.9 mph15.9 kmh 29.61 in1002.7 mb 0.00 in0.0 mm 0.00 in/hr0.0 mm/hr 0.00 in0.0 mm
02:39 PM 50.7°F10.4°C 38.6°F3.7°C 63% 5.6 mph NE9.0 kmh NE 9.9 mph15.9 kmh 29.61 in1002.7 mb 0.00 in0.0 mm 0.00 in/hr0.0 mm/hr 0.00 in0.0 mm
02:38 PM 50.7°F10.4°C 38.6°F3.7°C 63% 5.4 mph NNE8.7 kmh NNE 9.9 mph15.9 kmh 29.61 in1002.7 mb 0.00 in0.0 mm 0.00 in/hr0.0 mm/hr 0.00 in0.0 mm
02:37 PM 50.7°F10.4°C 38.6°F3.7°C 63% 5.0 mph ENE8.0 kmh ENE 7.2 mph11.6 kmh 29.61 in1002.7 mb 0.00 in0.0 mm 0.00 in/hr0.0 mm/hr 0.00 in0.0 mm
02:36 PM 50.7°F10.4°C 38.6°F3.7°C 63% 4.7 mph NE7.6 kmh NE 7.2 mph11.6 kmh 29.61 in1002.7 mb 0.00 in0.0 mm 0.00 in/hr0.0 mm/hr 0.00 in0.0 mm
02:35 PM 50.5°F10.3°C 38.4°F3.6°C 63% 4.9 mph NE7.9 kmh NE 7.2 mph11.6 kmh 29.61 in1002.7 mb 0.00 in0.0 mm 0.00 in/hr0.0 mm/hr 0.00 in0.0 mm
02:34 PM 50.5°F10.3°C 38.4°F3.6°C 63% 4.8 mph ENE7.7 kmh ENE 7.2 mph11.6 kmh 29.62 in1003.0 mb 0.00 in0.0 mm 0.00 in/hr0.0 mm/hr 0.00 in0.0 mm
02:33 PM 50.5°F10.3°C 38.4°F3.6°C 63% 5.2 mph NE8.4 kmh NE 8.3 mph13.4 kmh 29.61 in1002.7 mb 0.00 in0.0 mm 0.00 in/hr0.0 mm/hr 0.00 in0.0 mm
02:32 PM 50.5°F10.3°C 38.0°F3.3°C 62% 5.2 mph NE8.4 kmh NE 8.3 mph13.4 kmh 29.61 in1002.7 mb 0.00 in0.0 mm 0.00 in/hr0.0 mm/hr 0.00 in0.0 mm
02:31 PM 50.5°F10.3°C 38.0°F3.3°C 62% 5.2 mph NE8.4 kmh NE 8.3 mph13.4 kmh 29.61 in1002.7 mb 0.00 in0.0 mm 0.00 in/hr0.0 mm/hr 0.00 in0.0 mm
02:30 PM 50.5°F10.3°C 38.0°F3.3°C 62% 5.4 mph NNE8.7 kmh NNE 8.3 mph13.4 kmh 29.61 in1002.7 mb 0.00 in0.0 mm 0.00 in/hr0.0 mm/hr 0.00 in0.0 mm
02:29 PM 50.5°F10.3°C 38.0°F3.3°C 62% 5.9 mph NNE9.5 kmh NNE 9.1 mph14.6 kmh 29.61 in1002.7 mb 0.00 in0.0 mm 0.00 in/hr0.0 mm/hr 0.00 in0.0 mm
02:28 PM 50.7°F10.4°C 38.6°F3.7°C 63% 5.8 mph NE9.3 kmh NE 9.1 mph14.6 kmh 29.61 in1002.7 mb 0.00 in0.0 mm 0.00 in/hr0.0 mm/hr 0.00 in0.0 mm
02:27 PM 50.7°F10.4°C 38.2°F3.4°C 62% 5.5 mph NNE8.9 kmh NNE 9.1 mph14.6 kmh 29.61 in1002.7 mb 0.00 in0.0 mm 0.00 in/hr0.0 mm/hr 0.00 in0.0 mm
02:26 PM 50.7°F10.4°C 38.2°F3.4°C 62% 5.6 mph NE9.0 kmh NE 9.1 mph14.6 kmh 29.62 in1003.0 mb 0.00 in0.0 mm 0.00 in/hr0.0 mm/hr 0.00 in0.0 mm
02:25 PM 50.7°F10.4°C 38.2°F3.4°C 62% 5.8 mph NE9.3 kmh NE 9.1 mph14.6 kmh 29.61 in1002.7 mb 0.00 in0.0 mm 0.00 in/hr0.0 mm/hr 0.00 in0.0 mm
02:24 PM 50.9°F10.5°C 38.4°F3.6°C 62% 6.1 mph NE9.8 kmh NE 9.1 mph14.6 kmh 29.61 in1002.7 mb 0.00 in0.0 mm 0.00 in/hr0.0 mm/hr 0.00 in0.0 mm
02:23 PM 50.9°F10.5°C 38.4°F3.6°C 62% 5.8 mph NE9.3 kmh NE 9.1 mph14.6 kmh 29.61 in1002.7 mb 0.00 in0.0 mm 0.00 in/hr0.0 mm/hr 0.00 in0.0 mm
02:22 PM 51.1°F10.6°C 38.5°F3.6°C 62% 5.8 mph NE9.3 kmh NE 9.1 mph14.6 kmh 29.61 in1002.7 mb 0.00 in0.0 mm 0.00 in/hr0.0 mm/hr 0.00 in0.0 mm
02:21 PM 51.1°F10.6°C 38.5°F3.6°C 62% 6.0 mph NE9.7 kmh NE 9.1 mph14.6 kmh 29.61 in1002.7 mb 0.00 in0.0 mm 0.00 in/hr0.0 mm/hr 0.00 in0.0 mm
02:20 PM 51.1°F10.6°C 38.5°F3.6°C 62% 6.4 mph NNE10.3 kmh NNE 9.1 mph14.6 kmh 29.61 in1002.7 mb 0.00 in0.0 mm 0.00 in/hr0.0 mm/hr 0.00 in0.0 mm
02:19 PM 51.1°F10.6°C 38.5°F3.6°C 62% 6.7 mph NNE10.8 kmh NNE 11.8 mph19.0 kmh 29.60 in1002.4 mb 0.00 in0.0 mm 0.00 in/hr0.0 mm/hr 0.00 in0.0 mm
02:18 PM 51.1°F10.6°C 38.5°F3.6°C 62% 6.5 mph N10.5 kmh N 11.8 mph19.0 kmh 29.62 in1003.0 mb 0.00 in0.0 mm 0.00 in/hr0.0 mm/hr 0.00 in0.0 mm
02:17 PM 51.1°F10.6°C 38.5°F3.6°C 62% 6.5 mph NNE10.5 kmh NNE 11.8 mph19.0 kmh 29.61 in1002.7 mb 0.00 in0.0 mm 0.00 in/hr0.0 mm/hr 0.00 in0.0 mm
02:16 PM 51.1°F10.6°C 38.5°F3.6°C 62% 6.3 mph NNE10.1 kmh NNE 11.8 mph19.0 kmh 29.61 in1002.7 mb 0.00 in0.0 mm 0.00 in/hr0.0 mm/hr 0.00 in0.0 mm
02:15 PM 51.1°F10.6°C 38.5°F3.6°C 62% 5.8 mph N9.3 kmh N 11.8 mph19.0 kmh 29.61 in1002.7 mb 0.00 in0.0 mm 0.00 in/hr0.0 mm/hr 0.00 in0.0 mm
02:14 PM 51.1°F10.6°C 38.5°F3.6°C 62% 5.4 mph NNE8.7 kmh NNE 11.8 mph19.0 kmh 29.61 in1002.7 mb 0.00 in0.0 mm 0.00 in/hr0.0 mm/hr 0.00 in0.0 mm
02:13 PM 51.1°F10.6°C 38.5°F3.6°C 62% 5.4 mph N8.7 kmh N 11.8 mph19.0 kmh 29.61 in1002.7 mb 0.00 in0.0 mm 0.00 in/hr0.0 mm/hr 0.00 in0.0 mm
02:12 PM 51.1°F10.6°C 38.5°F3.6°C 62% 5.5 mph N8.9 kmh N 11.8 mph19.0 kmh 29.61 in1002.7 mb 0.00 in0.0 mm 0.00 in/hr0.0 mm/hr 0.00 in0.0 mm
02:11 PM 51.1°F10.6°C 38.1°F3.4°C 61% 5.3 mph NNE8.5 kmh NNE 11.8 mph19.0 kmh 29.61 in1002.7 mb 0.00 in0.0 mm 0.00 in/hr0.0 mm/hr 0.00 in0.0 mm
02:10 PM 51.1°F10.6°C 38.1°F3.4°C 61% 5.1 mph NE8.2 kmh NE 11.8 mph19.0 kmh 29.61 in1002.7 mb 0.00 in0.0 mm 0.00 in/hr0.0 mm/hr 0.00 in0.0 mm
02:09 PM 51.1°F10.6°C 38.5°F3.6°C 62% 4.3 mph ENE6.9 kmh ENE 6.4 mph10.3 kmh 29.61 in1002.7 mb 0.00 in0.0 mm 0.00 in/hr0.0 mm/hr 0.00 in0.0 mm
02:08 PM 51.1°F10.6°C 38.5°F3.6°C 62% 4.3 mph NE6.9 kmh NE 6.4 mph10.3 kmh 29.61 in1002.7 mb 0.00 in0.0 mm 0.00 in/hr0.0 mm/hr 0.00 in0.0 mm
02:07 PM 50.9°F10.5°C 37.9°F3.3°C 61% 5.1 mph ENE8.2 kmh ENE 9.1 mph14.6 kmh 29.60 in1002.4 mb 0.00 in0.0 mm 0.00 in/hr0.0 mm/hr 0.00 in0.0 mm
02:06 PM 50.9°F10.5°C 38.4°F3.6°C 62% 5.4 mph NE8.7 kmh NE 9.1 mph14.6 kmh 29.60 in1002.4 mb 0.00 in0.0 mm 0.00 in/hr0.0 mm/hr 0.00 in0.0 mm
02:05 PM 50.9°F10.5°C 38.4°F3.6°C 62% 5.7 mph NE9.2 kmh NE 9.1 mph14.6 kmh 29.61 in1002.7 mb 0.00 in0.0 mm 0.00 in/hr0.0 mm/hr 0.00 in0.0 mm
02:04 PM 50.9°F10.5°C 38.4°F3.6°C 62% 5.7 mph NNE9.2 kmh NNE 9.1 mph14.6 kmh 29.61 in1002.7 mb 0.00 in0.0 mm 0.00 in/hr0.0 mm/hr 0.00 in0.0 mm
02:03 PM 50.9°F10.5°C 38.4°F3.6°C 62% 6.1 mph NE9.8 kmh NE 9.1 mph14.6 kmh 29.61 in1002.7 mb 0.00 in0.0 mm 0.00 in/hr0.0 mm/hr 0.00 in0.0 mm
02:02 PM 50.9°F10.5°C 38.4°F3.6°C 62% 6.3 mph ENE10.1 kmh ENE 9.1 mph14.6 kmh 29.61 in1002.7 mb 0.00 in0.0 mm 0.00 in/hr0.0 mm/hr 0.00 in0.0 mm
02:01 PM 50.9°F10.5°C 38.8°F3.8°C 63% 6.5 mph NE10.5 kmh NE 9.1 mph14.6 kmh 29.60 in1002.4 mb 0.00 in0.0 mm 0.00 in/hr0.0 mm/hr 0.00 in0.0 mm
02:00 PM 50.9°F10.5°C 38.8°F3.8°C 63% 6.6 mph NE10.6 kmh NE 9.1 mph14.6 kmh 29.60 in1002.4 mb 0.00 in0.0 mm 0.00 in/hr0.0 mm/hr 0.00 in0.0 mm
01:59 PM 50.9°F10.5°C 38.4°F3.6°C 62% 7.0 mph NE11.3 kmh NE 9.1 mph14.6 kmh 29.60 in1002.4 mb 0.00 in0.0 mm 0.00 in/hr0.0 mm/hr 0.00 in0.0 mm
01:58 PM 50.9°F10.5°C 38.4°F3.6°C 62% 7.2 mph NE11.6 kmh NE 9.1 mph14.6 kmh 29.60 in1002.4 mb 0.00 in0.0 mm 0.00 in/hr0.0 mm/hr 0.00 in0.0 mm
01:57 PM 50.9°F10.5°C 38.4°F3.6°C 62% 7.2 mph NE11.6 kmh NE 9.1 mph14.6 kmh 29.60 in1002.4 mb 0.00 in0.0 mm 0.00 in/hr0.0 mm/hr 0.00 in0.0 mm
01:56 PM 50.9°F10.5°C 37.9°F3.3°C 61% 7.3 mph NE11.7 kmh NE 9.1 mph14.6 kmh 29.60 in1002.4 mb 0.00 in0.0 mm 0.00 in/hr0.0 mm/hr 0.00 in0.0 mm
01:55 PM 50.9°F10.5°C 37.9°F3.3°C 61% 7.4 mph N11.9 kmh N 9.1 mph14.6 kmh 29.60 in1002.4 mb 0.00 in0.0 mm 0.00 in/hr0.0 mm/hr 0.00 in0.0 mm
01:54 PM 50.9°F10.5°C 37.9°F3.3°C 61% 7.6 mph N12.2 kmh N 9.1 mph14.6 kmh 29.60 in1002.4 mb 0.00 in0.0 mm 0.00 in/hr0.0 mm/hr 0.00 in0.0 mm
01:53 PM 50.9°F10.5°C 37.9°F3.3°C 61% 7.7 mph NW12.4 kmh NW 9.1 mph14.6 kmh 29.60 in1002.4 mb 0.00 in0.0 mm 0.00 in/hr0.0 mm/hr 0.00 in0.0 mm
01:52 PM 51.1°F10.6°C 38.5°F3.6°C 62% 7.5 mph WNW12.1 kmh WNW 9.1 mph14.6 kmh 29.59 in1002.0 mb 0.00 in0.0 mm 0.00 in/hr0.0 mm/hr 0.00 in0.0 mm
01:51 PM 50.9°F10.5°C 38.8°F3.8°C 63% 7.2 mph W11.6 kmh W 9.1 mph14.6 kmh 29.60 in1002.4 mb 0.00 in0.0 mm 0.00 in/hr0.0 mm/hr 0.00 in0.0 mm
01:50 PM 50.9°F10.5°C 38.8°F3.8°C 63% 7.3 mph W11.7 kmh W 9.1 mph14.6 kmh 29.60 in1002.4 mb 0.00 in0.0 mm 0.00 in/hr0.0 mm/hr 0.00 in0.0 mm
01:49 PM 50.9°F10.5°C 38.8°F3.8°C 63% 7.3 mph WNW11.7 kmh WNW 11.0 mph17.7 kmh 29.60 in1002.4 mb 0.00 in0.0 mm 0.00 in/hr0.0 mm/hr 0.00 in0.0 mm
01:48 PM 50.9°F10.5°C 39.2°F4.0°C 64% 7.4 mph NW11.9 kmh NW 11.0 mph17.7 kmh 29.60 in1002.4 mb 0.00 in0.0 mm 0.00 in/hr0.0 mm/hr 0.00 in0.0 mm
01:47 PM 50.9°F10.5°C 38.8°F3.8°C 63% 7.1 mph NW11.4 kmh NW 11.0 mph17.7 kmh 29.60 in1002.4 mb 0.00 in0.0 mm 0.00 in/hr0.0 mm/hr 0.00 in0.0 mm
01:46 PM 51.1°F10.6°C 38.5°F3.6°C 62% 6.8 mph NNW10.9 kmh NNW 11.0 mph17.7 kmh 29.60 in1002.4 mb 0.00 in0.0 mm 0.00 in/hr0.0 mm/hr 0.00 in0.0 mm
01:45 PM 51.1°F10.6°C 38.5°F3.6°C 62% 6.7 mph NNW10.8 kmh NNW 11.0 mph17.7 kmh 29.60 in1002.4 mb 0.00 in0.0 mm 0.00 in/hr0.0 mm/hr 0.00 in0.0 mm
01:44 PM 51.1°F10.6°C 38.5°F3.6°C 62% 6.4 mph N10.3 kmh N 11.0 mph17.7 kmh 29.60 in1002.4 mb 0.00 in0.0 mm 0.00 in/hr0.0 mm/hr 0.00 in0.0 mm
01:43 PM 51.1°F10.6°C 38.9°F3.8°C 63% 6.3 mph N10.1 kmh N 11.0 mph17.7 kmh 29.60 in1002.4 mb 0.00 in0.0 mm 0.00 in/hr0.0 mm/hr 0.00 in0.0 mm
01:42 PM 51.1°F10.6°C 38.9°F3.8°C 63% 6.5 mph N10.5 kmh N 12.9 mph20.8 kmh 29.60 in1002.4 mb 0.00 in0.0 mm 0.00 in/hr0.0 mm/hr 0.00 in0.0 mm
01:41 PM 51.1°F10.6°C 39.3°F4.1°C 64% 7.0 mph N11.3 kmh N 12.9 mph20.8 kmh 29.60 in1002.4 mb 0.00 in0.0 mm 0.00 in/hr0.0 mm/hr 0.00 in0.0 mm
01:40 PM 51.1°F10.6°C 38.9°F3.8°C 63% 7.3 mph N11.7 kmh N 12.9 mph20.8 kmh 29.60 in1002.4 mb 0.00 in0.0 mm 0.00 in/hr0.0 mm/hr 0.00 in0.0 mm
01:39 PM 51.3°F10.7°C 39.1°F3.9°C 63% 8.0 mph NNW12.9 kmh NNW 14.5 mph23.3 kmh 29.60 in1002.4 mb 0.00 in0.0 mm 0.00 in/hr0.0 mm/hr 0.00 in0.0 mm
01:38 PM 51.3°F10.7°C 39.1°F3.9°C 63% 8.0 mph NNW12.9 kmh NNW 14.5 mph23.3 kmh 29.60 in1002.4 mb 0.00 in0.0 mm 0.00 in/hr0.0 mm/hr 0.00 in0.0 mm
01:37 PM 51.3°F10.7°C 39.1°F3.9°C 63% 8.4 mph NW13.5 kmh NW 14.5 mph23.3 kmh 29.60 in1002.4 mb 0.00 in0.0 mm 0.00 in/hr0.0 mm/hr 0.00 in0.0 mm
01:36 PM 51.3°F10.7°C 39.1°F3.9°C 63% 8.6 mph NW13.8 kmh NW 14.5 mph23.3 kmh 29.60 in1002.4 mb 0.00 in0.0 mm 0.00 in/hr0.0 mm/hr 0.00 in0.0 mm
01:35 PM 51.3°F10.7°C 39.1°F3.9°C 63% 8.5 mph NNW13.7 kmh NNW 14.5 mph23.3 kmh 29.59 in1002.0 mb 0.00 in0.0 mm 0.00 in/hr0.0 mm/hr 0.00 in0.0 mm
01:34 PM 51.3°F10.7°C 39.1°F3.9°C 63% 8.4 mph NW13.5 kmh NW 14.5 mph23.3 kmh 29.59 in1002.0 mb 0.00 in0.0 mm 0.00 in/hr0.0 mm/hr 0.00 in0.0 mm
01:33 PM 51.3°F10.7°C 39.1°F3.9°C 63% 8.3 mph N13.4 kmh N 14.5 mph23.3 kmh 29.60 in1002.4 mb 0.00 in0.0 mm 0.00 in/hr0.0 mm/hr 0.00 in0.0 mm
01:32 PM 51.3°F10.7°C 39.1°F3.9°C 63% 7.6 mph NNW12.2 kmh NNW 14.5 mph23.3 kmh 29.59 in1002.0 mb 0.00 in0.0 mm 0.00 in/hr0.0 mm/hr 0.00 in0.0 mm
01:31 PM 51.1°F10.6°C 38.5°F3.6°C 62% 7.4 mph WNW11.9 kmh WNW 14.5 mph23.3 kmh 29.59 in1002.0 mb 0.00 in0.0 mm 0.00 in/hr0.0 mm/hr 0.00 in0.0 mm
01:30 PM 51.1°F10.6°C 38.5°F3.6°C 62% 7.3 mph NNW11.7 kmh NNW 14.5 mph23.3 kmh 29.59 in1002.0 mb 0.00 in0.0 mm 0.00 in/hr0.0 mm/hr 0.00 in0.0 mm
01:29 PM 51.3°F10.7°C 38.7°F3.7°C 62% 6.6 mph NNE10.6 kmh NNE 12.9 mph20.8 kmh 29.59 in1002.0 mb 0.00 in0.0 mm 0.00 in/hr0.0 mm/hr 0.00 in0.0 mm
01:28 PM 51.3°F10.7°C 39.1°F3.9°C 63% 6.7 mph NE10.8 kmh NE 11.0 mph17.7 kmh 29.59 in1002.0 mb 0.00 in0.0 mm 0.00 in/hr0.0 mm/hr 0.00 in0.0 mm
01:27 PM 51.1°F10.6°C 38.9°F3.8°C 63% 6.4 mph NE10.3 kmh NE 11.0 mph17.7 kmh 29.59 in1002.0 mb 0.00 in0.0 mm 0.00 in/hr0.0 mm/hr 0.00 in0.0 mm
01:26 PM 51.1°F10.6°C 39.3°F4.1°C 64% 6.6 mph NNE10.6 kmh NNE 11.0 mph17.7 kmh 29.59 in1002.0 mb 0.00 in0.0 mm 0.00 in/hr0.0 mm/hr 0.00 in0.0 mm
01:25 PM 50.9°F10.5°C 39.2°F4.0°C 64% 7.0 mph N11.3 kmh N 11.0 mph17.7 kmh 29.59 in1002.0 mb 0.00 in0.0 mm 0.00 in/hr0.0 mm/hr 0.00 in0.0 mm
01:24 PM 50.7°F10.4°C 38.6°F3.7°C 63% 7.6 mph N12.2 kmh N 11.0 mph17.7 kmh 29.59 in1002.0 mb 0.00 in0.0 mm 0.00 in/hr0.0 mm/hr 0.00 in0.0 mm
01:23 PM 50.7°F10.4°C 39.0°F3.9°C 64% 7.9 mph N12.7 kmh N 11.0 mph17.7 kmh 29.59 in1002.0 mb 0.00 in0.0 mm 0.00 in/hr0.0 mm/hr 0.00 in0.0 mm
01:22 PM 50.7°F10.4°C 38.6°F3.7°C 63% 8.2 mph N13.2 kmh N 11.0 mph17.7 kmh 29.59 in1002.0 mb 0.00 in0.0 mm 0.00 in/hr0.0 mm/hr 0.00 in0.0 mm
01:21 PM 50.7°F10.4°C 38.6°F3.7°C 63% 7.9 mph N12.7 kmh N 11.0 mph17.7 kmh 29.59 in1002.0 mb 0.00 in0.0 mm 0.00 in/hr0.0 mm/hr 0.00 in0.0 mm
01:20 PM 50.7°F10.4°C 38.6°F3.7°C 63% 7.5 mph N12.1 kmh N 11.0 mph17.7 kmh 29.59 in1002.0 mb 0.00 in0.0 mm 0.00 in/hr0.0 mm/hr 0.00 in0.0 mm
01:19 PM 50.7°F10.4°C 38.2°F3.4°C 62% 7.6 mph N12.2 kmh N 11.0 mph17.7 kmh 29.59 in1002.0 mb 0.00 in0.0 mm 0.00 in/hr0.0 mm/hr 0.00 in0.0 mm
01:18 PM 50.7°F10.4°C 38.2°F3.4°C 62% 7.3 mph N11.7 kmh N 11.0 mph17.7 kmh 29.59 in1002.0 mb 0.00 in0.0 mm 0.00 in/hr0.0 mm/hr 0.00 in0.0 mm
01:17 PM 50.9°F10.5°C 38.4°F3.6°C 62% 7.1 mph N11.4 kmh N 9.9 mph15.9 kmh 29.59 in1002.0 mb 0.00 in0.0 mm 0.00 in/hr0.0 mm/hr 0.00 in0.0 mm
01:16 PM 50.9°F10.5°C 38.4°F3.6°C 62% 6.7 mph N10.8 kmh N 9.9 mph15.9 kmh 29.59 in1002.0 mb 0.00 in0.0 mm 0.00 in/hr0.0 mm/hr 0.00 in0.0 mm
01:15 PM 50.9°F10.5°C 38.4°F3.6°C 62% 6.2 mph NNE10.0 kmh NNE 9.9 mph15.9 kmh 29.59 in1002.0 mb 0.00 in0.0 mm 0.00 in/hr0.0 mm/hr 0.00 in0.0 mm
01:14 PM 50.9°F10.5°C 38.4°F3.6°C 62% 5.6 mph N9.0 kmh N 9.9 mph15.9 kmh 29.59 in1002.0 mb 0.00 in0.0 mm 0.00 in/hr0.0 mm/hr 0.00 in0.0 mm
01:13 PM 51.1°F10.6°C 38.9°F3.8°C 63% 5.7 mph NE9.2 kmh NE 9.1 mph14.6 kmh 29.59 in1002.0 mb 0.00 in0.0 mm 0.00 in/hr0.0 mm/hr 0.00 in0.0 mm
01:12 PM 51.1°F10.6°C 38.9°F3.8°C 63% 5.9 mph NE9.5 kmh NE 9.1 mph14.6 kmh 29.59 in1002.0 mb 0.00 in0.0 mm 0.00 in/hr0.0 mm/hr 0.00 in0.0 mm
01:11 PM 51.1°F10.6°C 38.9°F3.8°C 63% 5.8 mph NE9.3 kmh NE 9.1 mph14.6 kmh 29.59 in1002.0 mb 0.00 in0.0 mm 0.00 in/hr0.0 mm/hr 0.00 in0.0 mm
01:10 PM 51.1°F10.6°C 38.9°F3.8°C 63% 5.7 mph NE9.2 kmh NE 9.1 mph14.6 kmh 29.59 in1002.0 mb 0.00 in0.0 mm 0.00 in/hr0.0 mm/hr 0.00 in0.0 mm
01:09 PM 51.1°F10.6°C 38.9°F3.8°C 63% 5.3 mph NE8.5 kmh NE 9.1 mph14.6 kmh 29.59 in1002.0 mb 0.00 in0.0 mm 0.00 in/hr0.0 mm/hr 0.00 in0.0 mm
01:08 PM 50.9°F10.5°C 39.2°F4.0°C 64% 5.2 mph NE8.4 kmh NE 9.1 mph14.6 kmh 29.60 in1002.4 mb 0.00 in0.0 mm 0.00 in/hr0.0 mm/hr 0.00 in0.0 mm
01:07 PM 50.9°F10.5°C 39.2°F4.0°C 64% 5.3 mph NE8.5 kmh NE 9.1 mph14.6 kmh 29.59 in1002.0 mb 0.00 in0.0 mm 0.00 in/hr0.0 mm/hr 0.00 in0.0 mm
01:06 PM 50.9°F10.5°C 39.2°F4.0°C 64% 5.5 mph NNE8.9 kmh NNE 9.1 mph14.6 kmh 29.59 in1002.0 mb 0.00 in0.0 mm 0.00 in/hr0.0 mm/hr 0.00 in0.0 mm
01:05 PM 50.7°F10.4°C 39.0°F3.9°C 64% 6.0 mph N9.7 kmh N 9.1 mph14.6 kmh 29.59 in1002.0 mb 0.00 in0.0 mm 0.00 in/hr0.0 mm/hr 0.00 in0.0 mm
01:04 PM 50.7°F10.4°C 39.0°F3.9°C 64% 6.5 mph N10.5 kmh N 9.9 mph15.9 kmh 29.59 in1002.0 mb 0.00 in0.0 mm 0.00 in/hr0.0 mm/hr 0.00 in0.0 mm
01:03 PM 50.7°F10.4°C 39.0°F3.9°C 64% 6.4 mph NNW10.3 kmh NNW 9.9 mph15.9 kmh 29.59 in1002.0 mb 0.00 in0.0 mm 0.00 in/hr0.0 mm/hr 0.00 in0.0 mm
01:02 PM 50.7°F10.4°C 38.6°F3.7°C 63% 6.3 mph NNW10.1 kmh NNW 9.9 mph15.9 kmh 29.59 in1002.0 mb 0.00 in0.0 mm 0.00 in/hr0.0 mm/hr 0.00 in0.0 mm
01:01 PM 50.7°F10.4°C 39.4°F4.1°C 65% 6.5 mph NW10.5 kmh NW 9.9 mph15.9 kmh 29.59 in1002.0 mb 0.00 in0.0 mm 0.00 in/hr0.0 mm/hr 0.00 in0.0 mm
01:00 PM 50.7°F10.4°C 39.4°F4.1°C 65% 6.4 mph NNW10.3 kmh NNW 9.9 mph15.9 kmh 29.60 in1002.4 mb 0.00 in0.0 mm 0.00 in/hr0.0 mm/hr 0.00 in0.0 mm
12:59 PM 50.7°F10.4°C 39.8°F4.3°C 66% 6.4 mph NNW10.3 kmh NNW 9.9 mph15.9 kmh 29.60 in1002.4 mb 0.00 in0.0 mm 0.00 in/hr0.0 mm/hr 0.00 in0.0 mm
12:58 PM 50.5°F10.3°C 39.2°F4.0°C 65% 6.6 mph N10.6 kmh N 9.9 mph15.9 kmh 29.59 in1002.0 mb 0.00 in0.0 mm 0.00 in/hr0.0 mm/hr 0.00 in0.0 mm
12:57 PM 50.4°F10.2°C 39.4°F4.1°C 66% 6.9 mph N11.1 kmh N 9.9 mph15.9 kmh 29.59 in1002.0 mb 0.00 in0.0 mm 0.00 in/hr0.0 mm/hr 0.00 in0.0 mm
12:56 PM 50.4°F10.2°C 39.4°F4.1°C 66% 6.7 mph N10.8 kmh N 9.9 mph15.9 kmh 29.59 in1002.0 mb 0.00 in0.0 mm 0.00 in/hr0.0 mm/hr 0.00 in0.0 mm
12:55 PM 50.2°F10.1°C 39.3°F4.1°C 66% 6.3 mph N10.1 kmh N 9.9 mph15.9 kmh 29.59 in1002.0 mb 0.00 in0.0 mm 0.00 in/hr0.0 mm/hr 0.00 in0.0 mm
12:54 PM 50.2°F10.1°C 39.3°F4.1°C 66% 5.8 mph N9.3 kmh N 8.3 mph13.4 kmh 29.59 in1002.0 mb 0.00 in0.0 mm 0.00 in/hr0.0 mm/hr 0.00 in0.0 mm
12:53 PM 50.0°F10.0°C 39.5°F4.2°C 67% 5.9 mph N9.5 kmh N 9.1 mph14.6 kmh 29.59 in1002.0 mb 0.00 in0.0 mm 0.00 in/hr0.0 mm/hr 0.00 in0.0 mm
12:52 PM 50.0°F10.0°C 39.5°F4.2°C 67% 6.1 mph NNE9.8 kmh NNE 9.1 mph14.6 kmh 29.60 in1002.4 mb 0.00 in0.0 mm 0.00 in/hr0.0 mm/hr 0.00 in0.0 mm
12:51 PM 49.8°F9.9°C 39.7°F4.3°C 68% 6.1 mph NNE9.8 kmh NNE 9.1 mph14.6 kmh 29.60 in1002.4 mb 0.00 in0.0 mm 0.00 in/hr0.0 mm/hr 0.00 in0.0 mm
12:50 PM 49.6°F9.8°C 39.5°F4.2°C 68% 6.2 mph N10.0 kmh N 9.1 mph14.6 kmh 29.60 in1002.4 mb 0.00 in0.0 mm 0.00 in/hr0.0 mm/hr 0.00 in0.0 mm
12:49 PM 49.5°F9.7°C 39.3°F4.1°C 68% 6.2 mph N10.0 kmh N 9.1 mph14.6 kmh 29.59 in1002.0 mb 0.00 in0.0 mm 0.00 in/hr0.0 mm/hr 0.00 in0.0 mm
12:48 PM 49.5°F9.7°C 39.3°F4.1°C 68% 6.7 mph N10.8 kmh N 12.9 mph20.8 kmh 29.60 in1002.4 mb 0.00 in0.0 mm 0.00 in/hr0.0 mm/hr 0.00 in0.0 mm
12:47 PM 49.3°F9.6°C 39.2°F4.0°C 68% 6.9 mph N11.1 kmh N 12.9 mph20.8 kmh 29.60 in1002.4 mb 0.00 in0.0 mm 0.00 in/hr0.0 mm/hr 0.00 in0.0 mm
12:46 PM 49.1°F9.5°C 39.0°F3.9°C 68% 7.2 mph NNE11.6 kmh NNE 12.9 mph20.8 kmh 29.60 in1002.4 mb 0.00 in0.0 mm 0.00 in/hr0.0 mm/hr 0.00 in0.0 mm
12:45 PM 49.1°F9.5°C 39.0°F3.9°C 68% 7.7 mph NE12.4 kmh NE 12.9 mph20.8 kmh 29.60 in1002.4 mb 0.00 in0.0 mm 0.00 in/hr0.0 mm/hr 0.00 in0.0 mm
12:44 PM 49.1°F9.5°C 39.0°F3.9°C 68% 7.9 mph NNE12.7 kmh NNE 12.9 mph20.8 kmh 29.59 in1002.0 mb 0.00 in0.0 mm 0.00 in/hr0.0 mm/hr 0.00 in0.0 mm
12:43 PM 49.1°F9.5°C 39.0°F3.9°C 68% 7.6 mph NNE12.2 kmh NNE 12.9 mph20.8 kmh 29.59 in1002.0 mb 0.00 in0.0 mm 0.00 in/hr0.0 mm/hr 0.00 in0.0 mm
12:42 PM 49.1°F9.5°C 39.4°F4.1°C 69% 6.9 mph N11.1 kmh N 12.9 mph20.8 kmh 29.59 in1002.0 mb 0.00 in0.0 mm 0.00 in/hr0.0 mm/hr 0.00 in0.0 mm
12:41 PM 48.9°F9.4°C 39.2°F4.0°C 69% 7.0 mph NNE11.3 kmh NNE 12.9 mph20.8 kmh 29.60 in1002.4 mb 0.00 in0.0 mm 0.00 in/hr0.0 mm/hr 0.00 in0.0 mm
12:40 PM 48.9°F9.4°C 39.2°F4.0°C 69% 7.7 mph NNE12.4 kmh NNE 12.9 mph20.8 kmh 29.59 in1002.0 mb 0.00 in0.0 mm 0.00 in/hr0.0 mm/hr 0.00 in0.0 mm
12:39 PM 48.7°F9.3°C 38.7°F3.7°C 68% 7.6 mph NE12.2 kmh NE 12.9 mph20.8 kmh 29.59 in1002.0 mb 0.00 in0.0 mm 0.00 in/hr0.0 mm/hr 0.00 in0.0 mm
12:38 PM 48.7°F9.3°C 39.0°F3.9°C 69% 7.0 mph NE11.3 kmh NE 11.8 mph19.0 kmh 29.59 in1002.0 mb 0.00 in0.0 mm 0.00 in/hr0.0 mm/hr 0.00 in0.0 mm
12:37 PM 48.7°F9.3°C 38.7°F3.7°C 68% 6.3 mph NE10.1 kmh NE 11.0 mph17.7 kmh 29.59 in1002.0 mb 0.00 in0.0 mm 0.00 in/hr0.0 mm/hr 0.00 in0.0 mm
12:36 PM 48.7°F9.3°C 38.7°F3.7°C 68% 5.8 mph NE9.3 kmh NE 11.0 mph17.7 kmh 29.59 in1002.0 mb 0.00 in0.0 mm 0.00 in/hr0.0 mm/hr 0.00 in0.0 mm
12:35 PM 48.7°F9.3°C 38.7°F3.7°C 68% 5.2 mph NE8.4 kmh NE 11.0 mph17.7 kmh 29.60 in1002.4 mb 0.00 in0.0 mm 0.00 in/hr0.0 mm/hr 0.00 in0.0 mm
12:34 PM 48.7°F9.3°C 38.7°F3.7°C 68% 5.1 mph ENE8.2 kmh ENE 11.0 mph17.7 kmh 29.60 in1002.4 mb 0.00 in0.0 mm 0.00 in/hr0.0 mm/hr 0.00 in0.0 mm
12:33 PM 48.7°F9.3°C 39.0°F3.9°C 69% 5.6 mph E9.0 kmh E 11.0 mph17.7 kmh 29.59 in1002.0 mb 0.00 in0.0 mm 0.00 in/hr0.0 mm/hr 0.00 in0.0 mm
12:32 PM 48.7°F9.3°C 39.0°F3.9°C 69% 6.0 mph E9.7 kmh E 11.0 mph17.7 kmh 29.59 in1002.0 mb 0.00 in0.0 mm 0.00 in/hr0.0 mm/hr 0.00 in0.0 mm
12:31 PM 48.7°F9.3°C 39.0°F3.9°C 69% 5.9 mph E9.5 kmh E 11.0 mph17.7 kmh 29.59 in1002.0 mb 0.00 in0.0 mm 0.00 in/hr0.0 mm/hr 0.00 in0.0 mm
12:30 PM 48.7°F9.3°C 39.4°F4.1°C 70% 5.4 mph E8.7 kmh E 9.1 mph14.6 kmh 29.60 in1002.4 mb 0.00 in0.0 mm 0.00 in/hr0.0 mm/hr 0.00 in0.0 mm
12:29 PM 48.7°F9.3°C 39.4°F4.1°C 70% 5.5 mph E8.9 kmh E 9.1 mph14.6 kmh 29.59 in1002.0 mb 0.00 in0.0 mm 0.00 in/hr0.0 mm/hr 0.00 in0.0 mm
12:28 PM 48.6°F9.2°C 38.9°F3.8°C 69% 5.7 mph E9.2 kmh E 9.1 mph14.6 kmh 29.59 in1002.0 mb 0.00 in0.0 mm 0.00 in/hr0.0 mm/hr 0.00 in0.0 mm
12:27 PM 48.6°F9.2°C 39.2°F4.0°C 70% 6.1 mph ENE9.8 kmh ENE 9.1 mph14.6 kmh 29.59 in1002.0 mb 0.00 in0.0 mm 0.00 in/hr0.0 mm/hr 0.00 in0.0 mm
12:26 PM 48.6°F9.2°C 38.9°F3.8°C 69% 6.4 mph NE10.3 kmh NE 9.1 mph14.6 kmh 29.60 in1002.4 mb 0.00 in0.0 mm 0.00 in/hr0.0 mm/hr 0.00 in0.0 mm
12:25 PM 48.4°F9.1°C 38.7°F3.7°C 69% 6.8 mph ENE10.9 kmh ENE 9.1 mph14.6 kmh 29.59 in1002.0 mb 0.00 in0.0 mm 0.00 in/hr0.0 mm/hr 0.00 in0.0 mm
12:24 PM 48.4°F9.1°C 38.7°F3.7°C 69% 6.6 mph NE10.6 kmh NE 9.1 mph14.6 kmh 29.59 in1002.0 mb 0.00 in0.0 mm 0.00 in/hr0.0 mm/hr 0.00 in0.0 mm
12:23 PM 48.4°F9.1°C 38.7°F3.7°C 69% 6.1 mph NE9.8 kmh NE 9.1 mph14.6 kmh 29.60 in1002.4 mb 0.00 in0.0 mm 0.00 in/hr0.0 mm/hr 0.00 in0.0 mm
12:22 PM 48.4°F9.1°C 39.1°F3.9°C 70% 5.9 mph NE9.5 kmh NE 7.2 mph11.6 kmh 29.59 in1002.0 mb 0.00 in0.0 mm 0.00 in/hr0.0 mm/hr 0.00 in0.0 mm
12:21 PM 48.4°F9.1°C 39.4°F4.1°C 71% 6.0 mph NE9.7 kmh NE 7.2 mph11.6 kmh 29.60 in1002.4 mb 0.00 in0.0 mm 0.00 in/hr0.0 mm/hr 0.00 in0.0 mm
12:20 PM 48.4°F9.1°C 39.1°F3.9°C 70% 6.1 mph NE9.8 kmh NE 7.2 mph11.6 kmh 29.59 in1002.0 mb 0.00 in0.0 mm 0.00 in/hr0.0 mm/hr 0.00 in0.0 mm
12:19 PM 48.2°F9.0°C 38.9°F3.8°C 70% 6.1 mph N9.8 kmh N 7.2 mph11.6 kmh 29.60 in1002.4 mb 0.00 in0.0 mm 0.00 in/hr0.0 mm/hr 0.00 in0.0 mm
12:18 PM 48.4°F9.1°C 39.1°F3.9°C 70% 6.0 mph NNE9.7 kmh NNE 7.2 mph11.6 kmh 29.59 in1002.0 mb 0.00 in0.0 mm 0.00 in/hr0.0 mm/hr 0.00 in0.0 mm
12:17 PM 48.4°F9.1°C 39.1°F3.9°C 70% 5.7 mph NNE9.2 kmh NNE 7.2 mph11.6 kmh 29.60 in1002.4 mb 0.00 in0.0 mm 0.00 in/hr0.0 mm/hr 0.00 in0.0 mm
12:16 PM 48.4°F9.1°C 39.4°F4.1°C 71% 5.5 mph NNE8.9 kmh NNE 7.2 mph11.6 kmh 29.59 in1002.0 mb 0.00 in0.0 mm 0.00 in/hr0.0 mm/hr 0.00 in0.0 mm
12:15 PM 48.4°F9.1°C 39.4°F4.1°C 71% 5.3 mph NNE8.5 kmh NNE 7.2 mph11.6 kmh 29.59 in1002.0 mb 0.00 in0.0 mm 0.00 in/hr0.0 mm/hr 0.00 in0.0 mm
12:14 PM 48.2°F9.0°C 38.9°F3.8°C 70% 5.7 mph N9.2 kmh N 9.1 mph14.6 kmh 29.59 in1002.0 mb 0.00 in0.0 mm 0.00 in/hr0.0 mm/hr 0.00 in0.0 mm
12:13 PM 48.2°F9.0°C 39.2°F4.0°C 71% 5.9 mph N9.5 kmh N 9.1 mph14.6 kmh 29.59 in1002.0 mb 0.00 in0.0 mm 0.00 in/hr0.0 mm/hr 0.00 in0.0 mm
12:12 PM 48.2°F9.0°C 39.2°F4.0°C 71% 6.2 mph N10.0 kmh N 9.1 mph14.6 kmh 29.59 in1002.0 mb 0.00 in0.0 mm 0.00 in/hr0.0 mm/hr 0.00 in0.0 mm
12:11 PM 48.2°F9.0°C 39.2°F4.0°C 71% 6.5 mph N10.5 kmh N 9.1 mph14.6 kmh 29.59 in1002.0 mb 0.00 in0.0 mm 0.00 in/hr0.0 mm/hr 0.00 in0.0 mm
12:10 PM 48.0°F8.9°C 39.1°F3.9°C 71% 6.4 mph NNW10.3 kmh NNW 9.1 mph14.6 kmh 29.59 in1002.0 mb 0.00 in0.0 mm 0.00 in/hr0.0 mm/hr 0.00 in0.0 mm
12:09 PM 48.0°F8.9°C 39.1°F3.9°C 71% 6.3 mph N10.1 kmh N 9.1 mph14.6 kmh 29.59 in1002.0 mb 0.00 in0.0 mm 0.00 in/hr0.0 mm/hr 0.00 in0.0 mm
12:08 PM 48.0°F8.9°C 39.1°F3.9°C 71% 6.3 mph N10.1 kmh N 9.1 mph14.6 kmh 29.59 in1002.0 mb 0.00 in0.0 mm 0.00 in/hr0.0 mm/hr 0.00 in0.0 mm
12:07 PM 48.2°F9.0°C 39.2°F4.0°C 71% 6.9 mph NNW11.1 kmh NNW 11.0 mph17.7 kmh 29.59 in1002.0 mb 0.00 in0.0 mm 0.00 in/hr0.0 mm/hr 0.00 in0.0 mm
12:06 PM 48.0°F8.9°C 39.1°F3.9°C 71% 7.1 mph NNW11.4 kmh NNW 11.0 mph17.7 kmh 29.59 in1002.0 mb 0.00 in0.0 mm 0.00 in/hr0.0 mm/hr 0.00 in0.0 mm
12:05 PM 48.2°F9.0°C 38.9°F3.8°C 70% 7.3 mph NNW11.7 kmh NNW 11.0 mph17.7 kmh 29.59 in1002.0 mb 0.00 in0.0 mm 0.00 in/hr0.0 mm/hr 0.00 in0.0 mm
12:04 PM 48.0°F8.9°C 39.1°F3.9°C 71% 6.8 mph N10.9 kmh N 11.0 mph17.7 kmh 29.59 in1002.0 mb 0.00 in0.0 mm 0.00 in/hr0.0 mm/hr 0.00 in0.0 mm
12:03 PM 48.2°F9.0°C 38.9°F3.8°C 70% 6.5 mph N10.5 kmh N 11.0 mph17.7 kmh 29.59 in1002.0 mb 0.00 in0.0 mm 0.00 in/hr0.0 mm/hr 0.00 in0.0 mm
12:02 PM 48.4°F9.1°C 39.1°F3.9°C 70% 6.2 mph N10.0 kmh N 11.0 mph17.7 kmh 29.59 in1002.0 mb 0.00 in0.0 mm 0.00 in/hr0.0 mm/hr 0.00 in0.0 mm
12:01 PM 48.6°F9.2°C 39.2°F4.0°C 70% 5.5 mph N8.9 kmh N 11.0 mph17.7 kmh 29.59 in1002.0 mb 0.00 in0.0 mm 0.00 in/hr0.0 mm/hr 0.00 in0.0 mm
12:00 PM 48.6°F9.2°C 39.2°F4.0°C 70% 5.4 mph N8.7 kmh N 11.0 mph17.7 kmh 29.60 in1002.4 mb 0.00 in0.0 mm 0.00 in/hr0.0 mm/hr 0.00 in0.0 mm
11:59 AM 48.6°F9.2°C 38.9°F3.8°C 69% 5.2 mph N8.4 kmh N 11.0 mph17.7 kmh 29.59 in1002.0 mb 0.00 in0.0 mm 0.00 in/hr0.0 mm/hr 0.00 in0.0 mm
11:58 AM 48.7°F9.3°C 39.4°F4.1°C 70% 5.1 mph N8.2 kmh N 11.0 mph17.7 kmh 29.59 in1002.0 mb 0.00 in0.0 mm 0.00 in/hr0.0 mm/hr 0.00 in0.0 mm
11:57 AM 48.9°F9.4°C 39.2°F4.0°C 69% 4.5 mph N7.2 kmh N 7.2 mph11.6 kmh 29.59 in1002.0 mb 0.00 in0.0 mm 0.00 in/hr0.0 mm/hr 0.00 in0.0 mm
11:56 AM 48.9°F9.4°C 39.2°F4.0°C 69% 4.4 mph NNE7.1 kmh NNE 7.2 mph11.6 kmh 29.59 in1002.0 mb 0.00 in0.0 mm 0.00 in/hr0.0 mm/hr 0.00 in0.0 mm
11:55 AM 49.1°F9.5°C 39.4°F4.1°C 69% 4.3 mph NE6.9 kmh NE 5.4 mph8.7 kmh 29.59 in1002.0 mb 0.00 in0.0 mm 0.00 in/hr0.0 mm/hr 0.00 in0.0 mm
11:54 AM 49.3°F9.6°C 39.6°F4.2°C 69% 4.5 mph NE7.2 kmh NE 7.2 mph11.6 kmh 29.59 in1002.0 mb 0.00 in0.0 mm 0.00 in/hr0.0 mm/hr 0.00 in0.0 mm
11:53 AM 49.3°F9.6°C 39.6°F4.2°C 69% 4.7 mph NE7.6 kmh NE 7.2 mph11.6 kmh 29.59 in1002.0 mb 0.00 in0.0 mm 0.00 in/hr0.0 mm/hr 0.00 in0.0 mm
11:52 AM 49.5°F9.7°C 39.7°F4.3°C 69% 4.8 mph NE7.7 kmh NE 7.2 mph11.6 kmh 29.59 in1002.0 mb 0.00 in0.0 mm 0.00 in/hr0.0 mm/hr 0.00 in0.0 mm
11:51 AM 49.5°F9.7°C 39.3°F4.1°C 68% 4.9 mph NE7.9 kmh NE 7.2 mph11.6 kmh 29.59 in1002.0 mb 0.00 in0.0 mm 0.00 in/hr0.0 mm/hr 0.00 in0.0 mm
11:50 AM 49.6°F9.8°C 39.9°F4.4°C 69% 5.1 mph ENE8.2 kmh ENE 7.2 mph11.6 kmh 29.59 in1002.0 mb 0.00 in0.0 mm 0.00 in/hr0.0 mm/hr 0.00 in0.0 mm
11:49 AM 49.6°F9.8°C 39.9°F4.4°C 69% 5.2 mph ENE8.4 kmh ENE 9.1 mph14.6 kmh 29.59 in1002.0 mb 0.00 in0.0 mm 0.00 in/hr0.0 mm/hr 0.00 in0.0 mm
11:48 AM 49.6°F9.8°C 39.9°F4.4°C 69% 5.2 mph ENE8.4 kmh ENE 9.1 mph14.6 kmh 29.59 in1002.0 mb 0.00 in0.0 mm 0.00 in/hr0.0 mm/hr 0.00 in0.0 mm
11:47 AM 49.6°F9.8°C 39.9°F4.4°C 69% 5.2 mph NE8.4 kmh NE 9.1 mph14.6 kmh 29.59 in1002.0 mb 0.00 in0.0 mm 0.00 in/hr0.0 mm/hr 0.00 in0.0 mm
11:46 AM 49.8°F9.9°C 39.7°F4.3°C 68% 5.3 mph NE8.5 kmh NE 9.1 mph14.6 kmh 29.59 in1002.0 mb 0.00 in0.0 mm 0.00 in/hr0.0 mm/hr 0.00 in0.0 mm
11:45 AM 49.8°F9.9°C 39.7°F4.3°C 68% 5.4 mph NNE8.7 kmh NNE 9.1 mph14.6 kmh 29.59 in1002.0 mb 0.00 in0.0 mm 0.00 in/hr0.0 mm/hr 0.00 in0.0 mm
11:44 AM 49.8°F9.9°C 39.7°F4.3°C 68% 5.3 mph N8.5 kmh N 9.1 mph14.6 kmh 29.59 in1002.0 mb 0.00 in0.0 mm 0.00 in/hr0.0 mm/hr 0.00 in0.0 mm
11:43 AM 49.8°F9.9°C 40.4°F4.7°C 70% 5.4 mph NNE8.7 kmh NNE 9.1 mph14.6 kmh 29.59 in1002.0 mb 0.00 in0.0 mm 0.00 in/hr0.0 mm/hr 0.00 in0.0 mm
11:42 AM 49.8°F9.9°C 39.7°F4.3°C 68% 5.6 mph E9.0 kmh E 9.1 mph14.6 kmh 29.59 in1002.0 mb 0.00 in0.0 mm 0.00 in/hr0.0 mm/hr 0.00 in0.0 mm
11:41 AM 49.8°F9.9°C 39.7°F4.3°C 68% 5.8 mph NNE9.3 kmh NNE 9.1 mph14.6 kmh 29.59 in1002.0 mb 0.00 in0.0 mm 0.00 in/hr0.0 mm/hr 0.00 in0.0 mm
11:40 AM 49.8°F9.9°C 39.3°F4.1°C 67% 5.8 mph N9.3 kmh N 9.1 mph14.6 kmh 29.58 in1001.7 mb 0.00 in0.0 mm 0.00 in/hr0.0 mm/hr 0.00 in0.0 mm
11:39 AM 49.8°F9.9°C 39.3°F4.1°C 67% 5.7 mph NNW9.2 kmh NNW 9.1 mph14.6 kmh 29.58 in1001.7 mb 0.00 in0.0 mm 0.00 in/hr0.0 mm/hr 0.00 in0.0 mm
11:38 AM 50.0°F10.0°C 40.2°F4.6°C 69% 5.9 mph NNW9.5 kmh NNW 9.1 mph14.6 kmh 29.59 in1002.0 mb 0.00 in0.0 mm 0.00 in/hr0.0 mm/hr 0.00 in0.0 mm
11:37 AM 50.0°F10.0°C 40.2°F4.6°C 69% 5.8 mph NNW9.3 kmh NNW 9.1 mph14.6 kmh 29.59 in1002.0 mb 0.00 in0.0 mm 0.00 in/hr0.0 mm/hr 0.00 in0.0 mm
11:36 AM 50.0°F10.0°C 40.2°F4.6°C 69% 5.6 mph N9.0 kmh N 9.1 mph14.6 kmh 29.58 in1001.7 mb 0.00 in0.0 mm 0.00 in/hr0.0 mm/hr 0.00 in0.0 mm
11:35 AM 50.0°F10.0°C 39.9°F4.4°C 68% 5.6 mph NE9.0 kmh NE 9.1 mph14.6 kmh 29.59 in1002.0 mb 0.00 in0.0 mm 0.00 in/hr0.0 mm/hr 0.00 in0.0 mm
11:34 AM 50.0°F10.0°C 39.9°F4.4°C 68% 5.6 mph ESE9.0 kmh ESE 7.2 mph11.6 kmh 29.59 in1002.0 mb 0.00 in0.0 mm 0.00 in/hr0.0 mm/hr 0.00 in0.0 mm
11:33 AM 50.2°F10.1°C 39.7°F4.3°C 67% 5.3 mph ENE8.5 kmh ENE 7.2 mph11.6 kmh 29.59 in1002.0 mb 0.00 in0.0 mm 0.00 in/hr0.0 mm/hr 0.00 in0.0 mm
11:32 AM 50.2°F10.1°C 39.7°F4.3°C 67% 5.0 mph NE8.0 kmh NE 6.4 mph10.3 kmh 29.59 in1002.0 mb 0.00 in0.0 mm 0.00 in/hr0.0 mm/hr 0.00 in0.0 mm
11:31 AM 50.4°F10.2°C 39.1°F3.9°C 65% 5.0 mph NNE8.0 kmh NNE 6.4 mph10.3 kmh 29.59 in1002.0 mb 0.00 in0.0 mm 0.00 in/hr0.0 mm/hr 0.00 in0.0 mm
11:30 AM 50.4°F10.2°C 39.1°F3.9°C 65% 5.2 mph E8.4 kmh E 9.1 mph14.6 kmh 29.58 in1001.7 mb 0.00 in0.0 mm 0.00 in/hr0.0 mm/hr 0.00 in0.0 mm
11:29 AM 50.4°F10.2°C 39.1°F3.9°C 65% 5.3 mph NE8.5 kmh NE 9.1 mph14.6 kmh 29.58 in1001.7 mb 0.00 in0.0 mm 0.00 in/hr0.0 mm/hr 0.00 in0.0 mm
11:28 AM 50.5°F10.3°C 39.2°F4.0°C 65% 5.3 mph ENE8.5 kmh ENE 9.1 mph14.6 kmh 29.59 in1002.0 mb 0.00 in0.0 mm 0.00 in/hr0.0 mm/hr 0.00 in0.0 mm
11:27 AM 50.5°F10.3°C 39.2°F4.0°C 65% 5.4 mph E8.7 kmh E 9.1 mph14.6 kmh 29.59 in1002.0 mb 0.00 in0.0 mm 0.00 in/hr0.0 mm/hr 0.00 in0.0 mm
11:26 AM 50.5°F10.3°C 39.2°F4.0°C 65% 5.5 mph E8.9 kmh E 9.1 mph14.6 kmh 29.59 in1002.0 mb 0.00 in0.0 mm 0.00 in/hr0.0 mm/hr 0.00 in0.0 mm
11:25 AM 50.5°F10.3°C 39.2°F4.0°C 65% 5.7 mph ESE9.2 kmh ESE 9.1 mph14.6 kmh 29.59 in1002.0 mb 0.00 in0.0 mm 0.00 in/hr0.0 mm/hr 0.00 in0.0 mm
11:24 AM 50.7°F10.4°C 39.0°F3.9°C 64% 6.1 mph NE9.8 kmh NE 9.9 mph15.9 kmh 29.59 in1002.0 mb 0.00 in0.0 mm 0.00 in/hr0.0 mm/hr 0.00 in0.0 mm
11:23 AM 50.7°F10.4°C 38.6°F3.7°C 63% 6.5 mph NNE10.5 kmh NNE 9.9 mph15.9 kmh 29.59 in1002.0 mb 0.00 in0.0 mm 0.00 in/hr0.0 mm/hr 0.00 in0.0 mm
11:22 AM 50.7°F10.4°C 38.6°F3.7°C 63% 6.7 mph NNE10.8 kmh NNE 9.9 mph15.9 kmh 29.59 in1002.0 mb 0.00 in0.0 mm 0.00 in/hr0.0 mm/hr 0.00 in0.0 mm
11:21 AM 50.9°F10.5°C 38.4°F3.6°C 62% 6.9 mph NE11.1 kmh NE 9.9 mph15.9 kmh 29.58 in1001.7 mb 0.00 in0.0 mm 0.00 in/hr0.0 mm/hr 0.00 in0.0 mm
11:20 AM 50.9°F10.5°C 38.8°F3.8°C 63% 7.6 mph NE12.2 kmh NE 17.4 mph28.0 kmh 29.58 in1001.7 mb 0.00 in0.0 mm 0.00 in/hr0.0 mm/hr 0.00 in0.0 mm
11:19 AM 50.9°F10.5°C 39.6°F4.2°C 65% 7.6 mph ENE12.2 kmh ENE 17.4 mph28.0 kmh 29.58 in1001.7 mb 0.00 in0.0 mm 0.00 in/hr0.0 mm/hr 0.00 in0.0 mm
11:18 AM 50.7°F10.4°C 39.4°F4.1°C 65% 7.6 mph NE12.2 kmh NE 17.4 mph28.0 kmh 29.58 in1001.7 mb 0.00 in0.0 mm 0.00 in/hr0.0 mm/hr 0.00 in0.0 mm
11:17 AM 50.7°F10.4°C 39.4°F4.1°C 65% 7.7 mph NE12.4 kmh NE 17.4 mph28.0 kmh 29.59 in1002.0 mb 0.00 in0.0 mm 0.00 in/hr0.0 mm/hr 0.00 in0.0 mm
11:16 AM 50.7°F10.4°C 39.4°F4.1°C 65% 8.0 mph NE12.9 kmh NE 17.4 mph28.0 kmh 29.58 in1001.7 mb 0.00 in0.0 mm 0.00 in/hr0.0 mm/hr 0.00 in0.0 mm
11:15 AM 50.5°F10.3°C 39.2°F4.0°C 65% 7.8 mph NE12.6 kmh NE 17.4 mph28.0 kmh 29.58 in1001.7 mb 0.00 in0.0 mm 0.00 in/hr0.0 mm/hr 0.00 in0.0 mm
11:14 AM 50.5°F10.3°C 39.6°F4.2°C 66% 7.6 mph NE12.2 kmh NE 17.4 mph28.0 kmh 29.58 in1001.7 mb 0.00 in0.0 mm 0.00 in/hr0.0 mm/hr 0.00 in0.0 mm
11:13 AM 50.5°F10.3°C 39.6°F4.2°C 66% 7.8 mph NE12.6 kmh NE 17.4 mph28.0 kmh 29.59 in1002.0 mb 0.00 in0.0 mm 0.00 in/hr0.0 mm/hr 0.00 in0.0 mm
11:12 AM 50.5°F10.3°C 39.6°F4.2°C 66% 8.1 mph ENE13.0 kmh ENE 17.4 mph28.0 kmh 29.58 in1001.7 mb 0.00 in0.0 mm 0.00 in/hr0.0 mm/hr 0.00 in0.0 mm
11:11 AM 50.2°F10.1°C 39.3°F4.1°C 66% 7.8 mph ENE12.6 kmh ENE 17.4 mph28.0 kmh 29.58 in1001.7 mb 0.00 in0.0 mm 0.00 in/hr0.0 mm/hr 0.00 in0.0 mm
11:10 AM 50.2°F10.1°C 40.0°F4.4°C 68% 6.3 mph NE10.1 kmh NE 9.1 mph14.6 kmh 29.58 in1001.7 mb 0.00 in0.0 mm 0.00 in/hr0.0 mm/hr 0.00 in0.0 mm
11:09 AM 50.0°F10.0°C 39.9°F4.4°C 68% 6.1 mph NE9.8 kmh NE 9.1 mph14.6 kmh 29.59 in1002.0 mb 0.00 in0.0 mm 0.00 in/hr0.0 mm/hr 0.00 in0.0 mm
11:08 AM 49.8°F9.9°C 39.3°F4.1°C 67% 6.8 mph E10.9 kmh E 11.0 mph17.7 kmh 29.58 in1001.7 mb 0.00 in0.0 mm 0.00 in/hr0.0 mm/hr 0.00 in0.0 mm
11:07 AM 49.8°F9.9°C 38.9°F3.8°C 66% 6.7 mph E10.8 kmh E 11.0 mph17.7 kmh 29.58 in1001.7 mb 0.00 in0.0 mm 0.00 in/hr0.0 mm/hr 0.00 in0.0 mm
11:06 AM 49.6°F9.8°C 38.8°F3.8°C 66% 6.5 mph ESE10.5 kmh ESE 11.0 mph17.7 kmh 29.59 in1002.0 mb 0.00 in0.0 mm 0.00 in/hr0.0 mm/hr 0.00 in0.0 mm
11:05 AM 49.6°F9.8°C 38.8°F3.8°C 66% 6.1 mph ESE9.8 kmh ESE 11.0 mph17.7 kmh 29.58 in1001.7 mb 0.00 in0.0 mm 0.00 in/hr0.0 mm/hr 0.00 in0.0 mm
11:04 AM 49.6°F9.8°C 38.8°F3.8°C 66% 5.9 mph ESE9.5 kmh ESE 11.0 mph17.7 kmh 29.59 in1002.0 mb 0.00 in0.0 mm 0.00 in/hr0.0 mm/hr 0.00 in0.0 mm
11:03 AM 49.8°F9.9°C 38.9°F3.8°C 66% 5.7 mph SE9.2 kmh SE 11.0 mph17.7 kmh 29.58 in1001.7 mb 0.00 in0.0 mm 0.00 in/hr0.0 mm/hr 0.00 in0.0 mm
11:02 AM 49.8°F9.9°C 38.9°F3.8°C 66% 5.6 mph SE9.0 kmh SE 11.0 mph17.7 kmh 29.59 in1002.0 mb 0.00 in0.0 mm 0.00 in/hr0.0 mm/hr 0.00 in0.0 mm
11:01 AM 49.8°F9.9°C 38.9°F3.8°C 66% 5.7 mph SE9.2 kmh SE 11.0 mph17.7 kmh 29.59 in1002.0 mb 0.00 in0.0 mm 0.00 in/hr0.0 mm/hr 0.00 in0.0 mm
11:00 AM 49.8°F9.9°C 38.9°F3.8°C 66% 6.0 mph SE9.7 kmh SE 11.0 mph17.7 kmh 29.59 in1002.0 mb 0.00 in0.0 mm 0.00 in/hr0.0 mm/hr 0.00 in0.0 mm
10:59 AM 49.8°F9.9°C 39.3°F4.1°C 67% 6.3 mph SSE10.1 kmh SSE 11.0 mph17.7 kmh 29.58 in1001.7 mb 0.00 in0.0 mm 0.00 in/hr0.0 mm/hr 0.00 in0.0 mm
10:58 AM 49.8°F9.9°C 39.3°F4.1°C 67% 5.8 mph S9.3 kmh S 8.3 mph13.4 kmh 29.58 in1001.7 mb 0.00 in0.0 mm 0.00 in/hr0.0 mm/hr 0.00 in0.0 mm
10:57 AM 49.8°F9.9°C 39.7°F4.3°C 68% 5.7 mph S9.2 kmh S 8.3 mph13.4 kmh 29.58 in1001.7 mb 0.00 in0.0 mm 0.00 in/hr0.0 mm/hr 0.00 in0.0 mm
10:56 AM 49.6°F9.8°C 39.1°F3.9°C 67% 5.7 mph S9.2 kmh S 8.3 mph13.4 kmh 29.58 in1001.7 mb 0.00 in0.0 mm 0.00 in/hr0.0 mm/hr 0.00 in0.0 mm
10:55 AM 49.6°F9.8°C 39.1°F3.9°C 67% 5.8 mph S9.3 kmh S 8.3 mph13.4 kmh 29.59 in1002.0 mb 0.00 in0.0 mm 0.00 in/hr0.0 mm/hr 0.00 in0.0 mm
10:54 AM 49.6°F9.8°C 39.1°F3.9°C 67% 5.8 mph S9.3 kmh S 8.3 mph13.4 kmh 29.58 in1001.7 mb 0.00 in0.0 mm 0.00 in/hr0.0 mm/hr 0.00 in0.0 mm
10:53 AM 49.6°F9.8°C 39.1°F3.9°C 67% 5.2 mph SSE8.4 kmh SSE 8.3 mph13.4 kmh 29.58 in1001.7 mb 0.00 in0.0 mm 0.00 in/hr0.0 mm/hr 0.00 in0.0 mm
10:52 AM 49.6°F9.8°C 39.1°F3.9°C 67% 5.0 mph SSE8.0 kmh SSE 8.3 mph13.4 kmh 29.59 in1002.0 mb 0.00 in0.0 mm 0.00 in/hr0.0 mm/hr 0.00 in0.0 mm
10:51 AM 49.6°F9.8°C 39.1°F3.9°C 67% 4.6 mph SSE7.4 kmh SSE 8.3 mph13.4 kmh 29.58 in1001.7 mb 0.00 in0.0 mm 0.00 in/hr0.0 mm/hr 0.00 in0.0 mm
10:50 AM 49.6°F9.8°C 39.5°F4.2°C 68% 4.5 mph SSE7.2 kmh SSE 8.3 mph13.4 kmh 29.58 in1001.7 mb 0.00 in0.0 mm 0.00 in/hr0.0 mm/hr 0.00 in0.0 mm
10:49 AM 49.6°F9.8°C 39.9°F4.4°C 69% 4.3 mph SE6.9 kmh SE 8.3 mph13.4 kmh 29.58 in1001.7 mb 0.00 in0.0 mm 0.00 in/hr0.0 mm/hr 0.00 in0.0 mm
10:48 AM 49.5°F9.7°C 39.3°F4.1°C 68% 3.9 mph SE6.3 kmh SE 4.6 mph7.4 kmh 29.58 in1001.7 mb 0.00 in0.0 mm 0.00 in/hr0.0 mm/hr 0.00 in0.0 mm
10:47 AM 49.3°F9.6°C 39.2°F4.0°C 68% 3.8 mph SE6.1 kmh SE 6.4 mph10.3 kmh 29.59 in1002.0 mb 0.00 in0.0 mm 0.00 in/hr0.0 mm/hr 0.00 in0.0 mm
10:46 AM 49.3°F9.6°C 39.2°F4.0°C 68% 3.8 mph SE6.1 kmh SE 6.4 mph10.3 kmh 29.58 in1001.7 mb 0.00 in0.0 mm 0.00 in/hr0.0 mm/hr 0.00 in0.0 mm
10:45 AM 49.3°F9.6°C 39.2°F4.0°C 68% 3.9 mph SE6.3 kmh SE 6.4 mph10.3 kmh 29.59 in1002.0 mb 0.00 in0.0 mm 0.00 in/hr0.0 mm/hr 0.00 in0.0 mm
10:44 AM 49.3°F9.6°C 39.2°F4.0°C 68% 4.1 mph SE6.6 kmh SE 6.4 mph10.3 kmh 29.59 in1002.0 mb 0.00 in0.0 mm 0.00 in/hr0.0 mm/hr 0.00 in0.0 mm
10:43 AM 49.1°F9.5°C 39.0°F3.9°C 68% 4.2 mph SE6.8 kmh SE 9.9 mph15.9 kmh 29.58 in1001.7 mb 0.00 in0.0 mm 0.00 in/hr0.0 mm/hr 0.00 in0.0 mm
10:42 AM 49.1°F9.5°C 39.4°F4.1°C 69% 4.5 mph E7.2 kmh E 9.9 mph15.9 kmh 29.58 in1001.7 mb 0.00 in0.0 mm 0.00 in/hr0.0 mm/hr 0.00 in0.0 mm
10:41 AM 49.1°F9.5°C 39.4°F4.1°C 69% 4.6 mph W7.4 kmh W 9.9 mph15.9 kmh 29.58 in1001.7 mb 0.00 in0.0 mm 0.00 in/hr0.0 mm/hr 0.00 in0.0 mm
10:40 AM 49.1°F9.5°C 39.0°F3.9°C 68% 4.7 mph NW7.6 kmh NW 9.9 mph15.9 kmh 29.58 in1001.7 mb 0.00 in0.0 mm 0.00 in/hr0.0 mm/hr 0.00 in0.0 mm
10:39 AM 48.9°F9.4°C 38.8°F3.8°C 68% 4.8 mph NW7.7 kmh NW 9.9 mph15.9 kmh 29.58 in1001.7 mb 0.00 in0.0 mm 0.00 in/hr0.0 mm/hr 0.00 in0.0 mm
10:38 AM 48.9°F9.4°C 38.8°F3.8°C 68% 5.1 mph NW8.2 kmh NW 9.9 mph15.9 kmh 29.59 in1002.0 mb 0.00 in0.0 mm 0.00 in/hr0.0 mm/hr 0.00 in0.0 mm
10:37 AM 48.9°F9.4°C 38.5°F3.6°C 67% 5.4 mph NW8.7 kmh NW 9.9 mph15.9 kmh 29.59 in1002.0 mb 0.00 in0.0 mm 0.00 in/hr0.0 mm/hr 0.00 in0.0 mm
10:36 AM 48.9°F9.4°C 38.8°F3.8°C 68% 5.7 mph NW9.2 kmh NW 9.9 mph15.9 kmh 29.59 in1002.0 mb 0.00 in0.0 mm 0.00 in/hr0.0 mm/hr 0.00 in0.0 mm
10:35 AM 48.9°F9.4°C 39.2°F4.0°C 69% 5.5 mph NNW8.9 kmh NNW 9.9 mph15.9 kmh 29.58 in1001.7 mb 0.00 in0.0 mm 0.00 in/hr0.0 mm/hr 0.00 in0.0 mm
10:34 AM 48.9°F9.4°C 39.2°F4.0°C 69% 5.3 mph NW8.5 kmh NW 9.9 mph15.9 kmh 29.58 in1001.7 mb 0.00 in0.0 mm 0.00 in/hr0.0 mm/hr 0.00 in0.0 mm
10:33 AM 48.9°F9.4°C 39.2°F4.0°C 69% 5.5 mph WNW8.9 kmh WNW 9.9 mph15.9 kmh 29.58 in1001.7 mb 0.00 in0.0 mm 0.00 in/hr0.0 mm/hr 0.00 in0.0 mm
10:32 AM 48.9°F9.4°C 39.2°F4.0°C 69% 5.3 mph WNW8.5 kmh WNW 8.3 mph13.4 kmh 29.58 in1001.7 mb 0.00 in0.0 mm 0.00 in/hr0.0 mm/hr 0.00 in0.0 mm
10:31 AM 48.7°F9.3°C 39.0°F3.9°C 69% 5.0 mph NW8.0 kmh NW 8.3 mph13.4 kmh 29.58 in1001.7 mb 0.00 in0.0 mm 0.00 in/hr0.0 mm/hr 0.00 in0.0 mm
10:30 AM 48.7°F9.3°C 39.4°F4.1°C 70% 4.9 mph S7.9 kmh S 8.3 mph13.4 kmh 29.58 in1001.7 mb 0.00 in0.0 mm 0.00 in/hr0.0 mm/hr 0.00 in0.0 mm
10:29 AM 48.7°F9.3°C 39.0°F3.9°C 69% 4.8 mph S7.7 kmh S 8.3 mph13.4 kmh 29.58 in1001.7 mb 0.00 in0.0 mm 0.00 in/hr0.0 mm/hr 0.00 in0.0 mm
10:28 AM 48.7°F9.3°C 38.7°F3.7°C 68% 4.5 mph SE7.2 kmh SE 8.3 mph13.4 kmh 29.58 in1001.7 mb 0.00 in0.0 mm 0.00 in/hr0.0 mm/hr 0.00 in0.0 mm
10:27 AM 48.7°F9.3°C 39.0°F3.9°C 69% 4.6 mph SW7.4 kmh SW 8.3 mph13.4 kmh 29.58 in1001.7 mb 0.00 in0.0 mm 0.00 in/hr0.0 mm/hr 0.00 in0.0 mm
10:26 AM 48.7°F9.3°C 39.0°F3.9°C 69% 4.3 mph NW6.9 kmh NW 6.4 mph10.3 kmh 29.58 in1001.7 mb 0.00 in0.0 mm 0.00 in/hr0.0 mm/hr 0.00 in0.0 mm
10:25 AM 48.7°F9.3°C 39.4°F4.1°C 70% 4.4 mph SE7.1 kmh SE 6.4 mph10.3 kmh 29.58 in1001.7 mb 0.00 in0.0 mm 0.00 in/hr0.0 mm/hr 0.00 in0.0 mm
10:24 AM 48.7°F9.3°C 39.4°F4.1°C 70% 4.7 mph NE7.6 kmh NE 7.2 mph11.6 kmh 29.58 in1001.7 mb 0.00 in0.0 mm 0.00 in/hr0.0 mm/hr 0.00 in0.0 mm
10:23 AM 48.6°F9.2°C 38.9°F3.8°C 69% 5.0 mph N8.0 kmh N 9.1 mph14.6 kmh 29.58 in1001.7 mb 0.00 in0.0 mm 0.00 in/hr0.0 mm/hr 0.00 in0.0 mm
10:22 AM 48.6°F9.2°C 38.9°F3.8°C 69% 5.0 mph NW8.0 kmh NW 9.1 mph14.6 kmh 29.58 in1001.7 mb 0.00 in0.0 mm 0.00 in/hr0.0 mm/hr 0.00 in0.0 mm
10:21 AM 48.6°F9.2°C 38.9°F3.8°C 69% 5.2 mph NW8.4 kmh NW 9.1 mph14.6 kmh 29.58 in1001.7 mb 0.00 in0.0 mm 0.00 in/hr0.0 mm/hr 0.00 in0.0 mm
10:20 AM 48.6°F9.2°C 38.9°F3.8°C 69% 5.1 mph NNW8.2 kmh NNW 9.1 mph14.6 kmh 29.58 in1001.7 mb 0.00 in0.0 mm 0.00 in/hr0.0 mm/hr 0.00 in0.0 mm
10:19 AM 48.6°F9.2°C 38.9°F3.8°C 69% 5.0 mph NNW8.0 kmh NNW 9.1 mph14.6 kmh 29.58 in1001.7 mb 0.00 in0.0 mm 0.00 in/hr0.0 mm/hr 0.00 in0.0 mm
10:18 AM 48.6°F9.2°C 39.2°F4.0°C 70% 5.3 mph NNW8.5 kmh NNW 9.1 mph14.6 kmh 29.58 in1001.7 mb 0.00 in0.0 mm 0.00 in/hr0.0 mm/hr 0.00 in0.0 mm
10:17 AM 48.6°F9.2°C 38.9°F3.8°C 69% 5.1 mph N8.2 kmh N 9.1 mph14.6 kmh 29.58 in1001.7 mb 0.00 in0.0 mm 0.00 in/hr0.0 mm/hr 0.00 in0.0 mm
10:16 AM 48.7°F9.3°C 39.4°F4.1°C 70% 5.1 mph N8.2 kmh N 9.1 mph14.6 kmh 29.58 in1001.7 mb 0.00 in0.0 mm 0.00 in/hr0.0 mm/hr 0.00 in0.0 mm
10:15 AM 48.7°F9.3°C 39.4°F4.1°C 70% 5.0 mph NNW8.0 kmh NNW 9.1 mph14.6 kmh 29.58 in1001.7 mb 0.00 in0.0 mm 0.00 in/hr0.0 mm/hr 0.00 in0.0 mm
10:14 AM 48.7°F9.3°C 39.0°F3.9°C 69% 4.8 mph NNW7.7 kmh NNW 9.1 mph14.6 kmh 29.58 in1001.7 mb 0.00 in0.0 mm 0.00 in/hr0.0 mm/hr 0.00 in0.0 mm
10:13 AM 48.7°F9.3°C 39.0°F3.9°C 69% 4.5 mph N7.2 kmh N 7.2 mph11.6 kmh 29.58 in1001.7 mb 0.00 in0.0 mm 0.00 in/hr0.0 mm/hr 0.00 in0.0 mm
10:12 AM 48.7°F9.3°C 38.7°F3.7°C 68% 4.8 mph NNE7.7 kmh NNE 7.2 mph11.6 kmh 29.58 in1001.7 mb 0.00 in0.0 mm 0.00 in/hr0.0 mm/hr 0.00 in0.0 mm
10:11 AM 48.7°F9.3°C 39.0°F3.9°C 69% 4.5 mph NE7.2 kmh NE 7.2 mph11.6 kmh 29.58 in1001.7 mb 0.00 in0.0 mm 0.00 in/hr0.0 mm/hr 0.00 in0.0 mm
10:10 AM 48.7°F9.3°C 39.0°F3.9°C 69% 4.6 mph E7.4 kmh E 7.2 mph11.6 kmh 29.58 in1001.7 mb 0.00 in0.0 mm 0.00 in/hr0.0 mm/hr 0.00 in0.0 mm
10:09 AM 48.7°F9.3°C 39.0°F3.9°C 69% 4.8 mph ENE7.7 kmh ENE 7.2 mph11.6 kmh 29.59 in1002.0 mb 0.00 in0.0 mm 0.00 in/hr0.0 mm/hr 0.00 in0.0 mm
10:08 AM 48.7°F9.3°C 39.0°F3.9°C 69% 4.6 mph ENE7.4 kmh ENE 6.4 mph10.3 kmh 29.58 in1001.7 mb 0.00 in0.0 mm 0.00 in/hr0.0 mm/hr 0.00 in0.0 mm
10:07 AM 48.9°F9.4°C 39.6°F4.2°C 70% 4.5 mph E7.2 kmh E 6.4 mph10.3 kmh 29.58 in1001.7 mb 0.00 in0.0 mm 0.00 in/hr0.0 mm/hr 0.00 in0.0 mm
10:06 AM 48.9°F9.4°C 39.2°F4.0°C 69% 4.6 mph E7.4 kmh E 6.4 mph10.3 kmh 29.58 in1001.7 mb 0.00 in0.0 mm 0.00 in/hr0.0 mm/hr 0.00 in0.0 mm
10:05 AM 48.9°F9.4°C 39.6°F4.2°C 70% 5.2 mph SSE8.4 kmh SSE 13.7 mph22.0 kmh 29.58 in1001.7 mb 0.00 in0.0 mm 0.00 in/hr0.0 mm/hr 0.00 in0.0 mm
10:04 AM 48.9°F9.4°C 39.6°F4.2°C 70% 5.2 mph SSE8.4 kmh SSE 13.7 mph22.0 kmh 29.58 in1001.7 mb 0.00 in0.0 mm 0.00 in/hr0.0 mm/hr 0.00 in0.0 mm
10:03 AM 48.7°F9.3°C 39.4°F4.1°C 70% 5.2 mph S8.4 kmh S 13.7 mph22.0 kmh 29.58 in1001.7 mb 0.00 in0.0 mm 0.00 in/hr0.0 mm/hr 0.00 in0.0 mm
10:02 AM 48.7°F9.3°C 39.4°F4.1°C 70% 5.0 mph S8.0 kmh S 13.7 mph22.0 kmh 29.58 in1001.7 mb 0.00 in0.0 mm 0.00 in/hr0.0 mm/hr 0.00 in0.0 mm
10:01 AM 48.7°F9.3°C 39.4°F4.1°C 70% 5.0 mph S8.0 kmh S 13.7 mph22.0 kmh 29.58 in1001.7 mb 0.00 in0.0 mm 0.00 in/hr0.0 mm/hr 0.00 in0.0 mm
10:00 AM 48.7°F9.3°C 39.4°F4.1°C 70% 5.1 mph S8.2 kmh S 13.7 mph22.0 kmh 29.58 in1001.7 mb 0.00 in0.0 mm 0.00 in/hr0.0 mm/hr 0.00 in0.0 mm
09:59 AM 48.7°F9.3°C 39.8°F4.3°C 71% 5.0 mph S8.0 kmh S 13.7 mph22.0 kmh 29.58 in1001.7 mb 0.00 in0.0 mm 0.00 in/hr0.0 mm/hr 0.00 in0.0 mm
09:58 AM 48.7°F9.3°C 39.8°F4.3°C 71% 5.2 mph SSW8.4 kmh SSW 13.7 mph22.0 kmh 29.58 in1001.7 mb 0.00 in0.0 mm 0.00 in/hr0.0 mm/hr 0.00 in0.0 mm
09:57 AM 48.6°F9.2°C 39.2°F4.0°C 70% 5.4 mph SSW8.7 kmh SSW 13.7 mph22.0 kmh 29.58 in1001.7 mb 0.00 in0.0 mm 0.00 in/hr0.0 mm/hr 0.00 in0.0 mm
09:56 AM 48.6°F9.2°C 39.2°F4.0°C 70% 5.4 mph SSW8.7 kmh SSW 13.7 mph22.0 kmh 29.58 in1001.7 mb 0.00 in0.0 mm 0.00 in/hr0.0 mm/hr 0.00 in0.0 mm
09:55 AM 48.4°F9.1°C 39.1°F3.9°C 70% 4.8 mph SSW7.7 kmh SSW 13.7 mph22.0 kmh 29.58 in1001.7 mb 0.00 in0.0 mm 0.00 in/hr0.0 mm/hr 0.00 in0.0 mm
09:54 AM 48.4°F9.1°C 39.8°F4.3°C 72% 4.5 mph SW7.2 kmh SW 9.1 mph14.6 kmh 29.57 in1001.4 mb 0.00 in0.0 mm 0.00 in/hr0.0 mm/hr 0.00 in0.0 mm
09:53 AM 48.4°F9.1°C 39.8°F4.3°C 72% 4.4 mph SW7.1 kmh SW 9.1 mph14.6 kmh 29.58 in1001.7 mb 0.00 in0.0 mm 0.00 in/hr0.0 mm/hr 0.00 in0.0 mm
09:52 AM 48.2°F9.0°C 39.2°F4.0°C 71% 4.4 mph W7.1 kmh W 9.1 mph14.6 kmh 29.58 in1001.7 mb 0.00 in0.0 mm 0.00 in/hr0.0 mm/hr 0.00 in0.0 mm
09:51 AM 48.2°F9.0°C 39.2°F4.0°C 71% 4.9 mph NW7.9 kmh NW 11.8 mph19.0 kmh 29.58 in1001.7 mb 0.00 in0.0 mm 0.00 in/hr0.0 mm/hr 0.00 in0.0 mm
09:50 AM 48.2°F9.0°C 39.2°F4.0°C 71% 5.4 mph SSW8.7 kmh SSW 11.8 mph19.0 kmh 29.58 in1001.7 mb 0.00 in0.0 mm 0.00 in/hr0.0 mm/hr 0.00 in0.0 mm
09:49 AM 48.2°F9.0°C 39.2°F4.0°C 71% 5.4 mph N8.7 kmh N 11.8 mph19.0 kmh 29.59 in1002.0 mb 0.00 in0.0 mm 0.00 in/hr0.0 mm/hr 0.00 in0.0 mm
09:48 AM 48.2°F9.0°C 39.6°F4.2°C 72% 4.8 mph NE7.7 kmh NE 11.8 mph19.0 kmh 29.59 in1002.0 mb 0.00 in0.0 mm 0.00 in/hr0.0 mm/hr 0.00 in0.0 mm
09:47 AM 48.2°F9.0°C 39.6°F4.2°C 72% 4.5 mph NE7.2 kmh NE 11.8 mph19.0 kmh 29.58 in1001.7 mb 0.00 in0.0 mm 0.00 in/hr0.0 mm/hr 0.00 in0.0 mm
09:46 AM 48.0°F8.9°C 39.4°F4.1°C 72% 4.7 mph E7.6 kmh E 11.8 mph19.0 kmh 29.58 in1001.7 mb 0.00 in0.0 mm 0.00 in/hr0.0 mm/hr 0.00 in0.0 mm
09:45 AM 48.0°F8.9°C 39.4°F4.1°C 72% 4.7 mph E7.6 kmh E 11.8 mph19.0 kmh 29.59 in1002.0 mb 0.00 in0.0 mm 0.00 in/hr0.0 mm/hr 0.00 in0.0 mm
09:44 AM 48.0°F8.9°C 39.8°F4.3°C 73% 4.7 mph E7.6 kmh E 11.8 mph19.0 kmh 29.59 in1002.0 mb 0.00 in0.0 mm 0.00 in/hr0.0 mm/hr 0.00 in0.0 mm
09:43 AM 48.0°F8.9°C 39.8°F4.3°C 73% 4.7 mph E7.6 kmh E 11.8 mph19.0 kmh 29.59 in1002.0 mb 0.00 in0.0 mm 0.00 in/hr0.0 mm/hr 0.00 in0.0 mm
09:42 AM 48.0°F8.9°C 39.8°F4.3°C 73% 4.8 mph E7.7 kmh E 11.8 mph19.0 kmh 29.59 in1002.0 mb 0.00 in0.0 mm 0.00 in/hr0.0 mm/hr 0.00 in0.0 mm
09:41 AM 48.0°F8.9°C 39.4°F4.1°C 72% 4.4 mph S7.1 kmh S 11.8 mph19.0 kmh 29.59 in1002.0 mb 0.00 in0.0 mm 0.00 in/hr0.0 mm/hr 0.00 in0.0 mm
09:40 AM 48.0°F8.9°C 39.4°F4.1°C 72% 3.9 mph WSW6.3 kmh WSW 6.4 mph10.3 kmh 29.59 in1002.0 mb 0.00 in0.0 mm 0.00 in/hr0.0 mm/hr 0.00 in0.0 mm
09:39 AM 48.0°F8.9°C 39.4°F4.1°C 72% 4.0 mph SW6.4 kmh SW 6.4 mph10.3 kmh 29.59 in1002.0 mb 0.00 in0.0 mm 0.00 in/hr0.0 mm/hr 0.00 in0.0 mm
09:38 AM 48.0°F8.9°C 39.4°F4.1°C 72% 4.3 mph SW6.9 kmh SW 6.4 mph10.3 kmh 29.59 in1002.0 mb 0.00 in0.0 mm 0.00 in/hr0.0 mm/hr 0.00 in0.0 mm
09:37 AM 48.0°F8.9°C 39.4°F4.1°C 72% 4.5 mph WSW7.2 kmh WSW 6.4 mph10.3 kmh 29.59 in1002.0 mb 0.00 in0.0 mm 0.00 in/hr0.0 mm/hr 0.00 in0.0 mm
09:36 AM 48.0°F8.9°C 39.4°F4.1°C 72% 4.4 mph NNE7.1 kmh NNE 6.4 mph10.3 kmh 29.58 in1001.7 mb 0.00 in0.0 mm 0.00 in/hr0.0 mm/hr 0.00 in0.0 mm
09:35 AM 48.0°F8.9°C 39.4°F4.1°C 72% 4.4 mph N7.1 kmh N 7.2 mph11.6 kmh 29.58 in1001.7 mb 0.00 in0.0 mm 0.00 in/hr0.0 mm/hr 0.00 in0.0 mm
09:34 AM 48.2°F9.0°C 39.6°F4.2°C 72% 4.6 mph NW7.4 kmh NW 7.2 mph11.6 kmh 29.59 in1002.0 mb 0.00 in0.0 mm 0.00 in/hr0.0 mm/hr 0.00 in0.0 mm
09:33 AM 48.2°F9.0°C 39.6°F4.2°C 72% 4.5 mph W7.2 kmh W 7.2 mph11.6 kmh 29.58 in1001.7 mb 0.00 in0.0 mm 0.00 in/hr0.0 mm/hr 0.00 in0.0 mm
09:32 AM 48.2°F9.0°C 40.0°F4.4°C 73% 4.3 mph S6.9 kmh S 7.2 mph11.6 kmh 29.59 in1002.0 mb 0.00 in0.0 mm 0.00 in/hr0.0 mm/hr 0.00 in0.0 mm
09:31 AM 48.2°F9.0°C 40.0°F4.4°C 73% 4.2 mph S6.8 kmh S 7.2 mph11.6 kmh 29.59 in1002.0 mb 0.00 in0.0 mm 0.00 in/hr0.0 mm/hr 0.00 in0.0 mm
09:30 AM 48.2°F9.0°C 40.0°F4.4°C 73% 4.0 mph ESE6.4 kmh ESE 7.2 mph11.6 kmh 29.58 in1001.7 mb 0.00 in0.0 mm 0.00 in/hr0.0 mm/hr 0.00 in0.0 mm
09:29 AM 48.2°F9.0°C 40.0°F4.4°C 73% 3.7 mph E6.0 kmh E 7.2 mph11.6 kmh 29.59 in1002.0 mb 0.00 in0.0 mm 0.00 in/hr0.0 mm/hr 0.00 in0.0 mm
09:28 AM 48.2°F9.0°C 40.0°F4.4°C 73% 3.6 mph ENE5.8 kmh ENE 7.2 mph11.6 kmh 29.59 in1002.0 mb 0.00 in0.0 mm 0.00 in/hr0.0 mm/hr 0.00 in0.0 mm
09:27 AM 48.2°F9.0°C 40.0°F4.4°C 73% 3.3 mph E5.3 kmh E 7.2 mph11.6 kmh 29.58 in1001.7 mb 0.00 in0.0 mm 0.00 in/hr0.0 mm/hr 0.00 in0.0 mm
09:26 AM 48.2°F9.0°C 40.3°F4.6°C 74% 3.2 mph SE5.1 kmh SE 7.2 mph11.6 kmh 29.58 in1001.7 mb 0.00 in0.0 mm 0.00 in/hr0.0 mm/hr 0.00 in0.0 mm
09:25 AM 48.2°F9.0°C 40.3°F4.6°C 74% 3.1 mph SE5.0 kmh SE 7.2 mph11.6 kmh 29.58 in1001.7 mb 0.00 in0.0 mm 0.00 in/hr0.0 mm/hr 0.00 in0.0 mm
09:24 AM 48.2°F9.0°C 40.3°F4.6°C 74% 3.0 mph SE4.8 kmh SE 4.6 mph7.4 kmh 29.59 in1002.0 mb 0.00 in0.0 mm 0.00 in/hr0.0 mm/hr 0.00 in0.0 mm
09:23 AM 48.2°F9.0°C 40.0°F4.4°C 73% 3.0 mph ESE4.8 kmh ESE 4.6 mph7.4 kmh 29.58 in1001.7 mb 0.00 in0.0 mm 0.00 in/hr0.0 mm/hr 0.00 in0.0 mm
09:22 AM 48.2°F9.0°C 40.0°F4.4°C 73% 3.1 mph E5.0 kmh E 4.6 mph7.4 kmh 29.58 in1001.7 mb 0.00 in0.0 mm 0.00 in/hr0.0 mm/hr 0.00 in0.0 mm
09:21 AM 48.0°F8.9°C 39.8°F4.3°C 73% 3.2 mph E5.1 kmh E 4.6 mph7.4 kmh 29.58 in1001.7 mb 0.00 in0.0 mm 0.00 in/hr0.0 mm/hr 0.00 in0.0 mm
09:20 AM 48.2°F9.0°C 40.0°F4.4°C 73% 3.3 mph E5.3 kmh E 4.6 mph7.4 kmh 29.58 in1001.7 mb 0.00 in0.0 mm 0.00 in/hr0.0 mm/hr 0.00 in0.0 mm
09:19 AM 48.2°F9.0°C 40.0°F4.4°C 73% 3.2 mph E5.1 kmh E 4.6 mph7.4 kmh 29.58 in1001.7 mb 0.00 in0.0 mm 0.00 in/hr0.0 mm/hr 0.00 in0.0 mm
09:18 AM 48.0°F8.9°C 40.5°F4.7°C 75% 3.2 mph E5.1 kmh E 4.6 mph7.4 kmh 29.58 in1001.7 mb 0.00 in0.0 mm 0.00 in/hr0.0 mm/hr 0.00 in0.0 mm
09:17 AM 48.0°F8.9°C 40.1°F4.5°C 74% 3.3 mph E5.3 kmh E 4.6 mph7.4 kmh 29.58 in1001.7 mb 0.00 in0.0 mm 0.00 in/hr0.0 mm/hr 0.00 in0.0 mm
09:16 AM 48.0°F8.9°C 40.1°F4.5°C 74% 3.2 mph E5.1 kmh E 4.6 mph7.4 kmh 29.58 in1001.7 mb 0.00 in0.0 mm 0.00 in/hr0.0 mm/hr 0.00 in0.0 mm
09:15 AM 48.0°F8.9°C 40.1°F4.5°C 74% 3.0 mph E4.8 kmh E 4.6 mph7.4 kmh 29.58 in1001.7 mb 0.00 in0.0 mm 0.00 in/hr0.0 mm/hr 0.00 in0.0 mm
09:14 AM 48.0°F8.9°C 40.1°F4.5°C 74% 2.9 mph NE4.7 kmh NE 4.6 mph7.4 kmh 29.58 in1001.7 mb 0.00 in0.0 mm 0.00 in/hr0.0 mm/hr 0.00 in0.0 mm
09:13 AM 47.8°F8.8°C 39.6°F4.2°C 73% 2.9 mph NE4.7 kmh NE 4.6 mph7.4 kmh 29.58 in1001.7 mb 0.00 in0.0 mm 0.00 in/hr0.0 mm/hr 0.00 in0.0 mm
09:12 AM 47.8°F8.8°C 39.6°F4.2°C 73% 3.2 mph N5.1 kmh N 7.2 mph11.6 kmh 29.58 in1001.7 mb 0.00 in0.0 mm 0.00 in/hr0.0 mm/hr 0.00 in0.0 mm
09:11 AM 47.8°F8.8°C 39.6°F4.2°C 73% 3.2 mph NNW5.1 kmh NNW 7.2 mph11.6 kmh 29.58 in1001.7 mb 0.00 in0.0 mm 0.00 in/hr0.0 mm/hr 0.00 in0.0 mm
09:10 AM 47.8°F8.8°C 39.6°F4.2°C 73% 3.5 mph NW5.6 kmh NW 7.2 mph11.6 kmh 29.58 in1001.7 mb 0.00 in0.0 mm 0.00 in/hr0.0 mm/hr 0.00 in0.0 mm
09:09 AM 47.8°F8.8°C 39.6°F4.2°C 73% 3.8 mph NW6.1 kmh NW 7.2 mph11.6 kmh 29.58 in1001.7 mb 0.00 in0.0 mm 0.00 in/hr0.0 mm/hr 0.00 in0.0 mm
09:08 AM 47.8°F8.8°C 39.6°F4.2°C 73% 3.8 mph NW6.1 kmh NW 7.2 mph11.6 kmh 29.58 in1001.7 mb 0.00 in0.0 mm 0.00 in/hr0.0 mm/hr 0.00 in0.0 mm
09:07 AM 47.8°F8.8°C 39.6°F4.2°C 73% 4.1 mph NNW6.6 kmh NNW 7.2 mph11.6 kmh 29.58 in1001.7 mb 0.00 in0.0 mm 0.00 in/hr0.0 mm/hr 0.00 in0.0 mm
09:06 AM 47.8°F8.8°C 39.6°F4.2°C 73% 4.4 mph NNW7.1 kmh NNW 7.2 mph11.6 kmh 29.58 in1001.7 mb 0.00 in0.0 mm 0.00 in/hr0.0 mm/hr 0.00 in0.0 mm
09:05 AM 47.8°F8.8°C 39.6°F4.2°C 73% 4.7 mph NNW7.6 kmh NNW 7.2 mph11.6 kmh 29.58 in1001.7 mb 0.00 in0.0 mm 0.00 in/hr0.0 mm/hr 0.00 in0.0 mm
09:04 AM 47.8°F8.8°C 39.6°F4.2°C 73% 4.7 mph NW7.6 kmh NW 7.2 mph11.6 kmh 29.59 in1002.0 mb 0.00 in0.0 mm 0.00 in/hr0.0 mm/hr 0.00 in0.0 mm
09:03 AM 48.0°F8.9°C 39.4°F4.1°C 72% 4.7 mph NNW7.6 kmh NNW 7.2 mph11.6 kmh 29.58 in1001.7 mb 0.00 in0.0 mm 0.00 in/hr0.0 mm/hr 0.00 in0.0 mm
09:02 AM 48.0°F8.9°C 39.4°F4.1°C 72% 4.4 mph N7.1 kmh N 6.4 mph10.3 kmh 29.57 in1001.4 mb 0.00 in0.0 mm 0.00 in/hr0.0 mm/hr 0.00 in0.0 mm
09:01 AM 48.2°F9.0°C 39.6°F4.2°C 72% 4.4 mph N7.1 kmh N 6.4 mph10.3 kmh 29.58 in1001.7 mb 0.00 in0.0 mm 0.00 in/hr0.0 mm/hr 0.00 in0.0 mm
09:00 AM 48.2°F9.0°C 39.6°F4.2°C 72% 4.7 mph NNW7.6 kmh NNW 7.2 mph11.6 kmh 29.58 in1001.7 mb 0.00 in0.0 mm 0.00 in/hr0.0 mm/hr 0.00 in0.0 mm
08:59 AM 48.2°F9.0°C 39.6°F4.2°C 72% 4.6 mph NNW7.4 kmh NNW 7.2 mph11.6 kmh 29.57 in1001.4 mb 0.00 in0.0 mm 0.00 in/hr0.0 mm/hr 0.00 in0.0 mm
08:58 AM 48.4°F9.1°C 40.1°F4.5°C 73% 4.5 mph NNW7.2 kmh NNW 7.2 mph11.6 kmh 29.58 in1001.7 mb 0.00 in0.0 mm 0.00 in/hr0.0 mm/hr 0.00 in0.0 mm
08:57 AM 48.4°F9.1°C 40.1°F4.5°C 73% 4.4 mph NNW7.1 kmh NNW 7.2 mph11.6 kmh 29.58 in1001.7 mb 0.00 in0.0 mm 0.00 in/hr0.0 mm/hr 0.00 in0.0 mm
08:56 AM 48.4°F9.1°C 40.1°F4.5°C 73% 4.0 mph N6.4 kmh N 7.2 mph11.6 kmh 29.58 in1001.7 mb 0.00 in0.0 mm 0.00 in/hr0.0 mm/hr 0.00 in0.0 mm
08:55 AM 48.4°F9.1°C 40.1°F4.5°C 73% 3.8 mph N6.1 kmh N 7.2 mph11.6 kmh 29.57 in1001.4 mb 0.00 in0.0 mm 0.00 in/hr0.0 mm/hr 0.00 in0.0 mm
08:54 AM 48.6°F9.2°C 40.3°F4.6°C 73% 3.7 mph N6.0 kmh N 7.2 mph11.6 kmh 29.58 in1001.7 mb 0.00 in0.0 mm 0.00 in/hr0.0 mm/hr 0.00 in0.0 mm
08:53 AM 48.6°F9.2°C 40.7°F4.8°C 74% 3.5 mph N5.6 kmh N 7.2 mph11.6 kmh 29.58 in1001.7 mb 0.00 in0.0 mm 0.00 in/hr0.0 mm/hr 0.00 in0.0 mm
08:52 AM 48.6°F9.2°C 40.7°F4.8°C 74% 3.3 mph N5.3 kmh N 7.2 mph11.6 kmh 29.58 in1001.7 mb 0.00 in0.0 mm 0.00 in/hr0.0 mm/hr 0.00 in0.0 mm
08:51 AM 48.6°F9.2°C 40.7°F4.8°C 74% 3.0 mph N4.8 kmh N 7.2 mph11.6 kmh 29.58 in1001.7 mb 0.00 in0.0 mm 0.00 in/hr0.0 mm/hr 0.00 in0.0 mm
08:50 AM 48.6°F9.2°C 41.0°F5.0°C 75% 2.5 mph NE4.0 kmh NE 5.4 mph8.7 kmh 29.58 in1001.7 mb 0.00 in0.0 mm 0.00 in/hr0.0 mm/hr 0.00 in0.0 mm
08:49 AM 48.6°F9.2°C 41.0°F5.0°C 75% 2.5 mph ENE4.0 kmh ENE 5.4 mph8.7 kmh 29.57 in1001.4 mb 0.00 in0.0 mm 0.00 in/hr0.0 mm/hr 0.00 in0.0 mm
08:48 AM 48.6°F9.2°C 41.3°F5.2°C 76% 2.4 mph NE3.9 kmh NE 5.4 mph8.7 kmh 29.57 in1001.4 mb 0.00 in0.0 mm 0.00 in/hr0.0 mm/hr 0.00 in0.0 mm
08:47 AM 48.6°F9.2°C 41.3°F5.2°C 76% 2.4 mph ENE3.9 kmh ENE 5.4 mph8.7 kmh 29.57 in1001.4 mb 0.00 in0.0 mm 0.00 in/hr0.0 mm/hr 0.00 in0.0 mm
08:46 AM 48.6°F9.2°C 41.3°F5.2°C 76% 2.4 mph ENE3.9 kmh ENE 5.4 mph8.7 kmh 29.57 in1001.4 mb 0.00 in0.0 mm 0.00 in/hr0.0 mm/hr 0.00 in0.0 mm
08:45 AM 48.6°F9.2°C 41.3°F5.2°C 76% 2.5 mph NE4.0 kmh NE 5.4 mph8.7 kmh 29.58 in1001.7 mb 0.00 in0.0 mm 0.00 in/hr0.0 mm/hr 0.00 in0.0 mm
08:44 AM 48.6°F9.2°C 41.3°F5.2°C 76% 2.6 mph ENE4.2 kmh ENE 5.4 mph8.7 kmh 29.58 in1001.7 mb 0.00 in0.0 mm 0.00 in/hr0.0 mm/hr 0.00 in0.0 mm
08:43 AM 48.6°F9.2°C 41.3°F5.2°C 76% 2.6 mph ENE4.2 kmh ENE 5.4 mph8.7 kmh 29.57 in1001.4 mb 0.00 in0.0 mm 0.00 in/hr0.0 mm/hr 0.00 in0.0 mm
08:42 AM 48.6°F9.2°C 41.3°F5.2°C 76% 2.7 mph E4.3 kmh E 5.4 mph8.7 kmh 29.57 in1001.4 mb 0.00 in0.0 mm 0.00 in/hr0.0 mm/hr 0.00 in0.0 mm
08:41 AM 48.6°F9.2°C 41.3°F5.2°C 76% 2.9 mph ENE4.7 kmh ENE 5.4 mph8.7 kmh 29.57 in1001.4 mb 0.00 in0.0 mm 0.00 in/hr0.0 mm/hr 0.00 in0.0 mm
08:40 AM 48.6°F9.2°C 41.3°F5.2°C 76% 2.9 mph NE4.7 kmh NE 5.4 mph8.7 kmh 29.57 in1001.4 mb 0.00 in0.0 mm 0.00 in/hr0.0 mm/hr 0.00 in0.0 mm
08:39 AM 48.6°F9.2°C 41.3°F5.2°C 76% 3.0 mph NNE4.8 kmh NNE 3.8 mph6.1 kmh 29.57 in1001.4 mb 0.00 in0.0 mm 0.00 in/hr0.0 mm/hr 0.00 in0.0 mm
08:38 AM 48.6°F9.2°C 41.0°F5.0°C 75% 3.1 mph NE5.0 kmh NE 3.8 mph6.1 kmh 29.57 in1001.4 mb 0.00 in0.0 mm 0.00 in/hr0.0 mm/hr 0.00 in0.0 mm
08:37 AM 48.6°F9.2°C 41.0°F5.0°C 75% 3.1 mph NNE5.0 kmh NNE 3.8 mph6.1 kmh 29.57 in1001.4 mb 0.00 in0.0 mm 0.00 in/hr0.0 mm/hr 0.00 in0.0 mm
08:36 AM 48.6°F9.2°C 41.0°F5.0°C 75% 3.2 mph NNE5.1 kmh NNE 3.8 mph6.1 kmh 29.57 in1001.4 mb 0.00 in0.0 mm 0.00 in/hr0.0 mm/hr 0.00 in0.0 mm
08:35 AM 48.6°F9.2°C 41.0°F5.0°C 75% 3.4 mph N5.5 kmh N 4.6 mph7.4 kmh 29.57 in1001.4 mb 0.00 in0.0 mm 0.00 in/hr0.0 mm/hr 0.00 in0.0 mm
08:34 AM 48.7°F9.3°C 41.2°F5.1°C 75% 3.6 mph N5.8 kmh N 4.6 mph7.4 kmh 29.57 in1001.4 mb 0.00 in0.0 mm 0.00 in/hr0.0 mm/hr 0.00 in0.0 mm
08:33 AM 48.7°F9.3°C 41.2°F5.1°C 75% 3.6 mph N5.8 kmh N 4.6 mph7.4 kmh 29.57 in1001.4 mb 0.00 in0.0 mm 0.00 in/hr0.0 mm/hr 0.00 in0.0 mm
08:32 AM 48.7°F9.3°C 41.5°F5.3°C 76% 3.6 mph N5.8 kmh N 4.6 mph7.4 kmh 29.57 in1001.4 mb 0.00 in0.0 mm 0.00 in/hr0.0 mm/hr 0.00 in0.0 mm
08:31 AM 48.7°F9.3°C 41.5°F5.3°C 76% 3.5 mph N5.6 kmh N 4.6 mph7.4 kmh 29.57 in1001.4 mb 0.00 in0.0 mm 0.00 in/hr0.0 mm/hr 0.00 in0.0 mm
08:30 AM 48.7°F9.3°C 41.2°F5.1°C 75% 3.4 mph NNE5.5 kmh NNE 4.6 mph7.4 kmh 29.57 in1001.4 mb 0.00 in0.0 mm 0.00 in/hr0.0 mm/hr 0.00 in0.0 mm
08:29 AM 48.7°F9.3°C 41.5°F5.3°C 76% 3.3 mph NE5.3 kmh NE 4.6 mph7.4 kmh 29.57 in1001.4 mb 0.00 in0.0 mm 0.00 in/hr0.0 mm/hr 0.00 in0.0 mm
08:28 AM 48.7°F9.3°C 41.5°F5.3°C 76% 3.4 mph NNE5.5 kmh NNE 4.6 mph7.4 kmh 29.57 in1001.4 mb 0.00 in0.0 mm 0.00 in/hr0.0 mm/hr 0.00 in0.0 mm
08:27 AM 48.7°F9.3°C 41.9°F5.5°C 77% 3.5 mph NE5.6 kmh NE 4.6 mph7.4 kmh 29.57 in1001.4 mb 0.00 in0.0 mm 0.00 in/hr0.0 mm/hr 0.00 in0.0 mm
08:26 AM 48.7°F9.3°C 41.9°F5.5°C 77% 3.5 mph NE5.6 kmh NE 4.6 mph7.4 kmh 29.57 in1001.4 mb 0.00 in0.0 mm 0.00 in/hr0.0 mm/hr 0.00 in0.0 mm
08:25 AM 48.6°F9.2°C 42.0°F5.6°C 78% 3.4 mph NE5.5 kmh NE 4.6 mph7.4 kmh 29.57 in1001.4 mb 0.00 in0.0 mm 0.00 in/hr0.0 mm/hr 0.00 in0.0 mm
08:24 AM 48.6°F9.2°C 42.4°F5.8°C 79% 3.2 mph ENE5.1 kmh ENE 4.6 mph7.4 kmh 29.57 in1001.4 mb 0.00 in0.0 mm 0.00 in/hr0.0 mm/hr 0.00 in0.0 mm
08:23 AM 48.4°F9.1°C 42.5°F5.8°C 80% 3.0 mph ENE4.8 kmh ENE 4.6 mph7.4 kmh 29.57 in1001.4 mb 0.00 in0.0 mm 0.00 in/hr0.0 mm/hr 0.00 in0.0 mm
08:22 AM 48.2°F9.0°C 42.3°F5.7°C 80% 2.9 mph ENE4.7 kmh ENE 4.6 mph7.4 kmh 29.57 in1001.4 mb 0.00 in0.0 mm 0.00 in/hr0.0 mm/hr 0.00 in0.0 mm
08:21 AM 48.0°F8.9°C 42.2°F5.7°C 80% 2.9 mph ENE4.7 kmh ENE 4.6 mph7.4 kmh 29.57 in1001.4 mb 0.00 in0.0 mm 0.00 in/hr0.0 mm/hr 0.00 in0.0 mm
08:20 AM 47.8°F8.8°C 42.0°F5.6°C 80% 3.0 mph ENE4.8 kmh ENE 4.6 mph7.4 kmh 29.57 in1001.4 mb 0.00 in0.0 mm 0.00 in/hr0.0 mm/hr 0.00 in0.0 mm
08:19 AM 47.8°F8.8°C 42.0°F5.6°C 80% 3.2 mph E5.1 kmh E 5.4 mph8.7 kmh 29.57 in1001.4 mb 0.00 in0.0 mm 0.00 in/hr0.0 mm/hr 0.00 in0.0 mm
08:18 AM 47.7°F8.7°C 42.1°F5.6°C 81% 3.1 mph E5.0 kmh E 5.4 mph8.7 kmh 29.57 in1001.4 mb 0.00 in0.0 mm 0.00 in/hr0.0 mm/hr 0.00 in0.0 mm
08:17 AM 47.5°F8.6°C 42.3°F5.7°C 82% 2.7 mph E4.3 kmh E 5.4 mph8.7 kmh 29.57 in1001.4 mb 0.00 in0.0 mm 0.00 in/hr0.0 mm/hr 0.00 in0.0 mm
08:16 AM 47.5°F8.6°C 42.3°F5.7°C 82% 2.5 mph E4.0 kmh E 5.4 mph8.7 kmh 29.57 in1001.4 mb 0.00 in0.0 mm 0.00 in/hr0.0 mm/hr 0.00 in0.0 mm
08:15 AM 47.5°F8.6°C 42.3°F5.7°C 82% 2.4 mph E3.9 kmh E 5.4 mph8.7 kmh 29.57 in1001.4 mb 0.00 in0.0 mm 0.00 in/hr0.0 mm/hr 0.00 in0.0 mm
08:14 AM 47.3°F8.5°C 42.1°F5.6°C 82% 2.3 mph E3.7 kmh E 5.4 mph8.7 kmh 29.57 in1001.4 mb 0.00 in0.0 mm 0.00 in/hr0.0 mm/hr 0.00 in0.0 mm
08:13 AM 47.1°F8.4°C 41.9°F5.5°C 82% 2.6 mph NE4.2 kmh NE 5.4 mph8.7 kmh 29.57 in1001.4 mb 0.00 in0.0 mm 0.00 in/hr0.0 mm/hr 0.00 in0.0 mm
08:12 AM 47.1°F8.4°C 41.9°F5.5°C 82% 2.9 mph NE4.7 kmh NE 5.4 mph8.7 kmh 29.57 in1001.4 mb 0.00 in0.0 mm 0.00 in/hr0.0 mm/hr 0.00 in0.0 mm
08:11 AM 47.1°F8.4°C 41.9°F5.5°C 82% 3.1 mph NE5.0 kmh NE 5.4 mph8.7 kmh 29.57 in1001.4 mb 0.00 in0.0 mm 0.00 in/hr0.0 mm/hr 0.00 in0.0 mm
08:10 AM 46.9°F8.3°C 41.7°F5.4°C 82% 3.3 mph N5.3 kmh N 6.4 mph10.3 kmh 29.57 in1001.4 mb 0.00 in0.0 mm 0.00 in/hr0.0 mm/hr 0.00 in0.0 mm
08:09 AM 46.9°F8.3°C 41.7°F5.4°C 82% 3.3 mph N5.3 kmh N 6.4 mph10.3 kmh 29.57 in1001.4 mb 0.00 in0.0 mm 0.00 in/hr0.0 mm/hr 0.00 in0.0 mm
08:08 AM 46.9°F8.3°C 41.7°F5.4°C 82% 3.4 mph N5.5 kmh N 6.4 mph10.3 kmh 29.56 in1001.0 mb 0.00 in0.0 mm 0.00 in/hr0.0 mm/hr 0.00 in0.0 mm
08:07 AM 46.9°F8.3°C 41.7°F5.4°C 82% 3.8 mph N6.1 kmh N 6.4 mph10.3 kmh 29.56 in1001.0 mb 0.00 in0.0 mm 0.00 in/hr0.0 mm/hr 0.00 in0.0 mm
08:06 AM 46.9°F8.3°C 41.7°F5.4°C 82% 4.0 mph N6.4 kmh N 6.4 mph10.3 kmh 29.56 in1001.0 mb 0.00 in0.0 mm 0.00 in/hr0.0 mm/hr 0.00 in0.0 mm
08:05 AM 46.9°F8.3°C 41.7°F5.4°C 82% 4.1 mph N6.6 kmh N 6.4 mph10.3 kmh 29.57 in1001.4 mb 0.00 in0.0 mm 0.00 in/hr0.0 mm/hr 0.00 in0.0 mm
08:04 AM 46.9°F8.3°C 41.7°F5.4°C 82% 4.3 mph N6.9 kmh N 6.4 mph10.3 kmh 29.56 in1001.0 mb 0.00 in0.0 mm 0.00 in/hr0.0 mm/hr 0.00 in0.0 mm
08:03 AM 46.9°F8.3°C 41.7°F5.4°C 82% 4.4 mph N7.1 kmh N 6.4 mph10.3 kmh 29.56 in1001.0 mb 0.00 in0.0 mm 0.00 in/hr0.0 mm/hr 0.00 in0.0 mm
08:02 AM 46.9°F8.3°C 41.7°F5.4°C 82% 4.3 mph N6.9 kmh N 6.4 mph10.3 kmh 29.56 in1001.0 mb 0.00 in0.0 mm 0.00 in/hr0.0 mm/hr 0.00 in0.0 mm
08:01 AM 46.9°F8.3°C 42.1°F5.6°C 83% 4.3 mph N6.9 kmh N 6.4 mph10.3 kmh 29.56 in1001.0 mb 0.00 in0.0 mm 0.00 in/hr0.0 mm/hr 0.00 in0.0 mm
08:00 AM 46.9°F8.3°C 42.1°F5.6°C 83% 3.9 mph N6.3 kmh N 6.4 mph10.3 kmh 29.56 in1001.0 mb 0.00 in0.0 mm 0.00 in/hr0.0 mm/hr 0.00 in0.0 mm
07:59 AM 46.9°F8.3°C 41.7°F5.4°C 82% 3.7 mph N6.0 kmh N 5.4 mph8.7 kmh 29.56 in1001.0 mb 0.00 in0.0 mm 0.00 in/hr0.0 mm/hr 0.00 in0.0 mm
07:58 AM 46.9°F8.3°C 41.7°F5.4°C 82% 3.6 mph NNE5.8 kmh NNE 5.4 mph8.7 kmh 29.56 in1001.0 mb 0.00 in0.0 mm 0.00 in/hr0.0 mm/hr 0.00 in0.0 mm
07:57 AM 46.9°F8.3°C 41.7°F5.4°C 82% 3.3 mph NNE5.3 kmh NNE 5.4 mph8.7 kmh 29.56 in1001.0 mb 0.00 in0.0 mm 0.00 in/hr0.0 mm/hr 0.00 in0.0 mm
07:56 AM 46.9°F8.3°C 41.7°F5.4°C 82% 3.1 mph N5.0 kmh N 5.4 mph8.7 kmh 29.56 in1001.0 mb 0.00 in0.0 mm 0.00 in/hr0.0 mm/hr 0.00 in0.0 mm
07:55 AM 46.9°F8.3°C 41.7°F5.4°C 82% 3.1 mph NNE5.0 kmh NNE 5.4 mph8.7 kmh 29.56 in1001.0 mb 0.00 in0.0 mm 0.00 in/hr0.0 mm/hr 0.00 in0.0 mm
07:54 AM 46.9°F8.3°C 41.7°F5.4°C 82% 3.0 mph NNE4.8 kmh NNE 5.4 mph8.7 kmh 29.56 in1001.0 mb 0.00 in0.0 mm 0.00 in/hr0.0 mm/hr 0.00 in0.0 mm
07:53 AM 46.9°F8.3°C 41.7°F5.4°C 82% 2.8 mph N4.5 kmh N 4.6 mph7.4 kmh 29.56 in1001.0 mb 0.00 in0.0 mm 0.00 in/hr0.0 mm/hr 0.00 in0.0 mm
07:52 AM 47.1°F8.4°C 41.9°F5.5°C 82% 2.7 mph N4.3 kmh N 4.6 mph7.4 kmh 29.56 in1001.0 mb 0.00 in0.0 mm 0.00 in/hr0.0 mm/hr 0.00 in0.0 mm
07:51 AM 46.9°F8.3°C 41.7°F5.4°C 82% 2.5 mph N4.0 kmh N 3.8 mph6.1 kmh 29.57 in1001.4 mb 0.00 in0.0 mm 0.00 in/hr0.0 mm/hr 0.00 in0.0 mm
07:50 AM 47.1°F8.4°C 41.6°F5.3°C 81% 2.6 mph N4.2 kmh N 3.8 mph6.1 kmh 29.57 in1001.4 mb 0.00 in0.0 mm 0.00 in/hr0.0 mm/hr 0.00 in0.0 mm
07:49 AM 47.1°F8.4°C 41.6°F5.3°C 81% 2.5 mph N4.0 kmh N 3.8 mph6.1 kmh 29.56 in1001.0 mb 0.00 in0.0 mm 0.00 in/hr0.0 mm/hr 0.00 in0.0 mm
07:48 AM 47.1°F8.4°C 41.6°F5.3°C 81% 2.5 mph N4.0 kmh N 3.8 mph6.1 kmh 29.57 in1001.4 mb 0.00 in0.0 mm 0.00 in/hr0.0 mm/hr 0.00 in0.0 mm
07:47 AM 47.1°F8.4°C 41.6°F5.3°C 81% 2.5 mph N4.0 kmh N 3.8 mph6.1 kmh 29.57 in1001.4 mb 0.00 in0.0 mm 0.00 in/hr0.0 mm/hr 0.00 in0.0 mm
07:46 AM 47.1°F8.4°C 41.6°F5.3°C 81% 2.4 mph N3.9 kmh N 3.8 mph6.1 kmh 29.57 in1001.4 mb 0.00 in0.0 mm 0.00 in/hr0.0 mm/hr 0.00 in0.0 mm
07:45 AM 47.1°F8.4°C 41.6°F5.3°C 81% 2.2 mph N3.5 kmh N 3.8 mph6.1 kmh 29.57 in1001.4 mb 0.00 in0.0 mm 0.00 in/hr0.0 mm/hr 0.00 in0.0 mm
07:44 AM 47.1°F8.4°C 41.6°F5.3°C 81% 2.1 mph N3.4 kmh N 3.8 mph6.1 kmh 29.57 in1001.4 mb 0.00 in0.0 mm 0.00 in/hr0.0 mm/hr 0.00 in0.0 mm
07:43 AM 47.1°F8.4°C 41.6°F5.3°C 81% 2.1 mph N3.4 kmh N 3.8 mph6.1 kmh 29.57 in1001.4 mb 0.00 in0.0 mm 0.00 in/hr0.0 mm/hr 0.00 in0.0 mm
07:42 AM 47.3°F8.5°C 41.8°F5.4°C 81% 2.1 mph NE3.4 kmh NE 4.6 mph7.4 kmh 29.57 in1001.4 mb 0.00 in0.0 mm 0.00 in/hr0.0 mm/hr 0.00 in0.0 mm
07:41 AM 47.3°F8.5°C 41.8°F5.4°C 81% 2.2 mph ENE3.5 kmh ENE 4.6 mph7.4 kmh 29.56 in1001.0 mb 0.00 in0.0 mm 0.00 in/hr0.0 mm/hr 0.00 in0.0 mm
07:40 AM 47.3°F8.5°C 41.8°F5.4°C 81% 2.2 mph E3.5 kmh E 4.6 mph7.4 kmh 29.57 in1001.4 mb 0.00 in0.0 mm 0.00 in/hr0.0 mm/hr 0.00 in0.0 mm
07:39 AM 47.3°F8.5°C 41.4°F5.2°C 80% 2.3 mph E3.7 kmh E 4.6 mph7.4 kmh 29.57 in1001.4 mb 0.00 in0.0 mm 0.00 in/hr0.0 mm/hr 0.00 in0.0 mm
07:38 AM 47.3°F8.5°C 41.4°F5.2°C 80% 2.4 mph E3.9 kmh E 4.6 mph7.4 kmh 29.57 in1001.4 mb 0.00 in0.0 mm 0.00 in/hr0.0 mm/hr 0.00 in0.0 mm
07:37 AM 47.3°F8.5°C 41.4°F5.2°C 80% 2.6 mph E4.2 kmh E 4.6 mph7.4 kmh 29.57 in1001.4 mb 0.00 in0.0 mm 0.00 in/hr0.0 mm/hr 0.00 in0.0 mm
07:36 AM 47.3°F8.5°C 41.4°F5.2°C 80% 2.7 mph E4.3 kmh E 4.6 mph7.4 kmh 29.56 in1001.0 mb 0.00 in0.0 mm 0.00 in/hr0.0 mm/hr 0.00 in0.0 mm
07:35 AM 47.3°F8.5°C 41.4°F5.2°C 80% 2.8 mph E4.5 kmh E 4.6 mph7.4 kmh 29.57 in1001.4 mb 0.00 in0.0 mm 0.00 in/hr0.0 mm/hr 0.00 in0.0 mm
07:34 AM 47.5°F8.6°C 41.6°F5.3°C 80% 2.8 mph E4.5 kmh E 4.6 mph7.4 kmh 29.57 in1001.4 mb 0.00 in0.0 mm 0.00 in/hr0.0 mm/hr 0.00 in0.0 mm
07:33 AM 47.5°F8.6°C 41.6°F5.3°C 80% 2.8 mph E4.5 kmh E 4.6 mph7.4 kmh 29.56 in1001.0 mb 0.00 in0.0 mm 0.00 in/hr0.0 mm/hr 0.00 in0.0 mm
07:32 AM 47.5°F8.6°C 41.6°F5.3°C 80% 2.8 mph ENE4.5 kmh ENE 4.6 mph7.4 kmh 29.56 in1001.0 mb 0.00 in0.0 mm 0.00 in/hr0.0 mm/hr 0.00 in0.0 mm
07:31 AM 47.3°F8.5°C 41.4°F5.2°C 80% 2.7 mph ENE4.3 kmh ENE 3.8 mph6.1 kmh 29.57 in1001.4 mb 0.00 in0.0 mm 0.00 in/hr0.0 mm/hr 0.00 in0.0 mm
07:30 AM 47.3°F8.5°C 41.4°F5.2°C 80% 2.8 mph NE4.5 kmh NE 5.4 mph8.7 kmh 29.57 in1001.4 mb 0.00 in0.0 mm 0.00 in/hr0.0 mm/hr 0.00 in0.0 mm
07:29 AM 47.3°F8.5°C 41.4°F5.2°C 80% 2.9 mph NNE4.7 kmh NNE 5.4 mph8.7 kmh 29.57 in1001.4 mb 0.00 in0.0 mm 0.00 in/hr0.0 mm/hr 0.00 in0.0 mm
07:28 AM 47.3°F8.5°C 41.4°F5.2°C 80% 3.1 mph NNE5.0 kmh NNE 5.4 mph8.7 kmh 29.57 in1001.4 mb 0.00 in0.0 mm 0.00 in/hr0.0 mm/hr 0.00 in0.0 mm
07:27 AM 47.3°F8.5°C 41.4°F5.2°C 80% 3.2 mph NNE5.1 kmh NNE 5.4 mph8.7 kmh 29.57 in1001.4 mb 0.00 in0.0 mm 0.00 in/hr0.0 mm/hr 0.00 in0.0 mm
07:26 AM 47.3°F8.5°C 41.4°F5.2°C 80% 3.2 mph NNE5.1 kmh NNE 5.4 mph8.7 kmh 29.57 in1001.4 mb 0.00 in0.0 mm 0.00 in/hr0.0 mm/hr 0.00 in0.0 mm
07:25 AM 47.3°F8.5°C 41.4°F5.2°C 80% 3.1 mph N5.0 kmh N 5.4 mph8.7 kmh 29.57 in1001.4 mb 0.00 in0.0 mm 0.00 in/hr0.0 mm/hr 0.00 in0.0 mm
07:24 AM 47.3°F8.5°C 41.4°F5.2°C 80% 3.4 mph N5.5 kmh N 5.4 mph8.7 kmh 29.57 in1001.4 mb 0.00 in0.0 mm 0.00 in/hr0.0 mm/hr 0.00 in0.0 mm
07:23 AM 47.3°F8.5°C 41.4°F5.2°C 80% 3.5 mph N5.6 kmh N 5.4 mph8.7 kmh 29.57 in1001.4 mb 0.00 in0.0 mm 0.00 in/hr0.0 mm/hr 0.00 in0.0 mm
07:22 AM 47.3°F8.5°C 41.4°F5.2°C 80% 3.6 mph N5.8 kmh N 5.4 mph8.7 kmh 29.57 in1001.4 mb 0.00 in0.0 mm 0.00 in/hr0.0 mm/hr 0.00 in0.0 mm
07:21 AM 47.3°F8.5°C 41.8°F5.4°C 81% 3.6 mph N5.8 kmh N 5.4 mph8.7 kmh 29.57 in1001.4 mb 0.00 in0.0 mm 0.00 in/hr0.0 mm/hr 0.00 in0.0 mm
07:20 AM 47.3°F8.5°C 41.8°F5.4°C 81% 3.3 mph N5.3 kmh N 5.4 mph8.7 kmh 29.56 in1001.0 mb 0.00 in0.0 mm 0.00 in/hr0.0 mm/hr 0.00 in0.0 mm
07:19 AM 47.3°F8.5°C 41.8°F5.4°C 81% 3.1 mph N5.0 kmh N 5.4 mph8.7 kmh 29.57 in1001.4 mb 0.00 in0.0 mm 0.00 in/hr0.0 mm/hr 0.00 in0.0 mm
07:18 AM 47.3°F8.5°C 41.8°F5.4°C 81% 2.9 mph N4.7 kmh N 4.6 mph7.4 kmh 29.56 in1001.0 mb 0.00 in0.0 mm 0.00 in/hr0.0 mm/hr 0.00 in0.0 mm
07:17 AM 47.3°F8.5°C 41.8°F5.4°C 81% 2.7 mph NNW4.3 kmh NNW 4.6 mph7.4 kmh 29.57 in1001.4 mb 0.00 in0.0 mm 0.00 in/hr0.0 mm/hr 0.00 in0.0 mm
07:16 AM 47.3°F8.5°C 41.8°F5.4°C 81% 2.6 mph N4.2 kmh N 4.6 mph7.4 kmh 29.57 in1001.4 mb 0.00 in0.0 mm 0.00 in/hr0.0 mm/hr 0.00 in0.0 mm
07:15 AM 47.3°F8.5°C 41.8°F5.4°C 81% 2.6 mph N4.2 kmh N 4.6 mph7.4 kmh 29.57 in1001.4 mb 0.00 in0.0 mm 0.00 in/hr0.0 mm/hr 0.00 in0.0 mm
07:14 AM 47.3°F8.5°C 41.8°F5.4°C 81% 2.3 mph NNE3.7 kmh NNE 4.6 mph7.4 kmh 29.57 in1001.4 mb 0.00 in0.0 mm 0.00 in/hr0.0 mm/hr 0.00 in0.0 mm
07:13 AM 47.1°F8.4°C 41.9°F5.5°C 82% 2.2 mph NNE3.5 kmh NNE 4.6 mph7.4 kmh 29.57 in1001.4 mb 0.00 in0.0 mm 0.00 in/hr0.0 mm/hr 0.00 in0.0 mm
07:12 AM 47.1°F8.4°C 41.9°F5.5°C 82% 2.0 mph N3.2 kmh N 2.7 mph4.3 kmh 29.56 in1001.0 mb 0.00 in0.0 mm 0.00 in/hr0.0 mm/hr 0.00 in0.0 mm
07:11 AM 47.1°F8.4°C 41.9°F5.5°C 82% 1.9 mph N3.1 kmh N 2.7 mph4.3 kmh 29.57 in1001.4 mb 0.00 in0.0 mm 0.00 in/hr0.0 mm/hr 0.00 in0.0 mm
07:10 AM 47.1°F8.4°C 41.9°F5.5°C 82% 2.0 mph NNW3.2 kmh NNW 2.7 mph4.3 kmh 29.57 in1001.4 mb 0.00 in0.0 mm 0.00 in/hr0.0 mm/hr 0.00 in0.0 mm
07:09 AM 47.1°F8.4°C 41.9°F5.5°C 82% 2.1 mph NNW3.4 kmh NNW 2.7 mph4.3 kmh 29.57 in1001.4 mb 0.00 in0.0 mm 0.00 in/hr0.0 mm/hr 0.00 in0.0 mm
07:08 AM 47.1°F8.4°C 41.9°F5.5°C 82% 2.0 mph NW3.2 kmh NW 2.7 mph4.3 kmh 29.57 in1001.4 mb 0.00 in0.0 mm 0.00 in/hr0.0 mm/hr 0.00 in0.0 mm
07:07 AM 47.1°F8.4°C 41.9°F5.5°C 82% 1.9 mph NNW3.1 kmh NNW 2.7 mph4.3 kmh 29.57 in1001.4 mb 0.00 in0.0 mm 0.00 in/hr0.0 mm/hr 0.00 in0.0 mm
07:06 AM 47.1°F8.4°C 41.9°F5.5°C 82% 2.0 mph N3.2 kmh N 2.7 mph4.3 kmh 29.57 in1001.4 mb 0.00 in0.0 mm 0.00 in/hr0.0 mm/hr 0.00 in0.0 mm
07:05 AM 47.1°F8.4°C 41.9°F5.5°C 82% 2.0 mph NNW3.2 kmh NNW 2.7 mph4.3 kmh 29.57 in1001.4 mb 0.00 in0.0 mm 0.00 in/hr0.0 mm/hr 0.00 in0.0 mm
07:04 AM 47.1°F8.4°C 41.9°F5.5°C 82% 1.8 mph NNW2.9 kmh NNW 2.7 mph4.3 kmh 29.57 in1001.4 mb 0.00 in0.0 mm 0.00 in/hr0.0 mm/hr 0.00 in0.0 mm
07:03 AM 47.1°F8.4°C 41.9°F5.5°C 82% 1.9 mph N3.1 kmh N 3.8 mph6.1 kmh 29.57 in1001.4 mb 0.00 in0.0 mm 0.00 in/hr0.0 mm/hr 0.00 in0.0 mm
07:02 AM 47.1°F8.4°C 41.9°F5.5°C 82% 2.1 mph NE3.4 kmh NE 4.6 mph7.4 kmh 29.57 in1001.4 mb 0.00 in0.0 mm 0.00 in/hr0.0 mm/hr 0.00 in0.0 mm
07:01 AM 47.1°F8.4°C 42.2°F5.7°C 83% 2.3 mph E3.7 kmh E 4.6 mph7.4 kmh 29.57 in1001.4 mb 0.00 in0.0 mm 0.00 in/hr0.0 mm/hr 0.00 in0.0 mm
07:00 AM 47.1°F8.4°C 42.2°F5.7°C 83% 2.2 mph E3.5 kmh E 4.6 mph7.4 kmh 29.57 in1001.4 mb 0.00 in0.0 mm 0.00 in/hr0.0 mm/hr 0.00 in0.0 mm
06:59 AM 47.1°F8.4°C 42.2°F5.7°C 83% 2.1 mph ESE3.4 kmh ESE 4.6 mph7.4 kmh 29.57 in1001.4 mb 0.00 in0.0 mm 0.00 in/hr0.0 mm/hr 0.00 in0.0 mm
06:58 AM 47.1°F8.4°C 42.2°F5.7°C 83% 2.1 mph ESE3.4 kmh ESE 4.6 mph7.4 kmh 29.57 in1001.4 mb 0.00 in0.0 mm 0.00 in/hr0.0 mm/hr 0.00 in0.0 mm
06:57 AM 47.1°F8.4°C 42.2°F5.7°C 83% 2.2 mph ESE3.5 kmh ESE 4.6 mph7.4 kmh 29.57 in1001.4 mb 0.00 in0.0 mm 0.00 in/hr0.0 mm/hr 0.00 in0.0 mm
06:56 AM 47.1°F8.4°C 42.2°F5.7°C 83% 2.2 mph SE3.5 kmh SE 4.6 mph7.4 kmh 29.57 in1001.4 mb 0.00 in0.0 mm 0.00 in/hr0.0 mm/hr 0.00 in0.0 mm
06:55 AM 47.1°F8.4°C 42.2°F5.7°C 83% 2.1 mph SE3.4 kmh SE 4.6 mph7.4 kmh 29.57 in1001.4 mb 0.00 in0.0 mm 0.00 in/hr0.0 mm/hr 0.00 in0.0 mm
06:54 AM 47.1°F8.4°C 42.2°F5.7°C 83% 2.2 mph SE3.5 kmh SE 4.6 mph7.4 kmh 29.57 in1001.4 mb 0.00 in0.0 mm 0.00 in/hr0.0 mm/hr 0.00 in0.0 mm
06:53 AM 47.1°F8.4°C 42.2°F5.7°C 83% 2.1 mph SE3.4 kmh SE 4.6 mph7.4 kmh 29.57 in1001.4 mb 0.00 in0.0 mm 0.00 in/hr0.0 mm/hr 0.00 in0.0 mm
06:52 AM 47.1°F8.4°C 42.2°F5.7°C 83% 1.7 mph SE2.7 kmh SE 4.6 mph7.4 kmh 29.57 in1001.4 mb 0.00 in0.0 mm 0.00 in/hr0.0 mm/hr 0.00 in0.0 mm
06:51 AM 47.1°F8.4°C 41.9°F5.5°C 82% 1.3 mph SE2.1 kmh SE 2.7 mph4.3 kmh 29.57 in1001.4 mb 0.00 in0.0 mm 0.00 in/hr0.0 mm/hr 0.00 in0.0 mm
06:50 AM 47.1°F8.4°C 41.9°F5.5°C 82% 1.3 mph SSE2.1 kmh SSE 2.7 mph4.3 kmh 29.56 in1001.0 mb 0.00 in0.0 mm 0.00 in/hr0.0 mm/hr 0.00 in0.0 mm
06:49 AM 47.1°F8.4°C 41.9°F5.5°C 82% 1.2 mph SSE1.9 kmh SSE 2.7 mph4.3 kmh 29.56 in1001.0 mb 0.00 in0.0 mm 0.00 in/hr0.0 mm/hr 0.00 in0.0 mm
06:48 AM 47.1°F8.4°C 41.9°F5.5°C 82% 1.0 mph S1.6 kmh S 2.7 mph4.3 kmh 29.56 in1001.0 mb 0.00 in0.0 mm 0.00 in/hr0.0 mm/hr 0.00 in0.0 mm
06:47 AM 47.1°F8.4°C 41.9°F5.5°C 82% 0.9 mph S1.4 kmh S 2.7 mph4.3 kmh 29.56 in1001.0 mb 0.00 in0.0 mm 0.00 in/hr0.0 mm/hr 0.00 in0.0 mm
06:46 AM 47.1°F8.4°C 41.9°F5.5°C 82% 0.8 mph S1.3 kmh S 2.7 mph4.3 kmh 29.56 in1001.0 mb 0.00 in0.0 mm 0.00 in/hr0.0 mm/hr 0.00 in0.0 mm
06:45 AM 47.1°F8.4°C 41.9°F5.5°C 82% 0.6 mph SSE1.0 kmh SSE 2.7 mph4.3 kmh 29.56 in1001.0 mb 0.00 in0.0 mm 0.00 in/hr0.0 mm/hr 0.00 in0.0 mm
06:44 AM 47.1°F8.4°C 41.9°F5.5°C 82% 0.6 mph SSE1.0 kmh SSE 2.7 mph4.3 kmh 29.56 in1001.0 mb 0.00 in0.0 mm 0.00 in/hr0.0 mm/hr 0.00 in0.0 mm
06:43 AM 47.3°F8.5°C 42.1°F5.6°C 82% 0.6 mph SSE1.0 kmh SSE 2.7 mph4.3 kmh 29.56 in1001.0 mb 0.00 in0.0 mm 0.00 in/hr0.0 mm/hr 0.00 in0.0 mm
06:42 AM 47.3°F8.5°C 42.1°F5.6°C 82% 0.8 mph SSE1.3 kmh SSE 2.7 mph4.3 kmh 29.56 in1001.0 mb 0.00 in0.0 mm 0.00 in/hr0.0 mm/hr 0.00 in0.0 mm
06:41 AM 47.3°F8.5°C 42.1°F5.6°C 82% 1.0 mph SSE1.6 kmh SSE 2.7 mph4.3 kmh 29.56 in1001.0 mb 0.00 in0.0 mm 0.00 in/hr0.0 mm/hr 0.00 in0.0 mm
06:40 AM 47.3°F8.5°C 42.1°F5.6°C 82% 1.0 mph SE1.6 kmh SE 2.7 mph4.3 kmh 29.56 in1001.0 mb 0.00 in0.0 mm 0.00 in/hr0.0 mm/hr 0.00 in0.0 mm
06:39 AM 47.3°F8.5°C 42.1°F5.6°C 82% 1.1 mph E1.8 kmh E 2.7 mph4.3 kmh 29.56 in1001.0 mb 0.00 in0.0 mm 0.00 in/hr0.0 mm/hr 0.00 in0.0 mm
06:38 AM 47.3°F8.5°C 42.1°F5.6°C 82% 1.2 mph SE1.9 kmh SE 2.7 mph4.3 kmh 29.55 in1000.7 mb 0.00 in0.0 mm 0.00 in/hr0.0 mm/hr 0.00 in0.0 mm
06:37 AM 47.3°F8.5°C 42.1°F5.6°C 82% 1.4 mph SE2.3 kmh SE 2.7 mph4.3 kmh 29.56 in1001.0 mb 0.00 in0.0 mm 0.00 in/hr0.0 mm/hr 0.00 in0.0 mm
06:36 AM 47.3°F8.5°C 42.1°F5.6°C 82% 1.4 mph E2.3 kmh E 2.7 mph4.3 kmh 29.55 in1000.7 mb 0.00 in0.0 mm 0.00 in/hr0.0 mm/hr 0.00 in0.0 mm
06:35 AM 47.1°F8.4°C 41.9°F5.5°C 82% 1.3 mph NE2.1 kmh NE 2.7 mph4.3 kmh 29.55 in1000.7 mb 0.00 in0.0 mm 0.00 in/hr0.0 mm/hr 0.00 in0.0 mm
06:34 AM 47.3°F8.5°C 42.1°F5.6°C 82% 1.3 mph N2.1 kmh N 2.7 mph4.3 kmh 29.55 in1000.7 mb 0.00 in0.0 mm 0.00 in/hr0.0 mm/hr 0.00 in0.0 mm
06:33 AM 47.3°F8.5°C 42.1°F5.6°C 82% 1.5 mph N2.4 kmh N 2.7 mph4.3 kmh 29.55 in1000.7 mb 0.00 in0.0 mm 0.00 in/hr0.0 mm/hr 0.00 in0.0 mm
06:32 AM 47.3°F8.5°C 42.1°F5.6°C 82% 1.6 mph NNW2.6 kmh NNW 3.8 mph6.1 kmh 29.55 in1000.7 mb 0.00 in0.0 mm 0.00 in/hr0.0 mm/hr 0.00 in0.0 mm
06:31 AM 47.3°F8.5°C 42.1°F5.6°C 82% 2.0 mph N3.2 kmh N 5.4 mph8.7 kmh 29.55 in1000.7 mb 0.00 in0.0 mm 0.00 in/hr0.0 mm/hr 0.00 in0.0 mm
06:30 AM 47.3°F8.5°C 42.1°F5.6°C 82% 2.1 mph N3.4 kmh N 5.4 mph8.7 kmh 29.55 in1000.7 mb 0.00 in0.0 mm 0.00 in/hr0.0 mm/hr 0.00 in0.0 mm
06:29 AM 47.3°F8.5°C 42.1°F5.6°C 82% 2.2 mph N3.5 kmh N 5.4 mph8.7 kmh 29.55 in1000.7 mb 0.00 in0.0 mm 0.00 in/hr0.0 mm/hr 0.00 in0.0 mm
06:28 AM 47.3°F8.5°C 42.1°F5.6°C 82% 2.5 mph N4.0 kmh N 5.4 mph8.7 kmh 29.55 in1000.7 mb 0.00 in0.0 mm 0.00 in/hr0.0 mm/hr 0.00 in0.0 mm
06:27 AM 47.3°F8.5°C 42.1°F5.6°C 82% 2.7 mph N4.3 kmh N 5.4 mph8.7 kmh 29.55 in1000.7 mb 0.00 in0.0 mm 0.00 in/hr0.0 mm/hr 0.00 in0.0 mm
06:26 AM 47.3°F8.5°C 42.1°F5.6°C 82% 2.8 mph N4.5 kmh N 5.4 mph8.7 kmh 29.55 in1000.7 mb 0.00 in0.0 mm 0.00 in/hr0.0 mm/hr 0.00 in0.0 mm
06:25 AM 47.3°F8.5°C 42.1°F5.6°C 82% 3.0 mph N4.8 kmh N 5.4 mph8.7 kmh 29.55 in1000.7 mb 0.00 in0.0 mm 0.00 in/hr0.0 mm/hr 0.00 in0.0 mm
06:24 AM 47.3°F8.5°C 42.1°F5.6°C 82% 3.1 mph N5.0 kmh N 5.4 mph8.7 kmh 29.55 in1000.7 mb 0.00 in0.0 mm 0.00 in/hr0.0 mm/hr 0.00 in0.0 mm
06:23 AM 47.3°F8.5°C 42.1°F5.6°C 82% 3.2 mph N5.1 kmh N 5.4 mph8.7 kmh 29.54 in1000.3 mb 0.00 in0.0 mm 0.00 in/hr0.0 mm/hr 0.00 in0.0 mm
06:22 AM 47.3°F8.5°C 42.1°F5.6°C 82% 3.0 mph NNE4.8 kmh NNE 5.4 mph8.7 kmh 29.54 in1000.3 mb 0.00 in0.0 mm 0.00 in/hr0.0 mm/hr 0.00 in0.0 mm
06:21 AM 47.3°F8.5°C 42.1°F5.6°C 82% 2.7 mph WNW4.3 kmh WNW 4.6 mph7.4 kmh 29.55 in1000.7 mb 0.00 in0.0 mm 0.00 in/hr0.0 mm/hr 0.00 in0.0 mm
06:20 AM 47.3°F8.5°C 42.1°F5.6°C 82% 2.5 mph SSE4.0 kmh SSE 4.6 mph7.4 kmh 29.55 in1000.7 mb 0.00 in0.0 mm 0.00 in/hr0.0 mm/hr 0.00 in0.0 mm
06:19 AM 47.3°F8.5°C 42.4°F5.8°C 83% 2.4 mph SE3.9 kmh SE 4.6 mph7.4 kmh 29.54 in1000.3 mb 0.00 in0.0 mm 0.00 in/hr0.0 mm/hr 0.00 in0.0 mm
06:18 AM 47.3°F8.5°C 42.4°F5.8°C 83% 2.5 mph E4.0 kmh E 6.4 mph10.3 kmh 29.55 in1000.7 mb 0.00 in0.0 mm 0.00 in/hr0.0 mm/hr 0.00 in0.0 mm
06:17 AM 47.3°F8.5°C 42.4°F5.8°C 83% 2.4 mph E3.9 kmh E 6.4 mph10.3 kmh 29.55 in1000.7 mb 0.00 in0.0 mm 0.00 in/hr0.0 mm/hr 0.00 in0.0 mm
06:16 AM 47.3°F8.5°C 42.4°F5.8°C 83% 2.4 mph E3.9 kmh E 6.4 mph10.3 kmh 29.55 in1000.7 mb 0.00 in0.0 mm 0.00 in/hr0.0 mm/hr 0.00 in0.0 mm
06:15 AM 47.3°F8.5°C 42.4°F5.8°C 83% 2.4 mph E3.9 kmh E 6.4 mph10.3 kmh 29.55 in1000.7 mb 0.00 in0.0 mm 0.00 in/hr0.0 mm/hr 0.00 in0.0 mm
06:14 AM 47.3°F8.5°C 42.4°F5.8°C 83% 2.4 mph NE3.9 kmh NE 6.4 mph10.3 kmh 29.54 in1000.3 mb 0.00 in0.0 mm 0.00 in/hr0.0 mm/hr 0.00 in0.0 mm
06:13 AM 47.3°F8.5°C 42.4°F5.8°C 83% 2.3 mph N3.7 kmh N 6.4 mph10.3 kmh 29.54 in1000.3 mb 0.00 in0.0 mm 0.00 in/hr0.0 mm/hr 0.00 in0.0 mm
06:12 AM 47.5°F8.6°C 42.6°F5.9°C 83% 2.3 mph N3.7 kmh N 6.4 mph10.3 kmh 29.55 in1000.7 mb 0.00 in0.0 mm 0.00 in/hr0.0 mm/hr 0.00 in0.0 mm
06:11 AM 47.5°F8.6°C 42.6°F5.9°C 83% 2.3 mph NNW3.7 kmh NNW 6.4 mph10.3 kmh 29.55 in1000.7 mb 0.00 in0.0 mm 0.00 in/hr0.0 mm/hr 0.00 in0.0 mm
06:10 AM 47.3°F8.5°C 42.4°F5.8°C 83% 2.3 mph NNW3.7 kmh NNW 6.4 mph10.3 kmh 29.54 in1000.3 mb 0.00 in0.0 mm 0.00 in/hr0.0 mm/hr 0.00 in0.0 mm
06:09 AM 47.5°F8.6°C 42.6°F5.9°C 83% 2.2 mph NNW3.5 kmh NNW 6.4 mph10.3 kmh 29.54 in1000.3 mb 0.00 in0.0 mm 0.00 in/hr0.0 mm/hr 0.00 in0.0 mm
06:08 AM 47.5°F8.6°C 42.6°F5.9°C 83% 1.8 mph NW2.9 kmh NW 6.4 mph10.3 kmh 29.54 in1000.3 mb 0.00 in0.0 mm 0.00 in/hr0.0 mm/hr 0.00 in0.0 mm
06:07 AM 47.7°F8.7°C 42.8°F6.0°C 83% 1.6 mph NW2.6 kmh NW 1.9 mph3.1 kmh 29.54 in1000.3 mb 0.00 in0.0 mm 0.00 in/hr0.0 mm/hr 0.00 in0.0 mm
06:06 AM 47.7°F8.7°C 42.8°F6.0°C 83% 1.6 mph NW2.6 kmh NW 1.9 mph3.1 kmh 29.54 in1000.3 mb 0.00 in0.0 mm 0.00 in/hr0.0 mm/hr 0.00 in0.0 mm
06:05 AM 47.7°F8.7°C 42.8°F6.0°C 83% 1.6 mph NW2.6 kmh NW 1.9 mph3.1 kmh 29.54 in1000.3 mb 0.00 in0.0 mm 0.00 in/hr0.0 mm/hr 0.00 in0.0 mm
06:04 AM 47.7°F8.7°C 42.8°F6.0°C 83% 1.5 mph NNW2.4 kmh NNW 1.9 mph3.1 kmh 29.54 in1000.3 mb 0.00 in0.0 mm 0.00 in/hr0.0 mm/hr 0.00 in0.0 mm
06:03 AM 47.7°F8.7°C 42.8°F6.0°C 83% 1.3 mph NNW2.1 kmh NNW 1.9 mph3.1 kmh 29.54 in1000.3 mb 0.00 in0.0 mm 0.00 in/hr0.0 mm/hr 0.00 in0.0 mm
06:02 AM 47.7°F8.7°C 42.8°F6.0°C 83% 1.2 mph NNW1.9 kmh NNW 1.9 mph3.1 kmh 29.54 in1000.3 mb 0.00 in0.0 mm 0.00 in/hr0.0 mm/hr 0.00 in0.0 mm
06:01 AM 47.7°F8.7°C 42.8°F6.0°C 83% 1.1 mph N1.8 kmh N 1.9 mph3.1 kmh 29.55 in1000.7 mb 0.00 in0.0 mm 0.00 in/hr0.0 mm/hr 0.00 in0.0 mm
06:00 AM 47.7°F8.7°C 42.8°F6.0°C 83% 1.3 mph N2.1 kmh N 3.8 mph6.1 kmh 29.54 in1000.3 mb 0.00 in0.0 mm 0.00 in/hr0.0 mm/hr 0.00 in0.0 mm
05:59 AM 47.7°F8.7°C 42.8°F6.0°C 83% 1.6 mph NNE2.6 kmh NNE 4.6 mph7.4 kmh 29.55 in1000.7 mb 0.00 in0.0 mm 0.00 in/hr0.0 mm/hr 0.00 in0.0 mm
05:58 AM 47.7°F8.7°C 42.8°F6.0°C 83% 1.8 mph NNE2.9 kmh NNE 4.6 mph7.4 kmh 29.54 in1000.3 mb 0.00 in0.0 mm 0.00 in/hr0.0 mm/hr 0.00 in0.0 mm
05:57 AM 47.7°F8.7°C 42.8°F6.0°C 83% 1.8 mph NNE2.9 kmh NNE 4.6 mph7.4 kmh 29.55 in1000.7 mb 0.00 in0.0 mm 0.00 in/hr0.0 mm/hr 0.00 in0.0 mm
05:56 AM 47.7°F8.7°C 42.8°F6.0°C 83% 1.9 mph NE3.1 kmh NE 4.6 mph7.4 kmh 29.55 in1000.7 mb 0.00 in0.0 mm 0.00 in/hr0.0 mm/hr 0.00 in0.0 mm
05:55 AM 47.7°F8.7°C 42.8°F6.0°C 83% 2.1 mph NNE3.4 kmh NNE 4.6 mph7.4 kmh 29.55 in1000.7 mb 0.00 in0.0 mm 0.00 in/hr0.0 mm/hr 0.00 in0.0 mm
05:54 AM 47.7°F8.7°C 42.8°F6.0°C 83% 2.2 mph NNE3.5 kmh NNE 4.6 mph7.4 kmh 29.54 in1000.3 mb 0.00 in0.0 mm 0.00 in/hr0.0 mm/hr 0.00 in0.0 mm
05:53 AM 47.7°F8.7°C 42.8°F6.0°C 83% 2.6 mph NNE4.2 kmh NNE 4.6 mph7.4 kmh 29.55 in1000.7 mb 0.00 in0.0 mm 0.00 in/hr0.0 mm/hr 0.00 in0.0 mm
05:52 AM 47.7°F8.7°C 42.8°F6.0°C 83% 2.8 mph NNE4.5 kmh NNE 4.6 mph7.4 kmh 29.54 in1000.3 mb 0.00 in0.0 mm 0.00 in/hr0.0 mm/hr 0.00 in0.0 mm
05:51 AM 47.7°F8.7°C 42.8°F6.0°C 83% 2.9 mph NNE4.7 kmh NNE 4.6 mph7.4 kmh 29.55 in1000.7 mb 0.00 in0.0 mm 0.00 in/hr0.0 mm/hr 0.00 in0.0 mm
05:50 AM 47.8°F8.8°C 42.9°F6.1°C 83% 2.9 mph NE4.7 kmh NE 4.6 mph7.4 kmh 29.54 in1000.3 mb 0.00 in0.0 mm 0.00 in/hr0.0 mm/hr 0.00 in0.0 mm
05:49 AM 47.8°F8.8°C 42.9°F6.1°C 83% 2.8 mph NNE4.5 kmh NNE 4.6 mph7.4 kmh 29.54 in1000.3 mb 0.00 in0.0 mm 0.00 in/hr0.0 mm/hr 0.00 in0.0 mm
05:48 AM 47.8°F8.8°C 42.9°F6.1°C 83% 2.8 mph NE4.5 kmh NE 4.6 mph7.4 kmh 29.54 in1000.3 mb 0.00 in0.0 mm 0.00 in/hr0.0 mm/hr 0.00 in0.0 mm
05:47 AM 47.8°F8.8°C 42.9°F6.1°C 83% 2.9 mph NNE4.7 kmh NNE 4.6 mph7.4 kmh 29.54 in1000.3 mb 0.00 in0.0 mm 0.00 in/hr0.0 mm/hr 0.00 in0.0 mm
05:46 AM 47.8°F8.8°C 42.9°F6.1°C 83% 2.9 mph NNE4.7 kmh NNE 4.6 mph7.4 kmh 29.54 in1000.3 mb 0.00 in0.0 mm 0.00 in/hr0.0 mm/hr 0.00 in0.0 mm
05:45 AM 47.8°F8.8°C 42.9°F6.1°C 83% 3.0 mph N4.8 kmh N 4.6 mph7.4 kmh 29.54 in1000.3 mb 0.00 in0.0 mm 0.00 in/hr0.0 mm/hr 0.00 in0.0 mm
05:44 AM 47.8°F8.8°C 42.9°F6.1°C 83% 3.1 mph N5.0 kmh N 4.6 mph7.4 kmh 29.55 in1000.7 mb 0.00 in0.0 mm 0.00 in/hr0.0 mm/hr 0.00 in0.0 mm
05:43 AM 47.8°F8.8°C 42.9°F6.1°C 83% 3.1 mph NNE5.0 kmh NNE 4.6 mph7.4 kmh 29.54 in1000.3 mb 0.00 in0.0 mm 0.00 in/hr0.0 mm/hr 0.00 in0.0 mm
05:42 AM 48.2°F9.0°C 43.3°F6.3°C 83% 3.1 mph NNE5.0 kmh NNE 3.8 mph6.1 kmh 29.54 in1000.3 mb 0.00 in0.0 mm 0.00 in/hr0.0 mm/hr 0.00 in0.0 mm
05:41 AM 48.0°F8.9°C 43.1°F6.2°C 83% 3.3 mph NNE5.3 kmh NNE 3.8 mph6.1 kmh 29.54 in1000.3 mb 0.00 in0.0 mm 0.00 in/hr0.0 mm/hr 0.00 in0.0 mm
05:40 AM 48.0°F8.9°C 43.1°F6.2°C 83% 3.2 mph N5.1 kmh N 3.8 mph6.1 kmh 29.54 in1000.3 mb 0.00 in0.0 mm 0.00 in/hr0.0 mm/hr 0.00 in0.0 mm
05:39 AM 48.0°F8.9°C 43.1°F6.2°C 83% 3.1 mph N5.0 kmh N 3.8 mph6.1 kmh 29.54 in1000.3 mb 0.00 in0.0 mm 0.00 in/hr0.0 mm/hr 0.00 in0.0 mm
05:38 AM 48.0°F8.9°C 42.8°F6.0°C 82% 3.2 mph NNE5.1 kmh NNE 3.8 mph6.1 kmh 29.54 in1000.3 mb 0.00 in0.0 mm 0.00 in/hr0.0 mm/hr 0.00 in0.0 mm
05:37 AM 48.0°F8.9°C 42.8°F6.0°C 82% 3.1 mph NNE5.0 kmh NNE 3.8 mph6.1 kmh 29.54 in1000.3 mb 0.00 in0.0 mm 0.00 in/hr0.0 mm/hr 0.00 in0.0 mm
05:36 AM 48.2°F9.0°C 43.3°F6.3°C 83% 2.9 mph NNE4.7 kmh NNE 3.8 mph6.1 kmh 29.54 in1000.3 mb 0.00 in0.0 mm 0.00 in/hr0.0 mm/hr 0.00 in0.0 mm
05:35 AM 48.2°F9.0°C 43.3°F6.3°C 83% 2.8 mph NNE4.5 kmh NNE 3.8 mph6.1 kmh 29.53 in1000.0 mb 0.00 in0.0 mm 0.00 in/hr0.0 mm/hr 0.00 in0.0 mm
05:34 AM 48.2°F9.0°C 43.3°F6.3°C 83% 2.6 mph NE4.2 kmh NE 3.8 mph6.1 kmh 29.53 in1000.0 mb 0.00 in0.0 mm 0.00 in/hr0.0 mm/hr 0.00 in0.0 mm
05:33 AM 48.2°F9.0°C 43.3°F6.3°C 83% 2.4 mph NNE3.9 kmh NNE 3.8 mph6.1 kmh 29.54 in1000.3 mb 0.00 in0.0 mm 0.00 in/hr0.0 mm/hr 0.00 in0.0 mm
05:32 AM 48.2°F9.0°C 43.3°F6.3°C 83% 2.5 mph NNE4.0 kmh NNE 3.8 mph6.1 kmh 29.54 in1000.3 mb 0.00 in0.0 mm 0.00 in/hr0.0 mm/hr 0.00 in0.0 mm
05:31 AM 48.2°F9.0°C 43.3°F6.3°C 83% 2.5 mph NE4.0 kmh NE 3.8 mph6.1 kmh 29.54 in1000.3 mb 0.00 in0.0 mm 0.00 in/hr0.0 mm/hr 0.00 in0.0 mm
05:30 AM 48.4°F9.1°C 43.5°F6.4°C 83% 2.4 mph NE3.9 kmh NE 3.8 mph6.1 kmh 29.54 in1000.3 mb 0.00 in0.0 mm 0.00 in/hr0.0 mm/hr 0.00 in0.0 mm
05:29 AM 48.4°F9.1°C 43.5°F6.4°C 83% 2.5 mph NE4.0 kmh NE 3.8 mph6.1 kmh 29.54 in1000.3 mb 0.00 in0.0 mm 0.00 in/hr0.0 mm/hr 0.00 in0.0 mm
05:28 AM 48.4°F9.1°C 43.5°F6.4°C 83% 2.4 mph NE3.9 kmh NE 3.8 mph6.1 kmh 29.54 in1000.3 mb 0.00 in0.0 mm 0.00 in/hr0.0 mm/hr 0.00 in0.0 mm
05:27 AM 48.4°F9.1°C 43.5°F6.4°C 83% 2.4 mph NE3.9 kmh NE 3.8 mph6.1 kmh 29.54 in1000.3 mb 0.00 in0.0 mm 0.00 in/hr0.0 mm/hr 0.00 in0.0 mm
05:26 AM 48.4°F9.1°C 43.5°F6.4°C 83% 2.6 mph NE4.2 kmh NE 3.8 mph6.1 kmh 29.54 in1000.3 mb 0.00 in0.0 mm 0.00 in/hr0.0 mm/hr 0.00 in0.0 mm
05:25 AM 48.6°F9.2°C 43.6°F6.4°C 83% 2.7 mph NE4.3 kmh NE 3.8 mph6.1 kmh 29.54 in1000.3 mb 0.00 in0.0 mm 0.00 in/hr0.0 mm/hr 0.00 in0.0 mm
05:24 AM 48.6°F9.2°C 43.6°F6.4°C 83% 2.8 mph NE4.5 kmh NE 3.8 mph6.1 kmh 29.53 in1000.0 mb 0.00 in0.0 mm 0.00 in/hr0.0 mm/hr 0.00 in0.0 mm
05:23 AM 48.6°F9.2°C 43.6°F6.4°C 83% 2.9 mph ENE4.7 kmh ENE 3.8 mph6.1 kmh 29.53 in1000.0 mb 0.00 in0.0 mm 0.00 in/hr0.0 mm/hr 0.00 in0.0 mm
05:22 AM 48.6°F9.2°C 43.6°F6.4°C 83% 2.9 mph NE4.7 kmh NE 3.8 mph6.1 kmh 29.53 in1000.0 mb 0.00 in0.0 mm 0.00 in/hr0.0 mm/hr 0.00 in0.0 mm
05:21 AM 48.6°F9.2°C 43.6°F6.4°C 83% 2.8 mph NE4.5 kmh NE 3.8 mph6.1 kmh 29.53 in1000.0 mb 0.00 in0.0 mm 0.00 in/hr0.0 mm/hr 0.00 in0.0 mm
05:20 AM 48.6°F9.2°C 43.6°F6.4°C 83% 2.8 mph NE4.5 kmh NE 3.8 mph6.1 kmh 29.53 in1000.0 mb 0.00 in0.0 mm 0.00 in/hr0.0 mm/hr 0.00 in0.0 mm
05:19 AM 48.6°F9.2°C 43.6°F6.4°C 83% 2.9 mph NNE4.7 kmh NNE 3.8 mph6.1 kmh 29.54 in1000.3 mb 0.00 in0.0 mm 0.00 in/hr0.0 mm/hr 0.00 in0.0 mm
05:18 AM 48.7°F9.3°C 43.8°F6.6°C 83% 3.0 mph NE4.8 kmh NE 3.8 mph6.1 kmh 29.53 in1000.0 mb 0.00 in0.0 mm 0.00 in/hr0.0 mm/hr 0.00 in0.0 mm
05:17 AM 48.7°F9.3°C 43.8°F6.6°C 83% 3.1 mph NNE5.0 kmh NNE 4.6 mph7.4 kmh 29.53 in1000.0 mb 0.00 in0.0 mm 0.00 in/hr0.0 mm/hr 0.00 in0.0 mm
05:16 AM 48.7°F9.3°C 43.8°F6.6°C 83% 3.3 mph N5.3 kmh N 4.6 mph7.4 kmh 29.53 in1000.0 mb 0.00 in0.0 mm 0.00 in/hr0.0 mm/hr 0.00 in0.0 mm
05:15 AM 48.7°F9.3°C 43.8°F6.6°C 83% 3.4 mph N5.5 kmh N 4.6 mph7.4 kmh 29.53 in1000.0 mb 0.00 in0.0 mm 0.00 in/hr0.0 mm/hr 0.00 in0.0 mm
05:14 AM 48.7°F9.3°C 43.8°F6.6°C 83% 3.6 mph N5.8 kmh N 4.6 mph7.4 kmh 29.53 in1000.0 mb 0.00 in0.0 mm 0.00 in/hr0.0 mm/hr 0.00 in0.0 mm
05:13 AM 48.7°F9.3°C 43.8°F6.6°C 83% 3.8 mph N6.1 kmh N 4.6 mph7.4 kmh 29.53 in1000.0 mb 0.00 in0.0 mm 0.00 in/hr0.0 mm/hr 0.00 in0.0 mm
05:12 AM 48.9°F9.4°C 44.0°F6.7°C 83% 3.9 mph N6.3 kmh N 4.6 mph7.4 kmh 29.52 in999.7 mb 0.00 in0.0 mm 0.00 in/hr0.0 mm/hr 0.00 in0.0 mm
05:11 AM 48.9°F9.4°C 44.0°F6.7°C 83% 4.2 mph N6.8 kmh N 4.6 mph7.4 kmh 29.53 in1000.0 mb 0.00 in0.0 mm 0.00 in/hr0.0 mm/hr 0.00 in0.0 mm
05:10 AM 48.9°F9.4°C 44.0°F6.7°C 83% 4.4 mph N7.1 kmh N 4.6 mph7.4 kmh 29.53 in1000.0 mb 0.00 in0.0 mm 0.00 in/hr0.0 mm/hr 0.00 in0.0 mm
05:09 AM 48.9°F9.4°C 44.0°F6.7°C 83% 4.4 mph N7.1 kmh N 4.6 mph7.4 kmh 29.53 in1000.0 mb 0.00 in0.0 mm 0.00 in/hr0.0 mm/hr 0.00 in0.0 mm
05:08 AM 48.9°F9.4°C 44.0°F6.7°C 83% 4.3 mph N6.9 kmh N 4.6 mph7.4 kmh 29.53 in1000.0 mb 0.00 in0.0 mm 0.00 in/hr0.0 mm/hr 0.00 in0.0 mm
05:07 AM 49.3°F9.6°C 45.3°F7.4°C 86% 4.2 mph N6.8 kmh N 4.6 mph7.4 kmh 29.53 in1000.0 mb 0.00 in0.0 mm 0.00 in/hr0.0 mm/hr 0.00 in0.0 mm
05:06 AM 49.3°F9.6°C 45.3°F7.4°C 86% 4.2 mph N6.8 kmh N 5.4 mph8.7 kmh 29.53 in1000.0 mb 0.00 in0.0 mm 0.00 in/hr0.0 mm/hr 0.00 in0.0 mm
05:05 AM 49.3°F9.6°C 45.3°F7.4°C 86% 4.4 mph N7.1 kmh N 7.2 mph11.6 kmh 29.53 in1000.0 mb 0.00 in0.0 mm 0.00 in/hr0.0 mm/hr 0.00 in0.0 mm
05:04 AM 49.3°F9.6°C 45.3°F7.4°C 86% 4.4 mph N7.1 kmh N 7.2 mph11.6 kmh 29.53 in1000.0 mb 0.00 in0.0 mm 0.00 in/hr0.0 mm/hr 0.00 in0.0 mm
05:03 AM 49.3°F9.6°C 45.3°F7.4°C 86% 4.2 mph N6.8 kmh N 7.2 mph11.6 kmh 29.53 in1000.0 mb 0.00 in0.0 mm 0.00 in/hr0.0 mm/hr 0.00 in0.0 mm
05:02 AM 49.3°F9.6°C 45.3°F7.4°C 86% 4.0 mph NNE6.4 kmh NNE 7.2 mph11.6 kmh 29.53 in1000.0 mb 0.00 in0.0 mm 0.00 in/hr0.0 mm/hr 0.00 in0.0 mm
05:01 AM 49.3°F9.6°C 45.3°F7.4°C 86% 3.8 mph NNE6.1 kmh NNE 7.2 mph11.6 kmh 29.52 in999.7 mb 0.00 in0.0 mm 0.00 in/hr0.0 mm/hr 0.00 in0.0 mm
05:00 AM 49.3°F9.6°C 45.3°F7.4°C 86% 3.5 mph NNE5.6 kmh NNE 7.2 mph11.6 kmh 29.53 in1000.0 mb 0.00 in0.0 mm 0.00 in/hr0.0 mm/hr 0.00 in0.0 mm
04:59 AM 49.3°F9.6°C 45.3°F7.4°C 86% 3.5 mph NNE5.6 kmh NNE 7.2 mph11.6 kmh 29.52 in999.7 mb 0.00 in0.0 mm 0.00 in/hr0.0 mm/hr 0.00 in0.0 mm
04:58 AM 49.3°F9.6°C 45.3°F7.4°C 86% 3.5 mph NNE5.6 kmh NNE 7.2 mph11.6 kmh 29.52 in999.7 mb 0.00 in0.0 mm 0.00 in/hr0.0 mm/hr 0.00 in0.0 mm
04:57 AM 49.3°F9.6°C 45.3°F7.4°C 86% 3.4 mph N5.5 kmh N 7.2 mph11.6 kmh 29.52 in999.7 mb 0.00 in0.0 mm 0.00 in/hr0.0 mm/hr 0.00 in0.0 mm
04:56 AM 49.3°F9.6°C 45.3°F7.4°C 86% 3.0 mph NNE4.8 kmh NNE 7.2 mph11.6 kmh 29.52 in999.7 mb 0.00 in0.0 mm 0.00 in/hr0.0 mm/hr 0.00 in0.0 mm
04:55 AM 49.3°F9.6°C 45.3°F7.4°C 86% 2.5 mph NNE4.0 kmh NNE 7.2 mph11.6 kmh 29.52 in999.7 mb 0.00 in0.0 mm 0.00 in/hr0.0 mm/hr 0.00 in0.0 mm
04:54 AM 49.5°F9.7°C 45.5°F7.5°C 86% 2.2 mph NNE3.5 kmh NNE 3.8 mph6.1 kmh 29.52 in999.7 mb 0.00 in0.0 mm 0.00 in/hr0.0 mm/hr 0.00 in0.0 mm
04:53 AM 49.5°F9.7°C 45.5°F7.5°C 86% 2.1 mph N3.4 kmh N 3.8 mph6.1 kmh 29.52 in999.7 mb 0.00 in0.0 mm 0.00 in/hr0.0 mm/hr 0.00 in0.0 mm
04:52 AM 49.5°F9.7°C 45.5°F7.5°C 86% 1.9 mph N3.1 kmh N 3.8 mph6.1 kmh 29.52 in999.7 mb 0.00 in0.0 mm 0.00 in/hr0.0 mm/hr 0.00 in0.0 mm
04:51 AM 49.5°F9.7°C 45.5°F7.5°C 86% 1.9 mph N3.1 kmh N 3.8 mph6.1 kmh 29.52 in999.7 mb 0.00 in0.0 mm 0.00 in/hr0.0 mm/hr 0.00 in0.0 mm
04:50 AM 49.5°F9.7°C 45.5°F7.5°C 86% 1.9 mph N3.1 kmh N 3.8 mph6.1 kmh 29.52 in999.7 mb 0.00 in0.0 mm 0.00 in/hr0.0 mm/hr 0.00 in0.0 mm
04:49 AM 49.5°F9.7°C 45.5°F7.5°C 86% 1.9 mph N3.1 kmh N 3.8 mph6.1 kmh 29.52 in999.7 mb 0.00 in0.0 mm 0.00 in/hr0.0 mm/hr 0.00 in0.0 mm
04:48 AM 49.5°F9.7°C 45.5°F7.5°C 86% 2.0 mph N3.2 kmh N 3.8 mph6.1 kmh 29.52 in999.7 mb 0.00 in0.0 mm 0.00 in/hr0.0 mm/hr 0.00 in0.0 mm
04:47 AM 49.5°F9.7°C 45.5°F7.5°C 86% 2.1 mph NNW3.4 kmh NNW 3.8 mph6.1 kmh 29.52 in999.7 mb 0.00 in0.0 mm 0.00 in/hr0.0 mm/hr 0.00 in0.0 mm
04:46 AM 49.5°F9.7°C 45.5°F7.5°C 86% 2.2 mph NNW3.5 kmh NNW 3.8 mph6.1 kmh 29.52 in999.7 mb 0.00 in0.0 mm 0.00 in/hr0.0 mm/hr 0.00 in0.0 mm
04:45 AM 49.6°F9.8°C 45.6°F7.6°C 86% 2.3 mph NNW3.7 kmh NNW 3.8 mph6.1 kmh 29.52 in999.7 mb 0.00 in0.0 mm 0.00 in/hr0.0 mm/hr 0.00 in0.0 mm
04:44 AM 49.6°F9.8°C 45.6°F7.6°C 86% 2.3 mph N3.7 kmh N 3.8 mph6.1 kmh 29.52 in999.7 mb 0.00 in0.0 mm 0.00 in/hr0.0 mm/hr 0.00 in0.0 mm
04:43 AM 49.6°F9.8°C 45.6°F7.6°C 86% 2.5 mph N4.0 kmh N 3.8 mph6.1 kmh 29.52 in999.7 mb 0.00 in0.0 mm 0.00 in/hr0.0 mm/hr 0.00 in0.0 mm
04:42 AM 49.6°F9.8°C 45.6°F7.6°C 86% 2.6 mph N4.2 kmh N 3.8 mph6.1 kmh 29.52 in999.7 mb 0.00 in0.0 mm 0.00 in/hr0.0 mm/hr 0.00 in0.0 mm
04:41 AM 49.6°F9.8°C 45.6°F7.6°C 86% 2.5 mph N4.0 kmh N 3.8 mph6.1 kmh 29.52 in999.7 mb 0.00 in0.0 mm 0.00 in/hr0.0 mm/hr 0.00 in0.0 mm
04:40 AM 49.6°F9.8°C 45.6°F7.6°C 86% 2.5 mph N4.0 kmh N 3.8 mph6.1 kmh 29.52 in999.7 mb 0.00 in0.0 mm 0.00 in/hr0.0 mm/hr 0.00 in0.0 mm
04:39 AM 49.6°F9.8°C 45.6°F7.6°C 86% 2.4 mph N3.9 kmh N 3.8 mph6.1 kmh 29.52 in999.7 mb 0.00 in0.0 mm 0.00 in/hr0.0 mm/hr 0.00 in0.0 mm
04:38 AM 49.6°F9.8°C 45.9°F7.7°C 87% 2.3 mph NE3.7 kmh NE 3.8 mph6.1 kmh 29.52 in999.7 mb 0.00 in0.0 mm 0.00 in/hr0.0 mm/hr 0.00 in0.0 mm
04:37 AM 49.6°F9.8°C 45.6°F7.6°C 86% 2.3 mph NE3.7 kmh NE 3.8 mph6.1 kmh 29.52 in999.7 mb 0.00 in0.0 mm 0.00 in/hr0.0 mm/hr 0.00 in0.0 mm
04:36 AM 49.6°F9.8°C 45.6°F7.6°C 86% 2.4 mph NE3.9 kmh NE 3.8 mph6.1 kmh 29.52 in999.7 mb 0.00 in0.0 mm 0.00 in/hr0.0 mm/hr 0.00 in0.0 mm
04:35 AM 49.6°F9.8°C 45.6°F7.6°C 86% 2.4 mph NE3.9 kmh NE 3.8 mph6.1 kmh 29.52 in999.7 mb 0.00 in0.0 mm 0.00 in/hr0.0 mm/hr 0.00 in0.0 mm
04:34 AM 49.6°F9.8°C 45.6°F7.6°C 86% 2.3 mph NE3.7 kmh NE 3.8 mph6.1 kmh 29.52 in999.7 mb 0.00 in0.0 mm 0.00 in/hr0.0 mm/hr 0.00 in0.0 mm
04:33 AM 49.8°F9.9°C 45.8°F7.7°C 86% 2.2 mph NE3.5 kmh NE 3.8 mph6.1 kmh 29.52 in999.7 mb 0.00 in0.0 mm 0.00 in/hr0.0 mm/hr 0.00 in0.0 mm
04:32 AM 49.8°F9.9°C 45.8°F7.7°C 86% 2.3 mph NE3.7 kmh NE 3.8 mph6.1 kmh 29.52 in999.7 mb 0.00 in0.0 mm 0.00 in/hr0.0 mm/hr 0.00 in0.0 mm
04:31 AM 49.8°F9.9°C 45.8°F7.7°C 86% 2.2 mph NE3.5 kmh NE 3.8 mph6.1 kmh 29.52 in999.7 mb 0.00 in0.0 mm 0.00 in/hr0.0 mm/hr 0.00 in0.0 mm
04:30 AM 49.8°F9.9°C 45.8°F7.7°C 86% 2.2 mph NE3.5 kmh NE 3.8 mph6.1 kmh 29.52 in999.7 mb 0.00 in0.0 mm 0.00 in/hr0.0 mm/hr 0.00 in0.0 mm
04:29 AM 49.8°F9.9°C 45.8°F7.7°C 86% 2.0 mph NE3.2 kmh NE 3.8 mph6.1 kmh 29.52 in999.7 mb 0.00 in0.0 mm 0.00 in/hr0.0 mm/hr 0.00 in0.0 mm
04:28 AM 49.8°F9.9°C 45.8°F7.7°C 86% 1.9 mph NE3.1 kmh NE 3.8 mph6.1 kmh 29.52 in999.7 mb 0.00 in0.0 mm 0.00 in/hr0.0 mm/hr 0.00 in0.0 mm
04:27 AM 49.8°F9.9°C 45.8°F7.7°C 86% 1.8 mph NE2.9 kmh NE 2.7 mph4.3 kmh 29.52 in999.7 mb 0.00 in0.0 mm 0.00 in/hr0.0 mm/hr 0.00 in0.0 mm
04:26 AM 49.8°F9.9°C 45.8°F7.7°C 86% 1.7 mph NNE2.7 kmh NNE 2.7 mph4.3 kmh 29.52 in999.7 mb 0.00 in0.0 mm 0.00 in/hr0.0 mm/hr 0.00 in0.0 mm
04:25 AM 50.0°F10.0°C 46.0°F7.8°C 86% 1.9 mph NNE3.1 kmh NNE 3.8 mph6.1 kmh 29.52 in999.7 mb 0.00 in0.0 mm 0.00 in/hr0.0 mm/hr 0.00 in0.0 mm
04:24 AM 50.0°F10.0°C 46.0°F7.8°C 86% 1.9 mph N3.1 kmh N 3.8 mph6.1 kmh 29.52 in999.7 mb 0.00 in0.0 mm 0.00 in/hr0.0 mm/hr 0.00 in0.0 mm
04:23 AM 50.0°F10.0°C 46.0°F7.8°C 86% 2.0 mph N3.2 kmh N 3.8 mph6.1 kmh 29.52 in999.7 mb 0.00 in0.0 mm 0.00 in/hr0.0 mm/hr 0.00 in0.0 mm
04:22 AM 50.0°F10.0°C 46.0°F7.8°C 86% 2.0 mph N3.2 kmh N 3.8 mph6.1 kmh 29.52 in999.7 mb 0.00 in0.0 mm 0.00 in/hr0.0 mm/hr 0.00 in0.0 mm
04:21 AM 50.0°F10.0°C 46.0°F7.8°C 86% 2.2 mph N3.5 kmh N 3.8 mph6.1 kmh 29.52 in999.7 mb 0.00 in0.0 mm 0.00 in/hr0.0 mm/hr 0.00 in0.0 mm
04:20 AM 50.0°F10.0°C 46.0°F7.8°C 86% 2.4 mph N3.9 kmh N 3.8 mph6.1 kmh 29.52 in999.7 mb 0.00 in0.0 mm 0.00 in/hr0.0 mm/hr 0.00 in0.0 mm
04:19 AM 50.0°F10.0°C 46.0°F7.8°C 86% 2.6 mph N4.2 kmh N 3.8 mph6.1 kmh 29.52 in999.7 mb 0.00 in0.0 mm 0.00 in/hr0.0 mm/hr 0.00 in0.0 mm
04:18 AM 50.2°F10.1°C 46.2°F7.9°C 86% 2.8 mph N4.5 kmh N 3.8 mph6.1 kmh 29.52 in999.7 mb 0.00 in0.0 mm 0.00 in/hr0.0 mm/hr 0.00 in0.0 mm
04:17 AM 50.2°F10.1°C 46.2°F7.9°C 86% 3.0 mph N4.8 kmh N 3.8 mph6.1 kmh 29.52 in999.7 mb 0.00 in0.0 mm 0.00 in/hr0.0 mm/hr 0.00 in0.0 mm
04:16 AM 50.2°F10.1°C 46.2°F7.9°C 86% 3.2 mph N5.1 kmh N 3.8 mph6.1 kmh 29.52 in999.7 mb 0.00 in0.0 mm 0.00 in/hr0.0 mm/hr 0.00 in0.0 mm
04:15 AM 50.2°F10.1°C 46.2°F7.9°C 86% 3.2 mph NNW5.1 kmh NNW 3.8 mph6.1 kmh 29.52 in999.7 mb 0.00 in0.0 mm 0.00 in/hr0.0 mm/hr 0.00 in0.0 mm
04:14 AM 50.4°F10.2°C 46.3°F7.9°C 86% 3.3 mph NNW5.3 kmh NNW 3.8 mph6.1 kmh 29.52 in999.7 mb 0.00 in0.0 mm 0.00 in/hr0.0 mm/hr 0.00 in0.0 mm
04:13 AM 50.4°F10.2°C 46.3°F7.9°C 86% 3.4 mph NNW5.5 kmh NNW 3.8 mph6.1 kmh 29.52 in999.7 mb 0.00 in0.0 mm 0.00 in/hr0.0 mm/hr 0.00 in0.0 mm
04:12 AM 50.4°F10.2°C 46.3°F7.9°C 86% 3.5 mph NW5.6 kmh NW 3.8 mph6.1 kmh 29.52 in999.7 mb 0.00 in0.0 mm 0.00 in/hr0.0 mm/hr 0.00 in0.0 mm
04:11 AM 50.4°F10.2°C 46.3°F7.9°C 86% 3.6 mph NW5.8 kmh NW 3.8 mph6.1 kmh 29.52 in999.7 mb 0.00 in0.0 mm 0.00 in/hr0.0 mm/hr 0.00 in0.0 mm
04:10 AM 50.5°F10.3°C 46.5°F8.1°C 86% 3.7 mph NW6.0 kmh NW 4.6 mph7.4 kmh 29.52 in999.7 mb 0.00 in0.0 mm 0.00 in/hr0.0 mm/hr 0.00 in0.0 mm
04:09 AM 50.4°F10.2°C 46.3°F7.9°C 86% 3.8 mph NW6.1 kmh NW 4.6 mph7.4 kmh 29.52 in999.7 mb 0.00 in0.0 mm 0.00 in/hr0.0 mm/hr 0.00 in0.0 mm
04:08 AM 50.7°F10.4°C 47.0°F8.3°C 87% 3.8 mph NW6.1 kmh NW 4.6 mph7.4 kmh 29.53 in1000.0 mb 0.00 in0.0 mm 0.00 in/hr0.0 mm/hr 0.00 in0.0 mm
04:07 AM 50.7°F10.4°C 47.0°F8.3°C 87% 3.7 mph NW6.0 kmh NW 4.6 mph7.4 kmh 29.53 in1000.0 mb 0.00 in0.0 mm 0.00 in/hr0.0 mm/hr 0.00 in0.0 mm
04:06 AM 50.7°F10.4°C 47.0°F8.3°C 87% 3.6 mph NNW5.8 kmh NNW 4.6 mph7.4 kmh 29.53 in1000.0 mb 0.00 in0.0 mm 0.00 in/hr0.0 mm/hr 0.00 in0.0 mm
04:05 AM 50.7°F10.4°C 47.0°F8.3°C 87% 3.7 mph NNW6.0 kmh NNW 4.6 mph7.4 kmh 29.52 in999.7 mb 0.00 in0.0 mm 0.00 in/hr0.0 mm/hr 0.00 in0.0 mm
04:04 AM 50.7°F10.4°C 47.0°F8.3°C 87% 3.7 mph NNW6.0 kmh NNW 4.6 mph7.4 kmh 29.53 in1000.0 mb 0.00 in0.0 mm 0.00 in/hr0.0 mm/hr 0.00 in0.0 mm
04:03 AM 50.7°F10.4°C 47.0°F8.3°C 87% 3.7 mph NNW6.0 kmh NNW 4.6 mph7.4 kmh 29.53 in1000.0 mb 0.00 in0.0 mm 0.00 in/hr0.0 mm/hr 0.00 in0.0 mm
04:02 AM 50.7°F10.4°C 47.0°F8.3°C 87% 3.6 mph NNW5.8 kmh NNW 4.6 mph7.4 kmh 29.52 in999.7 mb 0.00 in0.0 mm 0.00 in/hr0.0 mm/hr 0.00 in0.0 mm
04:01 AM 50.7°F10.4°C 47.0°F8.3°C 87% 3.6 mph N5.8 kmh N 4.6 mph7.4 kmh 29.52 in999.7 mb 0.00 in0.0 mm 0.00 in/hr0.0 mm/hr 0.00 in0.0 mm
04:00 AM 50.7°F10.4°C 47.0°F8.3°C 87% 3.5 mph N5.6 kmh N 4.6 mph7.4 kmh 29.52 in999.7 mb 0.00 in0.0 mm 0.00 in/hr0.0 mm/hr 0.00 in0.0 mm
03:59 AM 50.7°F10.4°C 47.0°F8.3°C 87% 3.5 mph N5.6 kmh N 4.6 mph7.4 kmh 29.52 in999.7 mb 0.00 in0.0 mm 0.00 in/hr0.0 mm/hr 0.00 in0.0 mm
03:58 AM 50.7°F10.4°C 47.0°F8.3°C 87% 3.4 mph N5.5 kmh N 4.6 mph7.4 kmh 29.52 in999.7 mb 0.00 in0.0 mm 0.00 in/hr0.0 mm/hr 0.00 in0.0 mm
03:57 AM 50.7°F10.4°C 47.3°F8.5°C 88% 3.3 mph N5.3 kmh N 4.6 mph7.4 kmh 29.52 in999.7 mb 0.00 in0.0 mm 0.00 in/hr0.0 mm/hr 0.00 in0.0 mm
03:56 AM 50.7°F10.4°C 47.3°F8.5°C 88% 3.3 mph N5.3 kmh N 4.6 mph7.4 kmh 29.52 in999.7 mb 0.00 in0.0 mm 0.00 in/hr0.0 mm/hr 0.00 in0.0 mm
03:55 AM 50.9°F10.5°C 47.2°F8.4°C 87% 3.1 mph N5.0 kmh N 4.6 mph7.4 kmh 29.52 in999.7 mb 0.00 in0.0 mm 0.00 in/hr0.0 mm/hr 0.00 in0.0 mm
03:54 AM 50.9°F10.5°C 47.5°F8.6°C 88% 2.9 mph N4.7 kmh N 3.8 mph6.1 kmh 29.52 in999.7 mb 0.00 in0.0 mm 0.00 in/hr0.0 mm/hr 0.00 in0.0 mm
03:53 AM 50.9°F10.5°C 47.5°F8.6°C 88% 2.9 mph N4.7 kmh N 3.8 mph6.1 kmh 29.52 in999.7 mb 0.00 in0.0 mm 0.00 in/hr0.0 mm/hr 0.00 in0.0 mm
03:52 AM 50.9°F10.5°C 47.5°F8.6°C 88% 2.9 mph N4.7 kmh N 3.8 mph6.1 kmh 29.52 in999.7 mb 0.00 in0.0 mm 0.00 in/hr0.0 mm/hr 0.00 in0.0 mm
03:51 AM 50.9°F10.5°C 47.5°F8.6°C 88% 2.7 mph N4.3 kmh N 3.8 mph6.1 kmh 29.52 in999.7 mb 0.00 in0.0 mm 0.00 in/hr0.0 mm/hr 0.00 in0.0 mm
03:50 AM 50.9°F10.5°C 47.5°F8.6°C 88% 2.7 mph N4.3 kmh N 3.8 mph6.1 kmh 29.52 in999.7 mb 0.00 in0.0 mm 0.00 in/hr0.0 mm/hr 0.00 in0.0 mm
03:49 AM 50.9°F10.5°C 47.5°F8.6°C 88% 2.7 mph N4.3 kmh N 3.8 mph6.1 kmh 29.52 in999.7 mb 0.00 in0.0 mm 0.00 in/hr0.0 mm/hr 0.00 in0.0 mm
03:48 AM 51.1°F10.6°C 47.7°F8.7°C 88% 2.7 mph N4.3 kmh N 3.8 mph6.1 kmh 29.52 in999.7 mb 0.00 in0.0 mm 0.00 in/hr0.0 mm/hr 0.00 in0.0 mm
03:47 AM 51.1°F10.6°C 47.7°F8.7°C 88% 2.8 mph N4.5 kmh N 3.8 mph6.1 kmh 29.52 in999.7 mb 0.00 in0.0 mm 0.00 in/hr0.0 mm/hr 0.00 in0.0 mm
03:46 AM 51.1°F10.6°C 47.7°F8.7°C 88% 2.7 mph N4.3 kmh N 3.8 mph6.1 kmh 29.52 in999.7 mb 0.00 in0.0 mm 0.00 in/hr0.0 mm/hr 0.00 in0.0 mm
03:45 AM 51.1°F10.6°C 47.7°F8.7°C 88% 2.7 mph N4.3 kmh N 3.8 mph6.1 kmh 29.52 in999.7 mb 0.00 in0.0 mm 0.00 in/hr0.0 mm/hr 0.00 in0.0 mm
03:44 AM 51.1°F10.6°C 47.7°F8.7°C 88% 2.7 mph N4.3 kmh N 3.8 mph6.1 kmh 29.52 in999.7 mb 0.00 in0.0 mm 0.00 in/hr0.0 mm/hr 0.00 in0.0 mm
03:43 AM 51.1°F10.6°C 47.7°F8.7°C 88% 2.8 mph N4.5 kmh N 3.8 mph6.1 kmh 29.52 in999.7 mb 0.00 in0.0 mm 0.00 in/hr0.0 mm/hr 0.00 in0.0 mm
03:42 AM 51.1°F10.6°C 47.7°F8.7°C 88% 2.8 mph N4.5 kmh N 3.8 mph6.1 kmh 29.52 in999.7 mb 0.00 in0.0 mm 0.00 in/hr0.0 mm/hr 0.00 in0.0 mm
03:41 AM 51.1°F10.6°C 47.7°F8.7°C 88% 2.9 mph NNE4.7 kmh NNE 3.8 mph6.1 kmh 29.52 in999.7 mb 0.00 in0.0 mm 0.00 in/hr0.0 mm/hr 0.00 in0.0 mm
03:40 AM 51.1°F10.6°C 48.0°F8.9°C 89% 2.8 mph NNE4.5 kmh NNE 3.8 mph6.1 kmh 29.52 in999.7 mb 0.00 in0.0 mm 0.00 in/hr0.0 mm/hr 0.00 in0.0 mm
03:39 AM 51.3°F10.7°C 48.1°F8.9°C 89% 2.8 mph NNE4.5 kmh NNE 3.8 mph6.1 kmh 29.52 in999.7 mb 0.00 in0.0 mm 0.00 in/hr0.0 mm/hr 0.00 in0.0 mm
03:38 AM 51.3°F10.7°C 48.1°F8.9°C 89% 2.6 mph NNE4.2 kmh NNE 3.8 mph6.1 kmh 29.52 in999.7 mb 0.00 in0.0 mm 0.00 in/hr0.0 mm/hr 0.00 in0.0 mm
03:37 AM 51.3°F10.7°C 48.1°F8.9°C 89% 2.6 mph NNE4.2 kmh NNE 3.8 mph6.1 kmh 29.52 in999.7 mb 0.00 in0.0 mm 0.00 in/hr0.0 mm/hr 0.00 in0.0 mm
03:36 AM 51.3°F10.7°C 48.1°F8.9°C 89% 2.6 mph NNE4.2 kmh NNE 3.8 mph6.1 kmh 29.52 in999.7 mb 0.00 in0.0 mm 0.00 in/hr0.0 mm/hr 0.00 in0.0 mm
03:35 AM 51.3°F10.7°C 48.1°F8.9°C 89% 2.6 mph NNE4.2 kmh NNE